Provisional Data: Baldwin Creek near Lowman, NY


Please select a monitoring station.
Please select start date.
Please select start date.

Toggle Unit: C/F Toggle Unit: C/F
Sample Time Temperature (C) Temperature (F) Specific Conductivity (mS/cm) pH   Turbidity (NTU+) DO (mg/L)
3/23/2021 12:00:00 AM 5.85 42.53 0.133 7.1 7.18 11.91
3/23/2021 12:15:00 AM 5.76 42.368 0.133 7.09 7.06 11.94
3/23/2021 12:30:00 AM 5.67 42.206 0.133 7.08 7.19 11.97
3/23/2021 12:45:00 AM 5.58 42.044 0.133 7.1 7.13 12
3/23/2021 1:00:00 AM 5.48 41.864 0.133 7.09 7.16 12.03
3/23/2021 1:15:00 AM 5.37 41.666 0.133 7.09 7.24 12.07
3/23/2021 1:30:00 AM 5.26 41.468 0.133 7.09 7.02 12.11
3/23/2021 1:45:00 AM 5.15 41.27 0.133 7.08 6.96 12.15
3/23/2021 2:00:00 AM 5.04 41.072 0.133 7.08 7.01 12.18
3/23/2021 2:15:00 AM 4.93 40.874 0.133 7.09 7.18 12.22
3/23/2021 2:30:00 AM 4.82 40.676 0.133 7.08 7.07 12.26
3/23/2021 2:45:00 AM 4.71 40.478 0.133 7.09 6.76 12.3
3/23/2021 3:00:00 AM 4.6 40.28 0.133 7.09 6.85 12.34
3/23/2021 3:15:00 AM 4.49 40.082 0.133 7.1 6.88 12.37
3/23/2021 3:30:00 AM 4.38 39.884 0.133 7.09 6.66 12.42
3/23/2021 3:45:00 AM 4.28 39.704 0.133 7.09 6.8 12.45
3/23/2021 4:00:00 AM 4.18 39.524 0.134 7.1 6.71 12.49
3/23/2021 4:15:00 AM 4.08 39.344 0.133 7.1 6.98 12.52
3/23/2021 4:30:00 AM 3.99 39.182 0.134 7.1 6.77 12.56
3/23/2021 4:45:00 AM 3.89 39.002 0.134 7.1 6.53 12.59
3/23/2021 5:00:00 AM 3.8 38.84 0.134 7.1 6.74 12.62
3/23/2021 5:15:00 AM 3.71 38.678 0.134 7.09 6.72 12.66
3/23/2021 5:30:00 AM 3.61 38.498 0.134 7.1 6.65 12.7
3/23/2021 5:45:00 AM 3.52 38.336 0.134 7.1 6.53 12.73
3/23/2021 6:00:00 AM 3.44 38.192 0.134 6.93 6.54 12.77
3/23/2021 6:15:00 AM 3.35 38.03 0.134 7.1 6.82 12.8
3/23/2021 6:30:00 AM 3.27 37.886 0.134 7.09 6.79 12.82
3/23/2021 6:45:00 AM 3.19 37.742 0.134 7.1 6.44 12.85
3/23/2021 7:00:00 AM 3.11 37.598 0.134 7.1 6.48 12.89
3/23/2021 7:15:00 AM 3.04 37.472 0.134 7.1 6.38 12.92
3/23/2021 7:30:00 AM 2.96 37.328 0.134 7.1 6.44 12.99
3/23/2021 7:45:00 AM 2.91 37.238 0.134 7.11 6.22 13.06
3/23/2021 8:00:00 AM 2.86 37.148 0.134 7.13 6.16 13.14
3/23/2021 8:15:00 AM 2.83 37.094 0.134 7.14 6.34 13.22
3/23/2021 8:30:00 AM 2.83 37.094 0.134 7.16 5.79 13.29
3/23/2021 8:45:00 AM 2.84 37.112 0.134 7.17 6.22 13.36
3/23/2021 9:00:00 AM 2.88 37.184 0.134 7.2 6.08 13.42
3/23/2021 9:15:00 AM 2.95 37.31 0.134 7.23 6 13.46
3/23/2021 9:30:00 AM 3.04 37.472 0.134 7.24 5.94 13.49
3/23/2021 9:45:00 AM 3.14 37.652 0.134 7.25 5.8 13.52
3/23/2021 10:00:00 AM 3.26 37.868 0.134 7.27 5.67 13.53
3/23/2021 10:15:00 AM 3.4 38.12 0.134 7.27 5.62 13.54
3/23/2021 10:30:00 AM 3.56 38.408 0.134 7.28 5.65 13.53
3/23/2021 10:45:00 AM 3.78 38.804 0.134 7.29 5.71 13.51
3/23/2021 11:00:00 AM 4 39.2 0.134 7.28 5.71 13.48
3/23/2021 11:15:00 AM 4.25 39.65 0.134 7.31 5.56 13.45
3/23/2021 11:30:00 AM 4.52 40.136 0.134 7.31 5.65 13.41
3/23/2021 11:45:00 AM 4.78 40.604 0.134 7.31 5.76 13.37
3/23/2021 12:00:00 PM 5.05 41.09 0.134 7.32 5.46 13.31
3/23/2021 12:15:00 PM 5.32 41.576 0.134 7.34 5.47 13.26
3/23/2021 12:30:00 PM 5.57 42.026 0.134 7.34 5.73 13.2
3/23/2021 12:45:00 PM 5.8 42.44 0.134 7.34 5.68 13.13
3/23/2021 1:00:00 PM 6.03 42.854 0.134 7.29 5.66 13.07
3/23/2021 1:15:00 PM 6.22 43.196 0.133 7.36 5.59 13.01
3/23/2021 1:30:00 PM 6.39 43.502 0.133 7.36 5.67 12.95
3/23/2021 1:45:00 PM 6.57 43.826 0.133 7.38 5.85 12.9
3/23/2021 2:00:00 PM 6.75 44.15 0.133 7.39 5.76 12.84
3/23/2021 2:15:00 PM 6.91 44.438 0.133 7.4 5.49 12.79
3/23/2021 2:30:00 PM 7 44.6 0.134 7.4 5.51 12.73
3/23/2021 2:45:00 PM 7.15 44.87 0.133 7.41 5.78 12.68
3/23/2021 3:00:00 PM 7.27 45.086 0.133 7.41 5.68 12.62
3/23/2021 3:15:00 PM 7.41 45.338 0.133 7.42 5.63 12.58
3/23/2021 3:30:00 PM 7.46 45.428 0.134 7.42 5.38 12.53
3/23/2021 3:45:00 PM 7.5 45.5 0.134 7.41 5.4 12.48
3/23/2021 4:00:00 PM 7.59 45.662 0.134 7.42 5.35 12.44
3/23/2021 4:15:00 PM 7.63 45.734 0.134 7.42 5.56 12.39
3/23/2021 4:30:00 PM 7.66 45.788 0.134 7.42 5.2 12.37
3/23/2021 4:45:00 PM 7.7 45.86 0.134 7.42 5.41 12.33
3/23/2021 5:00:00 PM 7.68 45.824 0.134 7.4 5.31 12.29
3/23/2021 5:15:00 PM 7.68 45.824 0.134 7.4 5.56 12.25
3/23/2021 5:30:00 PM 7.7 45.86 0.134 7.4 5.54 12.22
3/23/2021 5:45:00 PM 7.66 45.788 0.134 7.38 5.53 12.18
3/23/2021 6:00:00 PM 7.65 45.77 0.134 7.37 5.52 12.13
3/23/2021 6:15:00 PM 7.63 45.734 0.134 7.36 5.42 12.1
3/23/2021 6:30:00 PM 7.61 45.698 0.134 7.35 5.52 12.07
3/23/2021 6:45:00 PM 7.57 45.626 0.134 7.34 5.27 12.03
3/23/2021 7:00:00 PM 7.52 45.536 0.134 7.32 5.51 11.95
3/23/2021 7:15:00 PM 7.48 45.464 0.134 7.3 5.61 11.87
3/23/2021 7:30:00 PM 7.42 45.356 0.134 7.27 5.84 11.79
3/23/2021 7:45:00 PM 7.36 45.248 0.134 7.25 5.8 11.73
3/23/2021 8:00:00 PM 7.31 45.158 0.134 7.22 6.06 11.69
3/23/2021 8:15:00 PM 7.25 45.05 0.135 7.21 6.35 11.66
3/23/2021 8:30:00 PM 7.19 44.942 0.135 7.19 6.38 11.64
3/23/2021 8:45:00 PM 7.14 44.852 0.135 7.19 6 11.63
3/23/2021 9:00:00 PM 7.09 44.762 0.135 7.19 6.19 11.62
3/23/2021 9:15:00 PM 7.05 44.69 0.135 7.19 6.07 11.62
3/23/2021 9:30:00 PM 7.01 44.618 0.135 7.17 6.06 11.61
3/23/2021 9:45:00 PM 6.97 44.546 0.135 7.16 6.14 11.61
3/23/2021 10:00:00 PM 6.94 44.492 0.135 7.15 6.15 11.61
3/23/2021 10:15:00 PM 6.9 44.42 0.135 7.14 6.46 11.61
3/23/2021 10:30:00 PM 6.86 44.348 0.135 7.14 6.28 11.62
3/23/2021 10:45:00 PM 6.82 44.276 0.135 7.14 6.24 11.62
3/23/2021 11:00:00 PM 6.77 44.186 0.135 7.14 6.26 11.62
3/23/2021 11:15:00 PM 6.72 44.096 0.135 7.14 6.22 11.63
3/23/2021 11:30:00 PM 6.67 44.006 0.135 7.14 6.12 11.64
3/23/2021 11:45:00 PM 6.61 43.898 0.135 7.15 6.21 11.65
3/24/2021 12:00:00 AM 6.55 43.79 0.135 7.15 6.28 11.67
3/24/2021 12:15:00 AM 6.49 43.682 0.135 7.15 6.29 11.68
3/24/2021 12:30:00 AM 6.44 43.592 0.135 7.14 6.49 11.69
3/24/2021 12:45:00 AM 6.38 43.484 0.135 7.14 6.32 11.71
3/24/2021 1:00:00 AM 6.32 43.376 0.135 7.14 6.47 11.73
3/24/2021 1:15:00 AM 6.26 43.268 0.135 7.13 8.57 11.75
3/24/2021 1:30:00 AM 6.21 43.178 0.135 7.13 11.12 11.77
3/24/2021 1:45:00 AM 6.17 43.106 0.135 7.13 9.75 11.78
3/24/2021 2:00:00 AM 6.13 43.034 0.135 7.13 8.05 11.8
3/24/2021 2:15:00 AM 6.09 42.962 0.135 7.13 7.4 11.82
3/24/2021 2:30:00 AM 6.05 42.89 0.135 7.13 6.99 11.84
3/24/2021 2:45:00 AM 6.01 42.818 0.135 7.13 6.87 11.86
3/24/2021 3:00:00 AM 5.96 42.728 0.135 7.14 6.85 11.87
3/24/2021 3:15:00 AM 5.9 42.62 0.135 7.13 6.7 11.89
3/24/2021 3:30:00 AM 5.86 42.548 0.135 7.13 7.08 11.9
3/24/2021 3:45:00 AM 5.82 42.476 0.135 7.14 7.02 11.91
3/24/2021 4:00:00 AM 5.78 42.404 0.136 7.14 6.97 11.93
3/24/2021 4:15:00 AM 5.74 42.332 0.136 7.14 7.46 11.95
3/24/2021 4:30:00 AM 5.71 42.278 0.136 7.14 8.08 11.97
3/24/2021 4:45:00 AM 5.67 42.206 0.136 7.14 8.34 11.98
3/24/2021 5:00:00 AM 5.64 42.152 0.136 7.15 8.46 11.99
3/24/2021 5:15:00 AM 5.61 42.098 0.136 7.14 8.75 12.01
3/24/2021 5:30:00 AM 5.57 42.026 0.136 7.15 8.84 12.02
3/24/2021 5:45:00 AM 5.54 41.972 0.136 7.15 8.61 12.03
3/24/2021 6:00:00 AM 5.51 41.918 0.136 7.16 8.19 12.04
3/24/2021 6:15:00 AM 5.48 41.864 0.136 7.17 8.32 12.05
3/24/2021 6:30:00 AM 5.46 41.828 0.136 7.17 8 12.06
3/24/2021 6:45:00 AM 5.44 41.792 0.136 7.17 7.62 12.07
3/24/2021 7:00:00 AM 5.42 41.756 0.136 7.18 7.6 12.08
3/24/2021 7:15:00 AM 5.41 41.738 0.136 7.17 7.46 12.09
3/24/2021 7:30:00 AM 5.4 41.72 0.136 7.17 7.35 12.11
3/24/2021 7:45:00 AM 5.39 41.702 0.136 7.18 7.37 12.14
3/24/2021 8:00:00 AM 5.38 41.684 0.136 7.19 7.39 12.17
3/24/2021 8:15:00 AM 5.37 41.666 0.136 7.19 6.84 12.2
3/24/2021 8:30:00 AM 5.37 41.666 0.136 7.2 6.91 12.24
3/24/2021 8:45:00 AM 5.37 41.666 0.136 7.21 6.83 12.28
3/24/2021 9:00:00 AM 5.38 41.684 0.136 7.22 6.45 12.32
3/24/2021 9:15:00 AM 5.38 41.684 0.135 7.24 6.19 12.36
3/24/2021 9:30:00 AM 5.39 41.702 0.135 7.25 6.22 12.41
3/24/2021 9:45:00 AM 5.41 41.738 0.135 7.26 6.46 12.46
3/24/2021 10:00:00 AM 5.44 41.792 0.135 7.28 6.38 12.51
3/24/2021 10:15:00 AM 5.47 41.846 0.135 7.29 6.16 12.53
3/24/2021 10:30:00 AM 5.5 41.9 0.135 7.29 6.33 12.55
3/24/2021 10:45:00 AM 5.54 41.972 0.135 7.31 6.77 12.58
3/24/2021 11:00:00 AM 5.57 42.026 0.134 7.32 6.64 12.6
3/24/2021 11:15:00 AM 5.58 42.044 0.134 7.32 6.41 12.58
3/24/2021 11:30:00 AM 5.6 42.08 0.134 7.32 6.16 12.56
3/24/2021 11:45:00 AM 5.61 42.098 0.134 7.32 6.42 12.54
3/24/2021 12:00:00 PM 5.62 42.116 0.134 7.32 6.73 12.54
3/24/2021 12:15:00 PM 5.67 42.206 0.135 7.33 6.26 12.57
3/24/2021 12:30:00 PM 5.74 42.332 0.135 7.34 6.57 12.61
3/24/2021 12:45:00 PM 5.81 42.458 0.135 7.36 6.63 12.64
3/24/2021 1:00:00 PM 5.91 42.638 0.136 7.37 6.83 12.66
3/24/2021 1:15:00 PM 5.99 42.782 0.137 7.39 7.72 12.65
3/24/2021 1:30:00 PM 6.05 42.89 0.137 7.38 9.03 12.64
3/24/2021 1:45:00 PM 6.15 43.07 0.137 7.39 8.27 12.63
3/24/2021 2:00:00 PM 6.23 43.214 0.137 7.4 7.52 12.62
3/24/2021 2:15:00 PM 6.29 43.322 0.137 7.41 7.57 12.61
3/24/2021 2:30:00 PM 6.32 43.376 0.137 7.4 7.62 12.56
3/24/2021 2:45:00 PM 6.33 43.394 0.137 7.39 7.67 12.51
3/24/2021 3:00:00 PM 6.35 43.43 0.137 7.38 7.77 12.47
3/24/2021 3:15:00 PM 6.39 43.502 0.136 7.38 8.12 12.46
3/24/2021 3:30:00 PM 6.44 43.592 0.136 7.38 8.62 12.45
3/24/2021 3:45:00 PM 6.49 43.682 0.136 7.38 9.11 12.43
3/24/2021 4:00:00 PM 6.54 43.772 0.136 7.37 9.04 12.39
3/24/2021 4:15:00 PM 6.6 43.88 0.136 7.37 9.73 12.37
3/24/2021 4:30:00 PM 6.65 43.97 0.136 7.37 10.15 12.36
3/24/2021 4:45:00 PM 6.7 44.06 0.135 7.37 10.87 12.33
3/24/2021 5:00:00 PM 6.73 44.114 0.135 7.36 11.63 12.28
3/24/2021 5:15:00 PM 6.73 44.114 0.135 7.34 12.3 12.21
3/24/2021 5:30:00 PM 6.73 44.114 0.135 7.32 12.54 12.15
3/24/2021 5:45:00 PM 6.74 44.132 0.135 7.31 13.29 12.1
3/24/2021 6:00:00 PM 6.76 44.168 0.136 7.29 13.67 12.05
3/24/2021 6:15:00 PM 6.77 44.186 0.136 7.27 14.48 12
3/24/2021 6:30:00 PM 6.79 44.222 0.137 7.27 15.18 11.96
3/24/2021 6:45:00 PM 6.81 44.258 0.137 7.26 14.3 11.93
3/24/2021 7:00:00 PM 6.83 44.294 0.137 7.26 15.63 11.9
3/24/2021 7:15:00 PM 6.84 44.312 0.137 7.24 16.28 11.86
3/24/2021 7:30:00 PM 6.85 44.33 0.137 7.23 16.43 11.81
3/24/2021 7:45:00 PM 6.85 44.33 0.137 7.22 17.58 11.78
3/24/2021 8:00:00 PM 6.85 44.33 0.136 7.21 17.17 11.75
3/24/2021 8:15:00 PM 6.85 44.33 0.136 7.2 18.11 11.73
3/24/2021 8:30:00 PM 6.85 44.33 0.136 7.18 23.24 11.71
3/24/2021 8:45:00 PM 6.85 44.33 0.135 7.17 18.19 11.7
3/24/2021 9:00:00 PM 6.85 44.33 0.135 7.17 18.03 11.69
3/24/2021 9:15:00 PM 6.85 44.33 0.135 7.17 17.72 11.68
3/24/2021 9:30:00 PM 6.85 44.33 0.134 7.17 18.71 11.67
3/24/2021 9:45:00 PM 6.85 44.33 0.134 7.17 18.53 11.67
3/24/2021 10:00:00 PM 6.85 44.33 0.134 7.16 18.13 11.66
3/24/2021 10:15:00 PM 6.84 44.312 0.134 7.11 20.1 11.66
3/24/2021 10:30:00 PM 6.83 44.294 0.134 7.15 17.93 11.65
3/24/2021 10:45:00 PM 6.82 44.276 0.133 7.14 18.84 11.66
3/24/2021 11:00:00 PM 6.81 44.258 0.133 7.14 18.01 11.66
3/24/2021 11:15:00 PM 6.8 44.24 0.133 7.14 17.84 11.66
3/24/2021 11:30:00 PM 6.79 44.222 0.133 7.14 18.08 11.66
3/24/2021 11:45:00 PM 6.78 44.204 0.133 7.14 15.6 11.66
3/25/2021 12:00:00 AM 6.75 44.15 0.133 7.14 17.5 11.66
3/25/2021 12:15:00 AM 6.73 44.114 0.133 7.13 19.01 11.67
3/25/2021 12:30:00 AM 6.71 44.078 0.133 7.12 17 11.68
3/25/2021 12:45:00 AM 6.7 44.06 0.133 7.13 16.42 11.68
3/25/2021 1:00:00 AM 6.68 44.024 0.133 7.12 15.87 11.68
3/25/2021 1:15:00 AM 6.66 43.988 0.133 7.13 15.94 11.68
3/25/2021 1:30:00 AM 6.65 43.97 0.133 7.13 15.69 11.69
3/25/2021 1:45:00 AM 6.63 43.934 0.133 7.13 15 11.7
3/25/2021 2:00:00 AM 6.61 43.898 0.133 7.13 15.52 11.7
3/25/2021 2:15:00 AM 6.59 43.862 0.133 7.13 15.58 11.71
3/25/2021 2:30:00 AM 6.57 43.826 0.134 7.12 14.84 11.71
3/25/2021 2:45:00 AM 6.55 43.79 0.134 7.13 13.7 11.71
3/25/2021 3:00:00 AM 6.52 43.736 0.134 7.13 14.39 11.72
3/25/2021 3:15:00 AM 6.5 43.7 0.134 7.12 13.86 11.72
3/25/2021 3:30:00 AM 6.48 43.664 0.134 7.12 13.15 11.72
3/25/2021 3:45:00 AM 6.47 43.646 0.134 7.12 13.45 11.73
3/25/2021 4:00:00 AM 6.45 43.61 0.134 7.12 13.38 11.73
3/25/2021 4:15:00 AM 6.44 43.592 0.134 7.12 13.16 11.74
3/25/2021 4:30:00 AM 6.43 43.574 0.134 7.12 12.95 11.74
3/25/2021 4:45:00 AM 6.42 43.556 0.134 7.12 12.71 11.74
3/25/2021 5:00:00 AM 6.41 43.538 0.135 7.12 12.52 11.74
3/25/2021 5:15:00 AM 6.39 43.502 0.134 7.12 12.57 11.74
3/25/2021 5:30:00 AM 6.37 43.466 0.135 7.12 12.46 11.75
3/25/2021 5:45:00 AM 6.36 43.448 0.135 7.12 12.29 11.76
3/25/2021 6:00:00 AM 6.34 43.412 0.135 7.12 12.45 11.77
3/25/2021 6:15:00 AM 6.32 43.376 0.135 7.11 12.27 11.77
3/25/2021 6:30:00 AM 6.29 43.322 0.135 7.11 11.69 11.78
3/25/2021 6:45:00 AM 6.25 43.25 0.135 7.11 11.81 11.79
3/25/2021 7:00:00 AM 6.21 43.178 0.135 7.1 11.57 11.8
3/25/2021 7:15:00 AM 6.17 43.106 0.135 7.1 11.08 11.82
3/25/2021 7:30:00 AM 6.14 43.052 0.135 7.12 10.97 11.87
3/25/2021 7:45:00 AM 6.11 42.998 0.135 7.13 10.73 11.93
3/25/2021 8:00:00 AM 6.1 42.98 0.135 7.14 10.73 12
3/25/2021 8:15:00 AM 6.11 42.998 0.135 7.17 10.66 12.07
3/25/2021 8:30:00 AM 6.12 43.016 0.135 7.18 10.82 12.14
3/25/2021 8:45:00 AM 6.12 43.016 0.135 7.19 10.52 12.2
3/25/2021 9:00:00 AM 6.13 43.034 0.135 7.21 10.7 12.25
3/25/2021 9:15:00 AM 6.17 43.106 0.135 7.23 10.52 12.3
3/25/2021 9:30:00 AM 6.25 43.25 0.135 7.25 11.95 12.35
3/25/2021 9:45:00 AM 6.37 43.466 0.135 7.28 12.92 12.37
3/25/2021 10:00:00 AM 6.49 43.682 0.135 7.3 12.09 12.4
3/25/2021 10:15:00 AM 6.66 43.988 0.135 7.33 10.86 12.41
3/25/2021 10:30:00 AM 6.85 44.33 0.135 7.35 10.82 12.41
3/25/2021 10:45:00 AM 7.04 44.672 0.135 7.38 10.4 12.41
3/25/2021 11:00:00 AM 7.21 44.978 0.135 7.37 10.35 12.4
3/25/2021 11:15:00 AM 7.39 45.302 0.135 7.39 10.6 12.39
3/25/2021 11:30:00 AM 7.57 45.626 0.134 7.4 9.99 12.37
3/25/2021 11:45:00 AM 7.77 45.986 0.134 7.41 9.97 12.35
3/25/2021 12:00:00 PM 8.01 46.418 0.134 7.42 10.02 12.31
3/25/2021 12:15:00 PM 8.27 46.886 0.134 7.43 9.94 12.27
3/25/2021 12:30:00 PM 8.55 47.39 0.134 7.44 9.79 12.22
3/25/2021 12:45:00 PM 8.82 47.876 0.134 7.45 9.83 12.16
3/25/2021 1:00:00 PM 9.07 48.326 0.134 7.46 10.02 12.11
3/25/2021 1:15:00 PM 9.33 48.794 0.134 7.47 9.85 12.06
3/25/2021 1:30:00 PM 9.53 49.154 0.134 7.47 9.99 11.99
3/25/2021 1:45:00 PM 9.71 49.478 0.134 7.47 9.81 11.95
3/25/2021 2:00:00 PM 9.89 49.802 0.134 7.48 9.87 11.9
3/25/2021 2:15:00 PM 10.07 50.126 0.134 7.49 9.59 11.85
3/25/2021 2:30:00 PM 10.2 50.36 0.134 7.49 9.79 11.79
3/25/2021 2:45:00 PM 10.31 50.558 0.134 7.49 9.78 11.76
3/25/2021 3:00:00 PM 10.42 50.756 0.134 7.49 9.78 11.71
3/25/2021 3:15:00 PM 10.51 50.918 0.134 7.48 10.15 11.65
3/25/2021 3:30:00 PM 10.61 51.098 0.134 7.48 10.25 11.61
3/25/2021 3:45:00 PM 10.69 51.242 0.134 7.49 9.91 11.56
3/25/2021 4:00:00 PM 10.78 51.404 0.134 7.5 10.29 11.51
3/25/2021 4:15:00 PM 10.84 51.512 0.134 7.49 10.51 11.47
3/25/2021 4:30:00 PM 10.88 51.584 0.134 7.48 10.08 11.44
3/25/2021 4:45:00 PM 10.94 51.692 0.134 7.48 10.1 11.39
3/25/2021 5:00:00 PM 10.99 51.782 0.135 7.48 9.97 11.35
3/25/2021 5:15:00 PM 11.02 51.836 0.135 7.47 9.86 11.3
3/25/2021 5:30:00 PM 11.04 51.872 0.135 7.45 9.76 11.24
3/25/2021 5:45:00 PM 11.05 51.89 0.135 7.43 9.87 11.18
3/25/2021 6:00:00 PM 11.04 51.872 0.135 7.41 9.51 11.12
3/25/2021 6:15:00 PM 11.04 51.872 0.135 7.38 9.7 11.06
3/25/2021 6:30:00 PM 11.01 51.818 0.135 7.36 10.25 10.99
3/25/2021 6:45:00 PM 10.98 51.764 0.135 7.34 10.01 10.92
3/25/2021 7:00:00 PM 10.94 51.692 0.135 7.3 10.24 10.84
3/25/2021 7:15:00 PM 10.9 51.62 0.135 7.27 10.13 10.76
3/25/2021 7:30:00 PM 10.86 51.548 0.136 7.25 10.12 10.69
3/25/2021 7:45:00 PM 10.82 51.476 0.136 7.22 10.35 10.63
3/25/2021 8:00:00 PM 10.79 51.422 0.136 7.2 10.44 10.58
3/25/2021 8:15:00 PM 10.75 51.35 0.136 7.19 10.09 10.55
3/25/2021 8:30:00 PM 10.73 51.314 0.136 7.2 10.17 10.53
3/25/2021 8:45:00 PM 10.72 51.296 0.136 7.19 9.79 10.51
3/25/2021 9:00:00 PM 10.69 51.242 0.136 7.19 9.9 10.5
3/25/2021 9:15:00 PM 10.67 51.206 0.136 7.18 9.96 10.5
3/25/2021 9:30:00 PM 10.66 51.188 0.136 7.18 9.91 10.49
3/25/2021 9:45:00 PM 10.64 51.152 0.136 7.18 9.92 10.47
3/25/2021 10:00:00 PM 10.64 51.152 0.136 7.19 9.92 10.47
3/25/2021 10:15:00 PM 10.62 51.116 0.136 7.18 10.94 10.47
3/25/2021 10:30:00 PM 10.6 51.08 0.136 7.18 9.84 10.47
3/25/2021 10:45:00 PM 10.57 51.026 0.137 7.18 9.72 10.47
3/25/2021 11:00:00 PM 10.54 50.972 0.137 7.18 9.52 10.47
3/25/2021 11:15:00 PM 10.51 50.918 0.137 7.17 9.46 10.47
3/25/2021 11:30:00 PM 10.48 50.864 0.137 7.17 9.67 10.48
3/25/2021 11:45:00 PM 10.45 50.81 0.137 7.17 9.22 10.49
3/26/2021 12:00:00 AM 10.42 50.756 0.137 7.17 9.01 10.49
3/26/2021 12:15:00 AM 10.39 50.702 0.137 7.17 9.23 10.5
3/26/2021 12:30:00 AM 10.36 50.648 0.137 7.18 9.24 10.51
3/26/2021 12:45:00 AM 10.33 50.594 0.137 7.18 9.18 10.52
3/26/2021 1:00:00 AM 10.3 50.54 0.137 7.18 8.99 10.52
3/26/2021 1:15:00 AM 10.27 50.486 0.137 7.16 9.08 10.52
3/26/2021 1:30:00 AM 10.23 50.414 0.137 7.15 9.05 10.54
3/26/2021 1:45:00 AM 10.2 50.36 0.137 7.15 9.09 10.55
3/26/2021 2:00:00 AM 10.16 50.288 0.138 7.15 9.27 10.54
3/26/2021 2:15:00 AM 10.11 50.198 0.138 7.14 9.14 10.56
3/26/2021 2:30:00 AM 10.07 50.126 0.138 7.14 9.25 10.57
3/26/2021 2:45:00 AM 10.03 50.054 0.138 7.15 9.08 10.58
3/26/2021 3:00:00 AM 10 50 0.138 7.14 9 10.59
3/26/2021 3:15:00 AM 9.96 49.928 0.138 7.15 8.99 10.59
3/26/2021 3:30:00 AM 9.94 49.892 0.138 7.15 8.98 10.6
3/26/2021 3:45:00 AM 9.9 49.82 0.138 7.15 9.28 10.6
3/26/2021 4:00:00 AM 9.86 49.748 0.138 7.15 8.89 10.61
3/26/2021 4:15:00 AM 9.85 49.73 0.138 7.16 9.08 10.61
3/26/2021 4:30:00 AM 9.82 49.676 0.138 7.15 9.08 10.62
3/26/2021 4:45:00 AM 9.77 49.586 0.138 7.15 9.26 10.62
3/26/2021 5:00:00 AM 9.71 49.478 0.138 7.15 8.98 10.62
3/26/2021 5:15:00 AM 9.66 49.388 0.138 7.15 8.99 10.63
3/26/2021 5:30:00 AM 9.62 49.316 0.139 7.15 8.74 10.64
3/26/2021 5:45:00 AM 9.57 49.226 0.139 7.15 8.76 10.65
3/26/2021 6:00:00 AM 9.52 49.136 0.139 7.15 8.87 10.65
3/26/2021 6:15:00 AM 9.48 49.064 0.139 7.15 9.08 10.66
3/26/2021 6:30:00 AM 9.45 49.01 0.139 7.16 8.92 10.66
3/26/2021 6:45:00 AM 9.44 48.992 0.139 7.17 9.08 10.67
3/26/2021 7:00:00 AM 9.44 48.992 0.139 7.17 8.68 10.68
3/26/2021 7:15:00 AM 9.43 48.974 0.139 7.18 8.8 10.69
3/26/2021 7:30:00 AM 9.43 48.974 0.14 7.19 8.73 10.73
3/26/2021 7:45:00 AM 9.46 49.028 0.14 7.21 8.63 10.8
3/26/2021 8:00:00 AM 9.49 49.082 0.14 7.23 8.91 10.85
3/26/2021 8:15:00 AM 9.51 49.118 0.14 7.25 8.89 10.94
3/26/2021 8:30:00 AM 9.56 49.208 0.139 7.28 8.35 11.05
3/26/2021 8:45:00 AM 9.64 49.352 0.14 7.32 8.63 11.13
3/26/2021 9:00:00 AM 9.75 49.55 0.139 7.36 8.3 11.22
3/26/2021 9:15:00 AM 9.89 49.802 0.139 7.39 8.06 11.27
3/26/2021 9:30:00 AM 10.03 50.054 0.14 7.41 8.32 11.3
3/26/2021 9:45:00 AM 10.11 50.198 0.14 7.42 8 11.29
3/26/2021 10:00:00 AM 10.18 50.324 0.14 7.43 8.13 11.27
3/26/2021 10:15:00 AM 10.35 50.63 0.14 7.46 8.08 11.3
3/26/2021 10:30:00 AM 10.57 51.026 0.14 7.49 8.08 11.32
3/26/2021 10:45:00 AM 10.75 51.35 0.14 7.51 8.37 11.33
3/26/2021 11:00:00 AM 10.85 51.53 0.14 7.51 8.14 11.32
3/26/2021 11:15:00 AM 10.9 51.62 0.14 7.52 8.27 11.31
3/26/2021 11:30:00 AM 11.06 51.908 0.14 7.54 8.05 11.31
3/26/2021 11:45:00 AM 11.19 52.142 0.14 7.56 7.63 11.3
3/26/2021 12:00:00 PM 11.25 52.25 0.14 7.55 7.48 11.27
3/26/2021 12:15:00 PM 11.28 52.304 0.14 7.55 7.6 11.25
3/26/2021 12:30:00 PM 11.37 52.466 0.14 7.58 7.52 11.24
3/26/2021 12:45:00 PM 11.39 52.502 0.14 7.57 7.39 11.24
3/26/2021 1:00:00 PM 11.39 52.502 0.14 7.57 7.53 11.21
3/26/2021 1:15:00 PM 11.51 52.718 0.14 7.59 7.77 11.22
3/26/2021 1:30:00 PM 11.74 53.132 0.14 7.63 7.92 11.24
3/26/2021 1:45:00 PM 11.87 53.366 0.14 7.63 8.01 11.22
3/26/2021 2:00:00 PM 12 53.6 0.14 7.63 8.39 11.19
3/26/2021 2:15:00 PM 12.03 53.654 0.14 7.64 8.27 11.16
3/26/2021 2:30:00 PM 11.97 53.546 0.141 7.61 8.55 11.12
3/26/2021 2:45:00 PM 11.91 53.438 0.141 7.59 8.51 11.1
3/26/2021 3:00:00 PM 11.82 53.276 0.141 7.58 8.09 11.07
3/26/2021 3:15:00 PM 11.73 53.114 0.141 7.54 8.06 11.01
3/26/2021 3:30:00 PM 11.65 52.97 0.141 7.52 7.88 11
3/26/2021 3:45:00 PM 11.54 52.772 0.141 7.51 7.76 10.96
3/26/2021 4:00:00 PM 11.43 52.574 0.141 7.48 7.73 10.92
3/26/2021 4:15:00 PM 11.34 52.412 0.141 7.46 7.64 10.91
3/26/2021 4:30:00 PM 11.25 52.25 0.141 7.46 7.62 10.92
3/26/2021 4:45:00 PM 11.18 52.124 0.141 7.46 7.31 10.94
3/26/2021 5:00:00 PM 11.12 52.016 0.141 7.46 7.46 10.97
3/26/2021 5:15:00 PM 11.05 51.89 0.141 7.46 7.14 10.96
3/26/2021 5:30:00 PM 10.97 51.746 0.141 7.44 7.36 10.89
3/26/2021 5:45:00 PM 10.89 51.602 0.141 7.39 7.24 10.84
3/26/2021 6:00:00 PM 10.81 51.458 0.141 7.38 7.1 10.81
3/26/2021 6:15:00 PM 10.73 51.314 0.141 7.36 6.94 10.78
3/26/2021 6:30:00 PM 10.65 51.17 0.141 7.35 7.2 10.77
3/26/2021 6:45:00 PM 10.57 51.026 0.142 7.34 6.97 10.77
3/26/2021 7:00:00 PM 10.5 50.9 0.142 7.33 6.96 10.76
3/26/2021 7:15:00 PM 10.42 50.756 0.142 7.31 6.9 10.72
3/26/2021 7:30:00 PM 10.35 50.63 0.142 7.29 6.87 10.69
3/26/2021 7:45:00 PM 10.28 50.504 0.142 7.27 7.07 10.65
3/26/2021 8:00:00 PM 10.21 50.378 0.142 7.26 7.02 10.64
3/26/2021 8:15:00 PM 10.15 50.27 0.142 7.24 6.8 10.63
3/26/2021 8:30:00 PM 10.09 50.162 0.142 7.25 7.09 10.62
3/26/2021 8:45:00 PM 10.04 50.072 0.142 7.23 7.08 10.62
3/26/2021 9:00:00 PM 9.98 49.964 0.142 7.24 6.77 10.64
3/26/2021 9:15:00 PM 9.92 49.856 0.143 7.22 6.96 10.64
3/26/2021 9:30:00 PM 9.87 49.766 0.143 7.23 6.56 10.65
3/26/2021 9:45:00 PM 9.8 49.64 0.143 7.21 6.82 10.67
3/26/2021 10:00:00 PM 9.74 49.532 0.143 7.22 6.5 10.68
3/26/2021 10:15:00 PM 9.67 49.406 0.143 7.21 6.85 10.7
3/26/2021 10:30:00 PM 9.59 49.262 0.143 7.21 6.76 10.71
3/26/2021 10:45:00 PM 9.52 49.136 0.144 7.2 6.55 10.73
3/26/2021 11:00:00 PM 9.45 49.01 0.143 7.21 6.54 10.75
3/26/2021 11:15:00 PM 9.37 48.866 0.144 7.21 6.44 10.77
3/26/2021 11:30:00 PM 9.3 48.74 0.144 7.21 6.22 10.79
3/26/2021 11:45:00 PM 9.23 48.614 0.144 7.19 6.38 10.81
3/27/2021 12:00:00 AM 9.15 48.47 0.144 7.2 6.52 10.83
3/27/2021 12:15:00 AM 9.07 48.326 0.144 7.2 6.68 10.85
3/27/2021 12:30:00 AM 9.01 48.218 0.144 7.21 6.22 10.86
3/27/2021 12:45:00 AM 8.94 48.092 0.144 7.21 6.08 10.88
3/27/2021 1:00:00 AM 8.86 47.948 0.144 7.19 6.29 10.9
3/27/2021 1:15:00 AM 8.77 47.786 0.144 7.19 6.14 10.92
3/27/2021 1:30:00 AM 8.69 47.642 0.144 7.18 6.12 10.95
3/27/2021 1:45:00 AM 8.62 47.516 0.144 7.18 6.11 10.97
3/27/2021 2:00:00 AM 8.55 47.39 0.144 7.18 6.28 10.99
3/27/2021 2:15:00 AM 8.49 47.282 0.144 7.18 6.21 11.01
3/27/2021 2:30:00 AM 8.43 47.174 0.144 7.18 6.37 11.03
3/27/2021 2:45:00 AM 8.39 47.102 0.144 7.19 6.22 11.04
3/27/2021 3:00:00 AM 8.35 47.03 0.144 7.19 6.44 11.06
3/27/2021 3:15:00 AM 8.31 46.958 0.145 7.18 6.47 11.07
3/27/2021 3:30:00 AM 8.28 46.904 0.145 7.19 6.24 11.08
3/27/2021 3:45:00 AM 8.24 46.832 0.145 7.19 6.02 11.1
3/27/2021 4:00:00 AM 8.2 46.76 0.145 7.19 6.31 11.11
3/27/2021 4:15:00 AM 8.16 46.688 0.145 7.2 6.21 11.13
3/27/2021 4:30:00 AM 8.11 46.598 0.145 7.19 6.11 11.14
3/27/2021 4:45:00 AM 8.07 46.526 0.145 7.2 5.92 11.16
3/27/2021 5:00:00 AM 8.04 46.472 0.145 7.2 5.85 11.17
3/27/2021 5:15:00 AM 8 46.4 0.145 7.2 5.99 11.18
3/27/2021 5:30:00 AM 7.96 46.328 0.145 7.2 5.72 11.2
3/27/2021 5:45:00 AM 7.93 46.274 0.145 7.2 5.82 11.21
3/27/2021 6:00:00 AM 7.9 46.22 0.145 7.2 5.94 11.22
3/27/2021 6:15:00 AM 7.87 46.166 0.145 7.21 6.14 11.23
3/27/2021 6:30:00 AM 7.84 46.112 0.145 7.21 6.03 11.25
3/27/2021 6:45:00 AM 7.81 46.058 0.145 7.21 6.06 11.26
3/27/2021 7:00:00 AM 7.78 46.004 0.145 7.22 5.84 11.27
3/27/2021 7:15:00 AM 7.76 45.968 0.145 7.23 5.65 11.29
3/27/2021 7:30:00 AM 7.73 45.914 0.145 7.24 5.85 11.32
3/27/2021 7:45:00 AM 7.71 45.878 0.145 7.24 5.73 11.38
3/27/2021 8:00:00 AM 7.69 45.842 0.145 7.25 5.77 11.45
3/27/2021 8:15:00 AM 7.68 45.824 0.146 7.27 5.66 11.54
3/27/2021 8:30:00 AM 7.68 45.824 0.146 7.3 5.59 11.66
3/27/2021 8:45:00 AM 7.69 45.842 0.145 7.32 6.15 11.75
3/27/2021 9:00:00 AM 7.68 45.824 0.146 7.34 6.96 11.82
3/27/2021 9:15:00 AM 7.7 45.86 0.145 7.36 7.18 11.89
3/27/2021 9:30:00 AM 7.73 45.914 0.146 7.38 6.89 11.96
3/27/2021 9:45:00 AM 7.78 46.004 0.146 7.41 6.98 12.03
3/27/2021 10:00:00 AM 7.89 46.202 0.146 7.45 6.82 12.11
3/27/2021 10:15:00 AM 8.03 46.454 0.146 7.49 6.44 12.17
3/27/2021 10:30:00 AM 8.17 46.706 0.145 7.52 6.06 12.19
3/27/2021 10:45:00 AM 8.28 46.904 0.145 7.54 6.43 12.21
3/27/2021 11:00:00 AM 8.42 47.156 0.145 7.55 6.78 12.22
3/27/2021 11:15:00 AM 8.65 47.57 0.145 7.58 6.32 12.22
3/27/2021 11:30:00 AM 8.92 48.056 0.145 7.61 5.89 12.19
3/27/2021 11:45:00 AM 9.14 48.452 0.146 7.61 5.74 12.17
3/27/2021 12:00:00 PM 9.34 48.812 0.146 7.62 6.04 12.14
3/27/2021 12:15:00 PM 9.52 49.136 0.146 7.62 5.56 12.1
3/27/2021 12:30:00 PM 9.69 49.442 0.146 7.63 5.7 12.07
3/27/2021 12:45:00 PM 9.81 49.658 0.146 7.65 5.65 12.03
3/27/2021 1:00:00 PM 10.04 50.072 0.146 7.67 5.42 12.01
3/27/2021 1:15:00 PM 10.16 50.288 0.146 7.67 5.42 11.96
3/27/2021 1:30:00 PM 10.33 50.594 0.146 7.69 5.25 11.95
3/27/2021 1:45:00 PM 10.52 50.936 0.146 7.7 5.32 11.92
3/27/2021 2:00:00 PM 10.69 51.242 0.146 7.7 5.28 11.88
3/27/2021 2:15:00 PM 10.79 51.422 0.146 7.7 5.28 11.83
3/27/2021 2:30:00 PM 10.9 51.62 0.146 7.71 5.18 11.8
3/27/2021 2:45:00 PM 10.99 51.782 0.146 7.72 5.24 11.76
3/27/2021 3:00:00 PM 11.06 51.908 0.146 7.72 5.24 11.72
3/27/2021 3:15:00 PM 11.11 51.998 0.146 7.72 5.11 11.69
3/27/2021 3:30:00 PM 11.17 52.106 0.146 7.72 5.25 11.65
3/27/2021 3:45:00 PM 11.21 52.178 0.146 7.72 5.06 11.61
3/27/2021 4:00:00 PM 11.24 52.232 0.146 7.72 5.22 11.58
3/27/2021 4:15:00 PM 11.26 52.268 0.146 7.72 5.25 11.56
3/27/2021 4:30:00 PM 11.29 52.322 0.146 7.73 4.92 11.53
3/27/2021 4:45:00 PM 11.32 52.376 0.146 7.72 4.96 11.5
3/27/2021 5:00:00 PM 11.34 52.412 0.146 7.72 4.96 11.46
3/27/2021 5:15:00 PM 11.34 52.412 0.146 7.71 4.98 11.42
3/27/2021 5:30:00 PM 11.36 52.448 0.146 7.71 5.1 11.39
3/27/2021 5:45:00 PM 11.36 52.448 0.146 7.68 5.04 11.35
3/27/2021 6:00:00 PM 11.31 52.358 0.146 7.64 4.91 11.29
3/27/2021 6:15:00 PM 11.24 52.232 0.146 7.6 5.04 11.21
3/27/2021 6:30:00 PM 11.15 52.07 0.146 7.54 5.08 11.1
3/27/2021 6:45:00 PM 11.07 51.926 0.146 7.5 5.09 11.02
3/27/2021 7:00:00 PM 10.99 51.782 0.146 7.45 5.01 10.94
3/27/2021 7:15:00 PM 10.9 51.62 0.146 7.42 5.09 10.88
3/27/2021 7:30:00 PM 10.81 51.458 0.146 7.38 5.03 10.8
3/27/2021 7:45:00 PM 10.73 51.314 0.146 7.35 5.38 10.72
3/27/2021 8:00:00 PM 10.65 51.17 0.146 7.31 5.22 10.66
3/27/2021 8:15:00 PM 10.57 51.026 0.147 7.29 5.3 10.62
3/27/2021 8:30:00 PM 10.49 50.882 0.147 7.27 5.12 10.6
3/27/2021 8:45:00 PM 10.4 50.72 0.147 7.26 5.19 10.59
3/27/2021 9:00:00 PM 10.32 50.576 0.148 7.24 5.13 10.58
3/27/2021 9:15:00 PM 10.25 50.45 0.148 7.24 5.2 10.58
3/27/2021 9:30:00 PM 10.18 50.324 0.148 7.23 5.24 10.58
3/27/2021 9:45:00 PM 10.1 50.18 0.148 7.23 5.3 10.59
3/27/2021 10:00:00 PM 10.03 50.054 0.148 7.23 5.33 10.59
3/27/2021 10:15:00 PM 9.96 49.928 0.148 7.21 5.09 10.6
3/27/2021 10:30:00 PM 9.87 49.766 0.149 7.22 5.47 10.61
3/27/2021 10:45:00 PM 9.8 49.64 0.149 7.21 5.37 10.62
3/27/2021 11:00:00 PM 9.72 49.496 0.149 7.21 5.1 10.63
3/27/2021 11:15:00 PM 9.65 49.37 0.149 7.2 5.03 10.64
3/27/2021 11:30:00 PM 9.57 49.226 0.149 7.2 5.06 10.64
3/27/2021 11:45:00 PM 9.5 49.1 0.149 7.19 4.98 10.65
3/28/2021 12:00:00 AM 9.43 48.974 0.149 7.18 4.89 10.67
3/28/2021 12:15:00 AM 9.36 48.848 0.149 7.18 4.91 10.68
3/28/2021 12:30:00 AM 9.3 48.74 0.149 7.18 4.83 10.69
3/28/2021 12:45:00 AM 9.23 48.614 0.149 7.18 4.85 10.71
3/28/2021 1:00:00 AM 9.17 48.506 0.149 7.19 4.87 10.72
3/28/2021 1:15:00 AM 9.11 48.398 0.149 7.18 4.86 10.73
3/28/2021 1:30:00 AM 9.05 48.29 0.149 7.19 4.84 10.75
3/28/2021 1:45:00 AM 8.99 48.182 0.149 7.19 5.05 10.76
3/28/2021 2:00:00 AM 8.94 48.092 0.149 7.19 4.9 10.77
3/28/2021 2:15:00 AM 8.88 47.984 0.149 7.19 4.91 10.78
3/28/2021 2:30:00 AM 8.79 47.822 0.149 7.19 4.94 10.8
3/28/2021 2:45:00 AM 8.71 47.678 0.149 7.19 4.85 10.83
3/28/2021 3:00:00 AM 8.64 47.552 0.149 7.19 4.9 10.84
3/28/2021 3:15:00 AM 8.57 47.426 0.149 7.2 4.86 10.86
3/28/2021 3:30:00 AM 8.51 47.318 0.149 7.2 5.09 10.88
3/28/2021 3:45:00 AM 8.44 47.192 0.149 7.19 5.05 10.9
3/28/2021 4:00:00 AM 8.39 47.102 0.149 7.2 4.98 10.92
3/28/2021 4:15:00 AM 8.34 47.012 0.149 7.2 5.03 10.93
3/28/2021 4:30:00 AM 8.3 46.94 0.149 7.2 4.81 10.94
3/28/2021 4:45:00 AM 8.26 46.868 0.15 7.2 5.06 10.95
3/28/2021 5:00:00 AM 8.22 46.796 0.15 7.2 5 10.97
3/28/2021 5:15:00 AM 8.19 46.742 0.15 7.21 5.31 10.98
3/28/2021 5:30:00 AM 8.16 46.688 0.15 7.21 5.01 11
3/28/2021 5:45:00 AM 8.13 46.634 0.15 7.21 4.74 11.01
3/28/2021 6:00:00 AM 8.11 46.598 0.15 7.23 4.98 11.02
3/28/2021 6:15:00 AM 8.08 46.544 0.15 7.22 4.77 11.03
3/28/2021 6:30:00 AM 8.07 46.526 0.15 7.23 5.06 11.04
3/28/2021 6:45:00 AM 8.05 46.49 0.15 7.23 4.73 11.05
3/28/2021 7:00:00 AM 8.05 46.49 0.15 7.23 4.7 11.05
3/28/2021 7:15:00 AM 8.04 46.472 0.15 7.23 4.56 11.07
3/28/2021 7:30:00 AM 8.03 46.454 0.15 7.23 4.76 11.08
3/28/2021 7:45:00 AM 8.03 46.454 0.15 7.23 4.56 11.11
3/28/2021 8:00:00 AM 8.03 46.454 0.15 7.24 4.6 11.15
3/28/2021 8:15:00 AM 8.04 46.472 0.15 7.25 4.53 11.18
3/28/2021 8:30:00 AM 8.04 46.472 0.15 7.26 4.7 11.21
3/28/2021 8:45:00 AM 8.05 46.49 0.15 7.27 4.64 11.23
3/28/2021 9:00:00 AM 8.08 46.544 0.15 7.29 4.67 11.29
3/28/2021 9:15:00 AM 8.1 46.58 0.15 7.31 4.48 11.36
3/28/2021 9:30:00 AM 8.11 46.598 0.149 7.31 4.54 11.38
3/28/2021 9:45:00 AM 8.11 46.598 0.149 7.32 4.48 11.36
3/28/2021 10:00:00 AM 8.13 46.634 0.149 7.33 4.5 11.37
3/28/2021 10:15:00 AM 8.14 46.652 0.149 7.3 4.6 11.42
3/28/2021 10:30:00 AM 8.17 46.706 0.149 7.36 4.5 11.49
3/28/2021 10:45:00 AM 8.2 46.76 0.149 7.38 4.53 11.55
3/28/2021 11:00:00 AM 8.23 46.814 0.149 7.41 4.65 11.63
3/28/2021 11:15:00 AM 8.27 46.886 0.149 7.43 4.52 11.68
3/28/2021 11:30:00 AM 8.3 46.94 0.149 7.44 4.44 11.71
3/28/2021 11:45:00 AM 8.34 47.012 0.149 7.46 4.61 11.72
3/28/2021 12:00:00 PM 8.37 47.066 0.149 7.47 4.56 11.74
3/28/2021 12:15:00 PM 8.41 47.138 0.149 7.48 4.34 11.76
3/28/2021 12:30:00 PM 8.48 47.264 0.149 7.5 4.49 11.79
3/28/2021 12:45:00 PM 8.54 47.372 0.149 7.53 4.63 11.81
3/28/2021 1:00:00 PM 8.59 47.462 0.149 7.54 4.32 11.83
3/28/2021 1:15:00 PM 8.65 47.57 0.15 7.56 4.38 11.83
3/28/2021 1:30:00 PM 8.76 47.768 0.149 7.59 4.33 11.84
3/28/2021 1:45:00 PM 8.86 47.948 0.149 7.62 4.42 11.86
3/28/2021 2:00:00 PM 8.97 48.146 0.149 7.64 5.54 11.87
3/28/2021 2:15:00 PM 9.08 48.344 0.149 7.66 6.54 11.88
3/28/2021 2:30:00 PM 9.2 48.56 0.149 7.68 6.05 11.87
3/28/2021 2:45:00 PM 9.37 48.866 0.149 7.69 5.48 11.87
3/28/2021 3:00:00 PM 9.54 49.172 0.149 7.73 5.48 11.86
3/28/2021 3:15:00 PM 9.67 49.406 0.149 7.74 5.24 11.84
3/28/2021 3:30:00 PM 9.69 49.442 0.149 7.7 5.06 11.76
3/28/2021 3:45:00 PM 9.67 49.406 0.149 7.64 5.06 11.59
3/28/2021 4:00:00 PM 9.65 49.37 0.148 7.6 5.11 11.51
3/28/2021 4:15:00 PM 9.6 49.28 0.148 7.57 5.01 11.45
3/28/2021 4:30:00 PM 9.52 49.136 0.148 7.52 5.29 11.34
3/28/2021 4:45:00 PM 9.48 49.064 0.147 7.49 5.35 11.28
3/28/2021 5:00:00 PM 9.43 48.974 0.146 7.48 5.62 11.29
3/28/2021 5:15:00 PM 9.39 48.902 0.146 7.47 6.15 11.28
3/28/2021 5:30:00 PM 9.38 48.884 0.146 7.47 6.45 11.29
3/28/2021 5:45:00 PM 9.39 48.902 0.146 7.49 6.26 11.34
3/28/2021 6:00:00 PM 9.41 48.938 0.146 7.52 6.12 11.41
3/28/2021 6:15:00 PM 9.41 48.938 0.146 7.54 5.97 11.47
3/28/2021 6:30:00 PM 9.37 48.866 0.149 7.55 5.99 11.46
3/28/2021 6:45:00 PM 9.29 48.722 0.152 7.52 6.21 11.39
3/28/2021 7:00:00 PM 9.22 48.596 0.152 7.47 6.23 11.29
3/28/2021 7:15:00 PM 9.15 48.47 0.151 7.44 6.19 11.19
3/28/2021 7:30:00 PM 9.07 48.326 0.15 7.4 5.89 11.11
3/28/2021 7:45:00 PM 8.97 48.146 0.15 7.36 6.31 11.04
3/28/2021 8:00:00 PM 8.88 47.984 0.149 7.32 6.33 10.98
3/28/2021 8:15:00 PM 8.78 47.804 0.149 7.31 6.81 10.96
3/28/2021 8:30:00 PM 8.68 47.624 0.149 7.29 7.26 10.95
3/28/2021 8:45:00 PM 8.59 47.462 0.149 7.28 7.65 10.95
3/28/2021 9:00:00 PM 8.52 47.336 0.149 7.28 8.36 10.97
3/28/2021 9:15:00 PM 8.47 47.246 0.149 7.27 8.74 10.98
3/28/2021 9:30:00 PM 8.43 47.174 0.148 7.28 8.95 10.99
3/28/2021 9:45:00 PM 8.38 47.084 0.148 7.27 9.76 11
3/28/2021 10:00:00 PM 8.32 46.976 0.149 7.27 10.4 11.01
3/28/2021 10:15:00 PM 8.27 46.886 0.15 7.26 10.59 11.01
3/28/2021 10:30:00 PM 8.2 46.76 0.151 7.25 10.95 11.03
3/28/2021 10:45:00 PM 8.14 46.652 0.151 7.25 11.21 11.05
3/28/2021 11:00:00 PM 8.07 46.526 0.151 7.24 11.33 11.06
3/28/2021 11:15:00 PM 7.99 46.382 0.151 7.24 11.93 11.08
3/28/2021 11:30:00 PM 7.92 46.256 0.151 7.24 12.15 11.1
3/28/2021 11:45:00 PM 7.85 46.13 0.151 7.25 12.84 11.13
3/29/2021 12:00:00 AM 7.75 45.95 0.151 7.24 13.4 11.15
3/29/2021 12:15:00 AM 7.65 45.77 0.15 7.23 14.77 11.18
3/29/2021 12:30:00 AM 7.54 45.572 0.15 7.23 19.38 11.2
3/29/2021 12:45:00 AM 7.43 45.374 0.149 7.22 16.13 11.23
3/29/2021 1:00:00 AM 7.32 45.176 0.149 7.22 16.51 11.26
3/29/2021 1:15:00 AM 7.22 44.996 0.149 7.22 16.05 11.29
3/29/2021 1:30:00 AM 7.14 44.852 0.148 7.22 17.13 11.32
3/29/2021 1:45:00 AM 7.07 44.726 0.148 7.21 17.76 11.34
3/29/2021 2:00:00 AM 7 44.6 0.148 7.22 16.83 11.36
3/29/2021 2:15:00 AM 6.93 44.474 0.148 7.21 15.81 11.39
3/29/2021 2:30:00 AM 6.86 44.348 0.147 7.22 17.98 11.41
3/29/2021 2:45:00 AM 6.79 44.222 0.147 7.22 17.06 11.44
3/29/2021 3:00:00 AM 6.71 44.078 0.146 7.21 17.66 11.46
3/29/2021 3:15:00 AM 6.62 43.916 0.145 7.21 16.81 11.49
3/29/2021 3:30:00 AM 6.56 43.808 0.145 7.21 16.12 11.51
3/29/2021 3:45:00 AM 6.49 43.682 0.144 7.14 16.62 11.53
3/29/2021 4:00:00 AM 6.41 43.538 0.144 7.21 16.58 11.56
3/29/2021 4:15:00 AM 6.35 43.43 0.144 7.2 15.64 11.58
3/29/2021 4:30:00 AM 6.28 43.304 0.144 7.2 15.18 11.61
3/29/2021 4:45:00 AM 6.22 43.196 0.144 7.2 15.34 11.63
3/29/2021 5:00:00 AM 6.15 43.07 0.144 7.2 14.75 11.66
3/29/2021 5:15:00 AM 6.08 42.944 0.144 7.2 13.99 11.69
3/29/2021 5:30:00 AM 6.01 42.818 0.144 7.19 13.62 11.71
3/29/2021 5:45:00 AM 5.96 42.728 0.143 7.2 13.42 11.74
3/29/2021 6:00:00 AM 5.89 42.602 0.143 7.19 13.13 11.76
3/29/2021 6:15:00 AM 5.83 42.494 0.144 7.2 12.9 11.78
3/29/2021 6:30:00 AM 5.76 42.368 0.143 7.19 12.25 11.8
3/29/2021 6:45:00 AM 5.71 42.278 0.143 7.19 12.08 11.83
3/29/2021 7:00:00 AM 5.65 42.17 0.143 7.2 11.77 11.86
3/29/2021 7:15:00 AM 5.6 42.08 0.144 7.2 11.35 11.89
3/29/2021 7:30:00 AM 5.56 42.008 0.144 7.19 11.29 11.92
3/29/2021 7:45:00 AM 5.51 41.918 0.144 7.2 11.11 11.96
3/29/2021 8:00:00 AM 5.46 41.828 0.144 7.2 10.62 12
3/29/2021 8:15:00 AM 5.42 41.756 0.144 7.21 10.35 12.06
3/29/2021 8:30:00 AM 5.37 41.666 0.144 7.22 10.16 12.12
3/29/2021 8:45:00 AM 5.34 41.612 0.144 7.23 9.91 12.17
3/29/2021 9:00:00 AM 5.31 41.558 0.144 7.24 9.5 12.23
3/29/2021 9:15:00 AM 5.29 41.522 0.144 7.26 9.36 12.29
3/29/2021 9:30:00 AM 5.27 41.486 0.144 7.28 9.07 12.34
3/29/2021 9:45:00 AM 5.26 41.468 0.144 7.28 8.61 12.4
3/29/2021 10:00:00 AM 5.25 41.45 0.144 7.3 8.53 12.46
3/29/2021 10:15:00 AM 5.27 41.486 0.144 7.33 8.54 12.53
3/29/2021 10:30:00 AM 5.3 41.54 0.143 7.34 8.63 12.62
3/29/2021 10:45:00 AM 5.4 41.72 0.143 7.37 8.22 12.69
3/29/2021 11:00:00 AM 5.59 42.062 0.143 7.41 8.23 12.74
3/29/2021 11:15:00 AM 5.79 42.422 0.143 7.44 7.83 12.75
3/29/2021 11:30:00 AM 5.91 42.638 0.143 7.45 7.76 12.76
3/29/2021 11:45:00 AM 6.18 43.124 0.143 7.47 7.77 12.75
3/29/2021 12:00:00 PM 6.3 43.34 0.143 7.47 7.73 12.74
3/29/2021 12:15:00 PM 6.37 43.466 0.142 7.26 6.9 12.65
3/29/2021 12:30:00 PM 6.48 43.664 0.141 6.96 6.91 12.67
3/29/2021 12:45:00 PM 6.72 44.096 0.141 7.1 6.22 12.66
3/29/2021 1:00:00 PM 6.95 44.51 0.141 7.14 6.64 12.64
3/29/2021 1:15:00 PM 7.16 44.888 0.141 7.21 5.97 12.6
3/29/2021 1:30:00 PM 7.26 45.068 0.141 7.21 6.07 12.55
3/29/2021 1:45:00 PM 7.4 45.32 0.141 7.24 6.05 12.53
3/29/2021 2:00:00 PM 7.58 45.644 0.141 7.25 6.04 12.49
3/29/2021 2:15:00 PM 7.74 45.932 0.141 7.25 5.79 12.45
3/29/2021 2:30:00 PM 7.89 46.202 0.141 7.26 5.79 12.4
3/29/2021 2:45:00 PM 7.99 46.382 0.141 7.29 5.54 12.36
3/29/2021 3:00:00 PM 8.1 46.58 0.141 7.28 5.74 12.31
3/29/2021 3:15:00 PM 8.19 46.742 0.141 7.29 5.69 12.27
3/29/2021 3:30:00 PM 8.24 46.832 0.141 7.28 5.76 12.23
3/29/2021 3:45:00 PM 8.27 46.886 0.141 7.27 5.74 12.18
3/29/2021 4:00:00 PM 8.33 46.994 0.141 7.27 5.74 12.15
3/29/2021 4:15:00 PM 8.37 47.066 0.141 7.26 5.81 12.1
3/29/2021 4:30:00 PM 8.39 47.102 0.141 7.25 5.75 12.05
3/29/2021 4:45:00 PM 8.41 47.138 0.141 7.24 5.62 12.01
3/29/2021 5:00:00 PM 8.41 47.138 0.141 7.23 5.63 11.97
3/29/2021 5:15:00 PM 8.42 47.156 0.141 7.22 5.87 11.93
3/29/2021 5:30:00 PM 8.41 47.138 0.141 7.22 5.83 11.89
3/29/2021 5:45:00 PM 8.4 47.12 0.141 7.2 5.81 11.85
3/29/2021 6:00:00 PM 8.37 47.066 0.141 7.18 5.99 11.8
3/29/2021 6:15:00 PM 8.32 46.976 0.141 7.16 6 11.76
3/29/2021 6:30:00 PM 8.26 46.868 0.141 7.13 6.09 11.69
3/29/2021 6:45:00 PM 8.21 46.778 0.141 7.1 5.83 11.64
3/29/2021 7:00:00 PM 8.15 46.67 0.141 7.07 5.95 11.61
3/29/2021 7:15:00 PM 8.08 46.544 0.141 7.06 6.09 11.56
3/29/2021 7:30:00 PM 8.02 46.436 0.141 7.02 5.61 11.52
3/29/2021 7:45:00 PM 7.94 46.292 0.141 7 6.02 11.46
3/29/2021 8:00:00 PM 7.86 46.148 0.141 6.96 5.81 11.42
3/29/2021 8:15:00 PM 7.78 46.004 0.142 6.95 5.95 11.39
3/29/2021 8:30:00 PM 7.7 45.86 0.142 6.93 6.03 11.37
3/29/2021 8:45:00 PM 7.63 45.734 0.142 6.91 5.96 11.37
3/29/2021 9:00:00 PM 7.55 45.59 0.142 6.91 5.79 11.37
3/29/2021 9:15:00 PM 7.48 45.464 0.142 6.89 6.15 11.37
3/29/2021 9:30:00 PM 7.41 45.338 0.142 6.9 6 11.37
3/29/2021 9:45:00 PM 7.34 45.212 0.142 6.88 5.89 11.38
3/29/2021 10:00:00 PM 7.27 45.086 0.142 6.88 5.85 11.38
3/29/2021 10:15:00 PM 7.21 44.978 0.142 6.87 5.52 11.39
3/29/2021 10:30:00 PM 7.15 44.87 0.142 6.86 5.57 11.4
3/29/2021 10:45:00 PM 7.09 44.762 0.142 6.86 5.71 11.4
3/29/2021 11:00:00 PM 7.03 44.654 0.142 6.86 5.54 11.42
3/29/2021 11:15:00 PM 6.97 44.546 0.143 6.85 5.98 11.43
3/29/2021 11:30:00 PM 6.91 44.438 0.143 6.86 5.57 11.44
3/29/2021 11:45:00 PM 6.84 44.312 0.143 6.86 5.5 11.46
3/30/2021 12:00:00 AM 6.76 44.168 0.143 6.85 5.75 11.48
3/30/2021 12:15:00 AM 6.69 44.042 0.143 6.85 5.69 11.5
3/30/2021 12:30:00 AM 6.6 43.88 0.143 6.84 5.46 11.52
3/30/2021 12:45:00 AM 6.51 43.718 0.143 6.83 5.35 11.56
3/30/2021 1:00:00 AM 6.42 43.556 0.143 6.83 5.11 11.59
3/30/2021 1:15:00 AM 6.32 43.376 0.143 6.82 5.43 11.62
3/30/2021 1:30:00 AM 6.22 43.196 0.143 6.83 5.12 11.65
3/30/2021 1:45:00 AM 6.12 43.016 0.144 6.82 5.13 11.68
3/30/2021 2:00:00 AM 6.01 42.818 0.144 6.82 5.42 11.72
3/30/2021 2:15:00 AM 5.91 42.638 0.144 6.81 5.24 11.75
3/30/2021 2:30:00 AM 5.81 42.458 0.144 6.81 5.15 11.78
3/30/2021 2:45:00 AM 5.7 42.26 0.144 6.81 5.19 11.82
3/30/2021 3:00:00 AM 5.6 42.08 0.145 6.81 5.16 11.86
3/30/2021 3:15:00 AM 5.5 41.9 0.145 6.81 5.06 11.88
3/30/2021 3:30:00 AM 5.41 41.738 0.145 6.81 4.71 11.93
3/30/2021 3:45:00 AM 5.31 41.558 0.145 6.81 4.83 11.95
3/30/2021 4:00:00 AM 5.21 41.378 0.145 6.81 4.62 11.98
3/30/2021 4:15:00 AM 5.11 41.198 0.146 6.8 4.69 12.01
3/30/2021 4:30:00 AM 5.02 41.036 0.146 6.8 4.96 12.06
3/30/2021 4:45:00 AM 4.94 40.892 0.147 6.81 4.73 12.08
3/30/2021 5:00:00 AM 4.85 40.73 0.147 6.81 4.82 12.12
3/30/2021 5:15:00 AM 4.76 40.568 0.147 6.81 4.82 12.15
3/30/2021 5:30:00 AM 4.68 40.424 0.148 6.81 4.84 12.18
3/30/2021 5:45:00 AM 4.6 40.28 0.148 6.81 4.77 12.2
3/30/2021 6:00:00 AM 4.52 40.136 0.148 6.81 4.54 12.24
3/30/2021 6:15:00 AM 4.44 39.992 0.148 6.82 4.66 12.26
3/30/2021 6:30:00 AM 4.37 39.866 0.148 6.82 4.62 12.29
3/30/2021 6:45:00 AM 4.3 39.74 0.148 6.82 4.71 12.32
3/30/2021 7:00:00 AM 4.22 39.596 0.148 6.82 4.64 12.36
3/30/2021 7:15:00 AM 4.16 39.488 0.148 6.83 4.62 12.42
3/30/2021 7:30:00 AM 4.09 39.362 0.148 6.84 4.65 12.5
3/30/2021 7:45:00 AM 4.05 39.29 0.148 6.86 4.59 12.61
3/30/2021 8:00:00 AM 4.02 39.236 0.147 6.89 4.76 12.71
3/30/2021 8:15:00 AM 4.01 39.218 0.147 6.91 4.43 12.8
3/30/2021 8:30:00 AM 4.02 39.236 0.147 6.93 4.55 12.9
3/30/2021 8:45:00 AM 4.05 39.29 0.147 6.95 4.4 12.97
3/30/2021 9:00:00 AM 4.12 39.416 0.147 6.99 4.71 13.05
3/30/2021 9:15:00 AM 4.24 39.632 0.147 7.02 4.34 13.1
3/30/2021 9:30:00 AM 4.37 39.866 0.147 7.06 4.71 13.13
3/30/2021 9:45:00 AM 4.52 40.136 0.147 7.09 13.72 13.13
3/30/2021 10:00:00 AM 4.69 40.442 0.147 7.12 30.1 13.1
3/30/2021 10:15:00 AM 4.89 40.802 0.147 7.15 36.5 13.11
3/30/2021 10:30:00 AM 5.13 41.234 0.147 7.16 26.25 13.08
3/30/2021 10:45:00 AM 5.39 41.702 0.147 7.16 78.97 13.01
3/30/2021 11:00:00 AM 5.68 42.224 0.147 7.2 51.5 13
3/30/2021 11:15:00 AM 5.96 42.728 0.147 7.21 44.05 12.94
3/30/2021 11:30:00 AM 6.26 43.268 0.147 7.25 24.03 12.91
3/30/2021 11:45:00 AM 6.55 43.79 0.147 7.28 36.52 12.84
3/30/2021 12:00:00 PM 6.84 44.312 0.147 7.29 61.59 12.79
3/30/2021 12:15:00 PM 7.12 44.816 0.147 7.3 42.06 12.75
3/30/2021 12:30:00 PM 7.38 45.284 0.146 7.32 19.04 12.69
3/30/2021 12:45:00 PM 7.65 45.77 0.146 7.34 9.12 12.64
3/30/2021 1:00:00 PM 7.91 46.238 0.146 7.37 5.86 12.58
3/30/2021 1:15:00 PM 8.15 46.67 0.147 7.38 4.97 12.52
3/30/2021 1:30:00 PM 8.38 47.084 0.147 7.39 4.93 12.45
3/30/2021 1:45:00 PM 8.6 47.48 0.147 7.39 4.59 12.38
3/30/2021 2:00:00 PM 8.8 47.84 0.147 7.39 4.39 12.32
3/30/2021 2:15:00 PM 8.99 48.182 0.147 7.4 9.1 12.25
3/30/2021 2:30:00 PM 9.14 48.452 0.147 7.38 13.4 12.18
3/30/2021 2:45:00 PM 9.28 48.704 0.147 7.4 7.8 12.13
3/30/2021 3:00:00 PM 9.41 48.938 0.147 7.39 12.57 12.06
3/30/2021 3:15:00 PM 9.51 49.118 0.147 7.36 23.27 11.96
3/30/2021 3:30:00 PM 9.58 49.244 0.147 7.38 9.93 11.94
3/30/2021 3:45:00 PM 9.66 49.388 0.147 7.37 21.36 11.86
3/30/2021 4:00:00 PM 9.71 49.478 0.147 7.36 12.46 11.83
3/30/2021 4:15:00 PM 9.75 49.55 0.147 7.33 29.79 11.74
3/30/2021 4:30:00 PM 9.77 49.586 0.147 7.32 29.28 11.69
3/30/2021 4:45:00 PM 9.8 49.64 0.147 7.33 14.79 11.67
3/30/2021 5:00:00 PM 9.77 49.586 0.147 7.3 20.9 11.6
3/30/2021 5:15:00 PM 9.77 49.586 0.147 7.28 32.35 11.56
3/30/2021 5:30:00 PM 9.82 49.676 0.147 7.29 22.34 11.56
3/30/2021 5:45:00 PM 9.82 49.676 0.147 7.29 27.24 11.53
3/30/2021 6:00:00 PM 9.77 49.586 0.147 7.27 23.32 11.47
3/30/2021 6:15:00 PM 9.73 49.514 0.147 7.22 37.56 11.37
3/30/2021 6:30:00 PM 9.68 49.424 0.147 7.21 29.11 11.31
3/30/2021 6:45:00 PM 9.64 49.352 0.147 7.17 32.25 11.25
3/30/2021 7:00:00 PM 9.6 49.28 0.147 7.15 28.93 11.19
3/30/2021 7:15:00 PM 9.57 49.226 0.147 7.14 12.19 11.16
3/30/2021 7:30:00 PM 9.52 49.136 0.147 7.11 18.84 11.09
3/30/2021 7:45:00 PM 9.48 49.064 0.147 7.09 7.75 11.03
3/30/2021 8:00:00 PM 9.43 48.974 0.147 7.06 5.51 10.97
3/30/2021 8:15:00 PM 9.38 48.884 0.147 7.04 5.13 10.93
3/30/2021 8:30:00 PM 9.32 48.776 0.147 7.02 11.13 10.89
3/30/2021 8:45:00 PM 9.27 48.686 0.148 7 7.01 10.87
3/30/2021 9:00:00 PM 9.22 48.596 0.148 6.99 12.84 10.86
3/30/2021 9:15:00 PM 9.17 48.506 0.148 6.98 8.55 10.86
3/30/2021 9:30:00 PM 9.13 48.434 0.148 6.97 6.33 10.85
3/30/2021 9:45:00 PM 9.08 48.344 0.148 6.96 4.91 10.84
3/30/2021 10:00:00 PM 9.04 48.272 0.148 6.96 4.75 10.85
3/30/2021 10:15:00 PM 9 48.2 0.148 6.95 4.76 10.85
3/30/2021 10:30:00 PM 8.97 48.146 0.148 6.94 4.75 10.85
3/30/2021 10:45:00 PM 8.94 48.092 0.148 6.95 4.65 10.85
3/30/2021 11:00:00 PM 8.91 48.038 0.148 6.94 4.69 10.85
3/30/2021 11:15:00 PM 8.9 48.02 0.148 6.94 4.72 10.85
3/30/2021 11:30:00 PM 8.89 48.002 0.148 6.94 4.94 10.84
3/30/2021 11:45:00 PM 8.88 47.984 0.148 6.95 4.7 10.85
3/31/2021 12:00:00 AM 8.87 47.966 0.147 6.94 4.86 10.84
3/31/2021 12:15:00 AM 8.86 47.948 0.147 6.95 4.84 10.84
3/31/2021 12:30:00 AM 8.85 47.93 0.146 6.95 4.69 10.84
3/31/2021 12:45:00 AM 8.83 47.894 0.146 6.95 4.57 10.84
3/31/2021 1:00:00 AM 8.82 47.876 0.145 6.95 4.65 10.84
3/31/2021 1:15:00 AM 8.8 47.84 0.145 6.94 4.6 10.84
3/31/2021 1:30:00 AM 8.78 47.804 0.145 6.94 4.76 10.85
3/31/2021 1:45:00 AM 8.75 47.75 0.145 6.95 4.56 10.86
3/31/2021 2:00:00 AM 8.71 47.678 0.145 6.93 4.56 10.86
3/31/2021 2:15:00 AM 8.67 47.606 0.145 6.93 4.62 10.88
3/31/2021 2:30:00 AM 8.63 47.534 0.145 6.94 4.64 10.89
3/31/2021 2:45:00 AM 8.59 47.462 0.145 6.93 4.57 10.9
3/31/2021 3:00:00 AM 8.55 47.39 0.145 6.93 4.43 10.91
3/31/2021 3:15:00 AM 8.5 47.3 0.145 6.93 4.48 10.93
3/31/2021 3:30:00 AM 8.44 47.192 0.146 6.92 4.55 10.94
3/31/2021 3:45:00 AM 8.38 47.084 0.146 6.92 4.62 10.96
3/31/2021 4:00:00 AM 8.33 46.994 0.146 6.92 4.53 10.98
3/31/2021 4:15:00 AM 8.27 46.886 0.146 6.91 4.45 10.99
3/31/2021 4:30:00 AM 8.22 46.796 0.146 6.91 4.39 11.01
3/31/2021 4:45:00 AM 8.17 46.706 0.146 6.91 4.4 11.02
3/31/2021 5:00:00 AM 8.12 46.616 0.146 6.91 4.49 11.04
3/31/2021 5:15:00 AM 8.07 46.526 0.146 6.91 4.49 11.05
3/31/2021 5:30:00 AM 8.02 46.436 0.146 6.91 4.4 11.07
3/31/2021 5:45:00 AM 7.97 46.346 0.146 6.9 4.35 11.09
3/31/2021 6:00:00 AM 7.93 46.274 0.145 6.91 4.52 11.09
3/31/2021 6:15:00 AM 7.88 46.184 0.145 6.91 4.49 11.11
3/31/2021 6:30:00 AM 7.84 46.112 0.144 6.9 4.26 11.12
3/31/2021 6:45:00 AM 7.81 46.058 0.144 6.91 4.41 11.12
3/31/2021 7:00:00 AM 7.77 45.986 0.144 6.92 4.62 11.14
3/31/2021 7:15:00 AM 7.74 45.932 0.144 6.92 4.4 11.16
3/31/2021 7:30:00 AM 7.72 45.896 0.144 6.93 4.33 11.21
3/31/2021 7:45:00 AM 7.71 45.878 0.144 6.94 4.42 11.28
3/31/2021 8:00:00 AM 7.7 45.86 0.144 6.97 4.56 11.38
3/31/2021 8:15:00 AM 7.71 45.878 0.144 7 4.45 11.48
3/31/2021 8:30:00 AM 7.72 45.896 0.144 7.02 12.2 11.55
3/31/2021 8:45:00 AM 7.73 45.914 0.144 7.04 13.47 11.59
3/31/2021 9:00:00 AM 7.75 45.95 0.144 7.05 23.54 11.62
3/31/2021 9:15:00 AM 7.77 45.986 0.145 7.07 21.92 11.68
3/31/2021 9:30:00 AM 7.8 46.04 0.145 7.09 22.47 11.71
3/31/2021 9:45:00 AM 7.83 46.094 0.145 7.13 25.7 11.77
3/31/2021 10:00:00 AM 7.86 46.148 0.145 7.15 18.88 11.81
3/31/2021 10:15:00 AM 7.89 46.202 0.145 7.16 19.32 11.83
3/31/2021 10:30:00 AM 7.92 46.256 0.145 7.18 17.18 11.85
3/31/2021 10:45:00 AM 7.94 46.292 0.146 7.19 19.15 11.86
3/31/2021 11:00:00 AM 7.96 46.328 0.146 7.2 19.48 11.86
3/31/2021 11:15:00 AM 7.98 46.364 0.146 7.19 19.54 11.85
3/31/2021 11:30:00 AM 8 46.4 0.146 7.2 19.26 11.85
3/31/2021 11:45:00 AM 8.02 46.436 0.146 7.21 18.36 11.85
3/31/2021 12:00:00 PM 8.04 46.472 0.146 7.21 16.73 11.83
3/31/2021 12:15:00 PM 8.05 46.49 0.146 7.2 30.32 11.81
3/31/2021 12:30:00 PM 8.08 46.544 0.146 7.21 21.36 11.82
3/31/2021 12:45:00 PM 8.1 46.58 0.146 7.22 29.87 11.83
3/31/2021 1:00:00 PM 8.13 46.634 0.147 7.23 19.55 11.85
3/31/2021 1:15:00 PM 8.15 46.67 0.147 7.24 30.32 11.84
3/31/2021 1:30:00 PM 8.18 46.724 0.146 7.25 14.3 11.86
3/31/2021 1:45:00 PM 8.22 46.796 0.146 7.27 7.89 11.87
3/31/2021 2:00:00 PM 8.32 46.976 0.146 7.28 6.9 11.9
3/31/2021 2:15:00 PM 8.37 47.066 0.146 7.3 5.58 11.92
3/31/2021 2:30:00 PM 8.42 47.156 0.147 7.33 5.67 11.94
3/31/2021 2:45:00 PM 8.5 47.3 0.147 7.34 5.09 11.96
3/31/2021 3:00:00 PM 8.58 47.444 0.147 7.36 5.05 11.97
3/31/2021 3:15:00 PM 8.63 47.534 0.147 7.38 5.07 11.96
3/31/2021 3:30:00 PM 8.65 47.57 0.147 7.39 5.06 11.92
3/31/2021 3:45:00 PM 8.66 47.588 0.148 7.36 5.05 11.82
3/31/2021 4:00:00 PM 8.65 47.57 0.148 7.33 5.05 11.73
3/31/2021 4:15:00 PM 8.63 47.534 0.148 7.29 4.66 11.65
3/31/2021 4:30:00 PM 8.61 47.498 0.149 7.26 4.85 11.57
3/31/2021 4:45:00 PM 8.59 47.462 0.149 7.23 4.82 11.51
3/31/2021 5:00:00 PM 8.59 47.462 0.149 7.21 4.41 11.48
3/31/2021 5:15:00 PM 8.58 47.444 0.15 7.2 4.47 11.45
3/31/2021 5:30:00 PM 8.56 47.408 0.15 7.17 4.28 11.4
3/31/2021 5:45:00 PM 8.55 47.39 0.15 7.16 4.27 11.34
3/31/2021 6:00:00 PM 8.53 47.354 0.15 7.13 4.38 11.3
3/31/2021 6:15:00 PM 8.5 47.3 0.15 7.12 4.27 11.27
3/31/2021 6:30:00 PM 8.46 47.228 0.151 7.11 4.23 11.26
3/31/2021 6:45:00 PM 8.43 47.174 0.151 7.09 4.31 11.25
3/31/2021 7:00:00 PM 8.39 47.102 0.151 7.07 4.45 11.22
3/31/2021 7:15:00 PM 8.35 47.03 0.152 7.08 4.41 11.19
3/31/2021 7:30:00 PM 8.32 46.976 0.152 7.06 4.33 11.16
3/31/2021 7:45:00 PM 8.28 46.904 0.152 7.04 4.26 11.14
3/31/2021 8:00:00 PM 8.24 46.832 0.153 7.03 4.23 11.12
3/31/2021 8:15:00 PM 8.2 46.76 0.153 7.02 4.38 11.1
3/31/2021 8:30:00 PM 8.16 46.688 0.154 7.02 4.24 11.1
3/31/2021 8:45:00 PM 8.12 46.616 0.154 7.01 4.24 11.1
3/31/2021 9:00:00 PM 8.08 46.544 0.154 7 4.42 11.1
3/31/2021 9:15:00 PM 8.04 46.472 0.155 7 4.48 11.09
3/31/2021 9:30:00 PM 8 46.4 0.155 6.99 4.44 11.1
3/31/2021 9:45:00 PM 7.96 46.328 0.155 6.99 4.4 11.1
3/31/2021 10:00:00 PM 7.92 46.256 0.155 6.98 4.42 11.11
3/31/2021 10:15:00 PM 7.88 46.184 0.155 6.99 4.54 11.11
3/31/2021 10:30:00 PM 7.84 46.112 0.155 6.99 4.41 11.13
3/31/2021 10:45:00 PM 7.81 46.058 0.155 6.98 4.37 11.14
3/31/2021 11:00:00 PM 7.77 45.986 0.156 6.98 4.24 11.15
3/31/2021 11:15:00 PM 7.74 45.932 0.156 6.98 4.26 11.15
3/31/2021 11:30:00 PM 7.7 45.86 0.156 6.98 4.49 11.15
3/31/2021 11:45:00 PM 7.68 45.824 0.156 6.97 4.14 11.17
4/1/2021 12:00:00 AM 7.65 45.77 0.156 6.97 4.5 11.17
4/1/2021 12:15:00 AM 7.62 45.716 0.156 6.97 4.38 11.18
4/1/2021 12:30:00 AM 7.59 45.662 0.156 6.97 4.61 11.18
4/1/2021 12:45:00 AM 7.56 45.608 0.156 6.97 4.12 11.19
4/1/2021 1:00:00 AM 7.53 45.554 0.156 6.97 4.41 11.2
4/1/2021 1:15:00 AM 7.49 45.482 0.156 6.97 4.13 11.21
4/1/2021 1:30:00 AM 7.45 45.41 0.156 6.96 4.34 11.22
4/1/2021 1:45:00 AM 7.4 45.32 0.155 6.97 4.45 11.23
4/1/2021 2:00:00 AM 7.3 45.14 0.155 6.96 4.51 11.25
4/1/2021 2:15:00 AM 7.19 44.942 0.155 6.94 4.58 11.26
4/1/2021 2:30:00 AM 7.09 44.762 0.155 6.94 4.51 11.28
4/1/2021 2:45:00 AM 6.97 44.546 0.155 6.94 4.57 11.3
4/1/2021 3:00:00 AM 6.82 44.276 0.155 6.92 4.66 11.33
4/1/2021 3:15:00 AM 6.66 43.988 0.155 6.91 4.57 11.36
4/1/2021 3:30:00 AM 6.49 43.682 0.154 6.9 4.81 11.39
4/1/2021 3:45:00 AM 6.36 43.448 0.154 6.89 4.96 11.42
4/1/2021 4:00:00 AM 6.29 43.322 0.154 6.89 5.17 11.45
4/1/2021 4:15:00 AM 6.25 43.25 0.154 6.9 5.43 11.48
4/1/2021 4:30:00 AM 6.22 43.196 0.154 6.91 5.01 11.51
4/1/2021 4:45:00 AM 6.21 43.178 0.154 6.92 4.83 11.52
4/1/2021 5:00:00 AM 6.2 43.16 0.154 6.92 4.89 11.54
4/1/2021 5:15:00 AM 6.18 43.124 0.155 6.94 4.41 11.55
4/1/2021 5:30:00 AM 6.13 43.034 0.155 6.93 4.43 11.57
4/1/2021 5:45:00 AM 6.07 42.926 0.155 6.93 4.63 11.59
4/1/2021 6:00:00 AM 6.03 42.854 0.155 6.93 4.55 11.61
4/1/2021 6:15:00 AM 5.99 42.782 0.155 6.94 4.41 11.63
4/1/2021 6:30:00 AM 5.93 42.674 0.155 6.94 4.64 11.65
4/1/2021 6:45:00 AM 5.88 42.584 0.155 6.93 4.49 11.67
4/1/2021 7:00:00 AM 5.82 42.476 0.155 6.94 4.53 11.7
4/1/2021 7:15:00 AM 5.78 42.404 0.155 6.94 4.57 11.74
4/1/2021 7:30:00 AM 5.73 42.314 0.155 6.95 4.66 11.79
4/1/2021 7:45:00 AM 5.7 42.26 0.155 6.96 4.58 11.87
4/1/2021 8:00:00 AM 5.68 42.224 0.155 6.98 4.45 11.99
4/1/2021 8:15:00 AM 5.67 42.206 0.155 7.02 4.4 12.12
4/1/2021 8:30:00 AM 5.67 42.206 0.155 7.05 4.38 12.23
4/1/2021 8:45:00 AM 5.67 42.206 0.155 7.08 4.59 12.33
4/1/2021 9:00:00 AM 5.69 42.242 0.154 7.1 4.37 12.41
4/1/2021 9:15:00 AM 5.73 42.314 0.154 7.13 4.64 12.47
4/1/2021 9:30:00 AM 5.79 42.422 0.154 7.17 4.34 12.52
4/1/2021 9:45:00 AM 5.87 42.566 0.154 7.19 4.35 12.56
4/1/2021 10:00:00 AM 5.97 42.746 0.154 7.22 4.44 12.59
4/1/2021 10:15:00 AM 6.06 42.908 0.153 7.25 4.34 12.61
4/1/2021 10:30:00 AM 6.18 43.124 0.153 7.27 4.35 12.62
4/1/2021 10:45:00 AM 6.34 43.412 0.153 7.3 4.18 12.61
4/1/2021 11:00:00 AM 6.56 43.808 0.153 7.33 4.3 12.61
4/1/2021 11:15:00 AM 6.67 44.006 0.153 7.34 4.14 12.59
4/1/2021 11:30:00 AM 6.64 43.952 0.153 7.34 4.25 12.57
4/1/2021 11:45:00 AM 6.67 44.006 0.153 7.34 4.12 12.58
4/1/2021 12:00:00 PM 6.71 44.078 0.152 7.35 4.14 12.58
4/1/2021 12:15:00 PM 6.87 44.366 0.152 7.36 4.25 12.58
4/1/2021 12:30:00 PM 7.15 44.87 0.152 7.4 4.17 12.57
4/1/2021 12:45:00 PM 7.38 45.284 0.152 7.43 4.25 12.54
4/1/2021 1:00:00 PM 7.59 45.662 0.152 7.44 4.23 12.48
4/1/2021 1:15:00 PM 7.74 45.932 0.152 7.44 4.38 12.43
4/1/2021 1:30:00 PM 7.78 46.004 0.152 7.44 4.26 12.37
4/1/2021 1:45:00 PM 7.75 45.95 0.152 7.42 4.29 12.36
4/1/2021 2:00:00 PM 7.76 45.968 0.152 7.42 4.2 12.33
4/1/2021 2:15:00 PM 7.68 45.824 0.152 7.4 4.22 12.3
4/1/2021 2:30:00 PM 7.53 45.554 0.152 7.38 4.47 12.28
4/1/2021 2:45:00 PM 7.51 45.518 0.152 7.38 4.23 12.28
4/1/2021 3:00:00 PM 7.44 45.392 0.152 7.37 4.25 12.3
4/1/2021 3:15:00 PM 7.42 45.356 0.152 7.37 4.37 12.33
4/1/2021 3:30:00 PM 7.43 45.374 0.152 7.38 4.19 12.35
4/1/2021 3:45:00 PM 7.45 45.41 0.152 7.4 4.27 12.35
4/1/2021 4:00:00 PM 7.52 45.536 0.152 7.41 4.07 12.35
4/1/2021 4:15:00 PM 7.56 45.608 0.152 7.41 4.23 12.32
4/1/2021 4:30:00 PM 7.61 45.698 0.152 7.42 4.23 12.29
4/1/2021 4:45:00 PM 7.55 45.59 0.152 7.39 4.31 12.24
4/1/2021 5:00:00 PM 7.48 45.464 0.152 7.36 4.22 12.16
4/1/2021 5:15:00 PM 7.43 45.374 0.152 7.32 4.33 12.12
4/1/2021 5:30:00 PM 7.36 45.248 0.152 7.31 4.82 12.13
4/1/2021 5:45:00 PM 7.33 45.194 0.152 7.31 4.94 12.15
4/1/2021 6:00:00 PM 7.25 45.05 0.151 7.29 5.1 12.13
4/1/2021 6:15:00 PM 7.17 44.906 0.151 7.26 5.17 12.08
4/1/2021 6:30:00 PM 7.06 44.708 0.15 7.21 5 11.98
4/1/2021 6:45:00 PM 6.92 44.456 0.149 7.15 5.06 11.88
4/1/2021 7:00:00 PM 6.76 44.168 0.148 7.1 5.01 11.82
4/1/2021 7:15:00 PM 6.67 44.006 0.147 7.07 5 11.82
4/1/2021 7:30:00 PM 6.6 43.88 0.147 7.05 4.86 11.82
4/1/2021 7:45:00 PM 6.54 43.772 0.146 7.03 4.93 11.78
4/1/2021 8:00:00 PM 6.51 43.718 0.146 7.01 5.01 11.76
4/1/2021 8:15:00 PM 6.46 43.628 0.146 7 5.15 11.73
4/1/2021 8:30:00 PM 6.41 43.538 0.146 6.98 5.26 11.72
4/1/2021 8:45:00 PM 6.35 43.43 0.146 6.97 5.27 11.72
4/1/2021 9:00:00 PM 6.27 43.286 0.147 6.96 5.18 11.72
4/1/2021 9:15:00 PM 6.21 43.178 0.147 6.96 5.26 11.73
4/1/2021 9:30:00 PM 6.12 43.016 0.146 6.95 5.72 11.74
4/1/2021 9:45:00 PM 6.05 42.89 0.146 6.94 5.21 11.74
4/1/2021 10:00:00 PM 5.98 42.764 0.146 6.94 5.21 11.76
4/1/2021 10:15:00 PM 5.91 42.638 0.145 6.93 5.4 11.77
4/1/2021 10:30:00 PM 5.82 42.476 0.145 6.92 5.44 11.78
4/1/2021 10:45:00 PM 5.73 42.314 0.145 6.92 5.35 11.81
4/1/2021 11:00:00 PM 5.63 42.134 0.144 6.92 5.41 11.83
4/1/2021 11:15:00 PM 5.53 41.954 0.144 6.91 5.3 11.86
4/1/2021 11:30:00 PM 5.46 41.828 0.143 6.91 5.49 11.89
4/1/2021 11:45:00 PM 5.37 41.666 0.143 6.9 5.58 11.91
4/2/2021 12:00:00 AM 5.23 41.414 0.143 6.9 5.53 11.95
4/2/2021 12:15:00 AM 5.1 41.18 0.143 6.89 5.71 11.98
4/2/2021 12:30:00 AM 5.01 41.018 0.143 6.88 5.52 12
4/2/2021 12:45:00 AM 4.88 40.784 0.144 6.88 5.56 12.05
4/2/2021 1:00:00 AM 4.76 40.568 0.144 6.87 5.5 12.09
4/2/2021 1:15:00 AM 4.63 40.334 0.144 6.86 5.57 12.13
4/2/2021 1:30:00 AM 4.52 40.136 0.144 6.86 5.64 12.17
4/2/2021 1:45:00 AM 4.44 39.992 0.144 6.87 5.55 12.21
4/2/2021 2:00:00 AM 4.35 39.83 0.144 6.88 5.44 12.24
4/2/2021 2:15:00 AM 4.28 39.704 0.144 6.88 5.11 12.28
4/2/2021 2:30:00 AM 4.19 39.542 0.144 6.88 5.26 12.3
4/2/2021 2:45:00 AM 4.12 39.416 0.144 6.89 5.13 12.34
4/2/2021 3:00:00 AM 4.05 39.29 0.144 6.89 5.19 12.36
4/2/2021 3:15:00 AM 3.96 39.128 0.144 6.89 4.99 12.4
4/2/2021 3:30:00 AM 3.87 38.966 0.144 6.89 5.19 12.43
4/2/2021 3:45:00 AM 3.79 38.822 0.144 6.88 4.95 12.46
4/2/2021 4:00:00 AM 3.7 38.66 0.144 6.88 5.33 12.49
4/2/2021 4:15:00 AM 3.62 38.516 0.144 6.88 5.17 12.52
4/2/2021 4:30:00 AM 3.55 38.39 0.144 6.89 5.13 12.55
4/2/2021 4:45:00 AM 3.49 38.282 0.144 6.88 4.72 12.57
4/2/2021 5:00:00 AM 3.43 38.174 0.144 6.89 4.74 12.6
4/2/2021 5:15:00 AM 3.36 38.048 0.144 6.89 4.96 12.62
4/2/2021 5:30:00 AM 3.31 37.958 0.144 6.88 4.83 12.64
4/2/2021 5:45:00 AM 3.23 37.814 0.145 6.89 4.91 12.67
4/2/2021 6:00:00 AM 3.16 37.688 0.145 6.89 4.84 12.7
4/2/2021 6:15:00 AM 3.09 37.562 0.146 6.89 4.61 12.72
4/2/2021 6:30:00 AM 3.03 37.454 0.146 6.9 4.58 12.75
4/2/2021 6:45:00 AM 2.98 37.364 0.147 6.89 4.71 12.78
4/2/2021 7:00:00 AM 2.93 37.274 0.147 6.9 4.51 12.81
4/2/2021 7:15:00 AM 2.89 37.202 0.148 6.91 4.81 12.87
4/2/2021 7:30:00 AM 2.86 37.148 0.148 6.93 4.62 12.95
4/2/2021 7:45:00 AM 2.83 37.094 0.149 6.95 4.73 13.06
4/2/2021 8:00:00 AM 2.79 37.022 0.149 6.97 4.53 13.15
4/2/2021 8:15:00 AM 2.77 36.986 0.15 7 4.77 13.25
4/2/2021 8:30:00 AM 2.75 36.95 0.15 7.02 4.7 13.34
4/2/2021 8:45:00 AM 2.75 36.95 0.151 7.03 4.52 13.4
4/2/2021 9:00:00 AM 2.77 36.986 0.151 7.06 4.62 13.46
4/2/2021 9:15:00 AM 2.81 37.058 0.152 7.08 4.47 13.51
4/2/2021 9:30:00 AM 2.89 37.202 0.152 7.1 4.47 13.55
4/2/2021 9:45:00 AM 2.98 37.364 0.153 7.13 4.47 13.57
4/2/2021 10:00:00 AM 3.1 37.58 0.153 7.15 4.42 13.6
4/2/2021 10:15:00 AM 3.23 37.814 0.153 7.18 4.51 13.59
4/2/2021 10:30:00 AM 3.37 38.066 0.154 7.19 4.36 13.59
4/2/2021 10:45:00 AM 3.53 38.354 0.154 7.22 4.12 13.58
4/2/2021 11:00:00 AM 3.71 38.678 0.154 7.25 4.37 13.56
4/2/2021 11:15:00 AM 3.91 39.038 0.154 7.25 4.14 13.53
4/2/2021 11:30:00 AM 4.07 39.326 0.154 7.27 4.17 13.51
4/2/2021 11:45:00 AM 4.28 39.704 0.155 7.28 4.24 13.48
4/2/2021 12:00:00 PM 4.56 40.208 0.155 7.32 4.17 13.45
4/2/2021 12:15:00 PM 4.78 40.604 0.155 7.34 4.05 13.39
4/2/2021 12:30:00 PM 4.98 40.964 0.155 7.34 4.07 13.33
4/2/2021 12:45:00 PM 5.22 41.396 0.155 7.35 4 13.29
4/2/2021 1:00:00 PM 5.45 41.81 0.155 7.36 3.97 13.23
4/2/2021 1:15:00 PM 5.66 42.188 0.155 7.36 4.04 13.17
4/2/2021 1:30:00 PM 5.86 42.548 0.155 7.37 4.05 13.11
4/2/2021 1:45:00 PM 5.99 42.782 0.155 7.37 4.06 13.06
4/2/2021 2:00:00 PM 6.13 43.034 0.155 7.38 4.13 13.01
4/2/2021 2:15:00 PM 6.27 43.286 0.156 7.38 3.97 12.96
4/2/2021 2:30:00 PM 6.39 43.502 0.156 7.38 3.89 12.9
4/2/2021 2:45:00 PM 6.49 43.682 0.156 7.39 4.13 12.86
4/2/2021 3:00:00 PM 6.58 43.844 0.156 7.4 4.03 12.82
4/2/2021 3:15:00 PM 6.63 43.934 0.156 7.39 3.94 12.77
4/2/2021 3:30:00 PM 6.67 44.006 0.156 7.38 3.98 12.73
4/2/2021 3:45:00 PM 6.68 44.024 0.156 7.38 3.86 12.69
4/2/2021 4:00:00 PM 6.69 44.042 0.156 7.37 4.14 12.65
4/2/2021 4:15:00 PM 6.68 44.024 0.156 7.37 4.01 12.61
4/2/2021 4:30:00 PM 6.66 43.988 0.156 7.35 3.78 12.58
4/2/2021 4:45:00 PM 6.62 43.916 0.157 7.34 3.85 12.56
4/2/2021 5:00:00 PM 6.59 43.862 0.157 7.32 3.76 12.52
4/2/2021 5:15:00 PM 6.54 43.772 0.157 7.32 3.78 12.51
4/2/2021 5:30:00 PM 6.49 43.682 0.157 7.3 3.79 12.48
4/2/2021 5:45:00 PM 6.42 43.556 0.157 7.29 3.84 12.46
4/2/2021 6:00:00 PM 6.35 43.43 0.157 7.28 3.69 12.43
4/2/2021 6:15:00 PM 6.27 43.286 0.157 7.26 3.76 12.39
4/2/2021 6:30:00 PM 6.2 43.16 0.157 7.23 3.67 12.35
4/2/2021 6:45:00 PM 6.11 42.998 0.157 7.21 3.8 12.29
4/2/2021 7:00:00 PM 6.05 42.89 0.157 7.18 3.89 12.26
4/2/2021 7:15:00 PM 5.98 42.764 0.157 7.15 3.78 12.23
4/2/2021 7:30:00 PM 5.92 42.656 0.157 7.13 3.75 12.18
4/2/2021 7:45:00 PM 5.86 42.548 0.157 7.1 3.87 12.13
4/2/2021 8:00:00 PM 5.81 42.458 0.158 7.07 3.69 12.07
4/2/2021 8:15:00 PM 5.75 42.35 0.157 7.06 3.98 12.04
4/2/2021 8:30:00 PM 5.67 42.206 0.158 7.03 3.88 12.02
4/2/2021 8:45:00 PM 5.58 42.044 0.158 7.02 3.82 12.01
4/2/2021 9:00:00 PM 5.5 41.9 0.158 7.01 3.86 12.01
4/2/2021 9:15:00 PM 5.41 41.738 0.158 6.99 3.81 12.02
4/2/2021 9:30:00 PM 5.31 41.558 0.158 6.97 3.87 12.04
4/2/2021 9:45:00 PM 5.23 41.414 0.158 6.97 4.02 12.05
4/2/2021 10:00:00 PM 5.14 41.252 0.158 6.96 3.94 12.06
4/2/2021 10:15:00 PM 5.05 41.09 0.158 6.96 3.87 12.08
4/2/2021 10:30:00 PM 4.98 40.964 0.158 6.95 3.96 12.09
4/2/2021 10:45:00 PM 4.91 40.838 0.158 6.95 3.96 12.11
4/2/2021 11:00:00 PM 4.84 40.712 0.158 6.94 4.06 12.12
4/2/2021 11:15:00 PM 4.78 40.604 0.158 6.93 3.94 12.13
4/2/2021 11:30:00 PM 4.73 40.514 0.158 6.93 4.31 12.15
4/2/2021 11:45:00 PM 4.67 40.406 0.158 6.94 4.02 12.16
4/3/2021 12:00:00 AM 4.62 40.316 0.158 6.93 3.92 12.17
4/3/2021 12:15:00 AM 4.56 40.208 0.158 6.93 4.06 12.19
4/3/2021 12:30:00 AM 4.51 40.118 0.158 6.92 3.85 12.2
4/3/2021 12:45:00 AM 4.45 40.01 0.158 6.93 4.25 12.22
4/3/2021 1:00:00 AM 4.38 39.884 0.158 6.93 4 12.24
4/3/2021 1:15:00 AM 4.31 39.758 0.158 6.92 4.26 12.26
4/3/2021 1:30:00 AM 4.23 39.614 0.158 6.92 4.1 12.29
4/3/2021 1:45:00 AM 4.16 39.488 0.158 6.92 3.94 12.32
4/3/2021 2:00:00 AM 4.08 39.344 0.158 6.92 3.96 12.35
4/3/2021 2:15:00 AM 3.99 39.182 0.158 6.92 4.32 12.37
4/3/2021 2:30:00 AM 3.9 39.02 0.158 6.91 4.46 12.41
4/3/2021 2:45:00 AM 3.81 38.858 0.158 6.91 4.53 12.44
4/3/2021 3:00:00 AM 3.71 38.678 0.158 6.9 4.39 12.48
4/3/2021 3:15:00 AM 3.62 38.516 0.158 6.9 3.92 12.52
4/3/2021 3:30:00 AM 3.52 38.336 0.157 6.9 5.1 12.55
4/3/2021 3:45:00 AM 3.42 38.156 0.157 6.89 4.39 12.59
4/3/2021 4:00:00 AM 3.33 37.994 0.157 6.89 4.32 12.63
4/3/2021 4:15:00 AM 3.23 37.814 0.157 6.87 4.31 12.67
4/3/2021 4:30:00 AM 3.13 37.634 0.157 6.87 4.19 12.71
4/3/2021 4:45:00 AM 3.04 37.472 0.157 6.88 4.02 12.75
4/3/2021 5:00:00 AM 2.94 37.292 0.157 6.88 4.08 12.78
4/3/2021 5:15:00 AM 2.85 37.13 0.157 6.88 4.18 12.83
4/3/2021 5:30:00 AM 2.76 36.968 0.157 6.87 4.01 12.85
4/3/2021 5:45:00 AM 2.67 36.806 0.157 6.88 3.92 12.89
4/3/2021 6:00:00 AM 2.58 36.644 0.156 6.88 3.89 12.94
4/3/2021 6:15:00 AM 2.49 36.482 0.156 6.88 3.8 12.97
4/3/2021 6:30:00 AM 2.4 36.32 0.156 6.87 3.9 13
4/3/2021 6:45:00 AM 2.32 36.176 0.156 6.87 3.93 13.05
4/3/2021 7:00:00 AM 2.24 36.032 0.156 6.88 3.87 13.1
4/3/2021 7:15:00 AM 2.17 35.906 0.156 6.88 4.05 13.18
4/3/2021 7:30:00 AM 2.1 35.78 0.156 6.91 3.81 13.27
4/3/2021 7:45:00 AM 2.05 35.69 0.156 6.92 3.98 13.38
4/3/2021 8:00:00 AM 2.02 35.636 0.156 6.95 3.84 13.49
4/3/2021 8:15:00 AM 2.01 35.618 0.156 6.97 3.95 13.59
4/3/2021 8:30:00 AM 2.02 35.636 0.156 6.99 3.97 13.68
4/3/2021 8:45:00 AM 2.06 35.708 0.156 7.01 4.07 13.76
4/3/2021 9:00:00 AM 2.13 35.834 0.156 7.05 4.05 13.82
4/3/2021 9:15:00 AM 2.24 36.032 0.156 7.07 3.76 13.86
4/3/2021 9:30:00 AM 2.38 36.284 0.155 7.1 3.81 13.89
4/3/2021 9:45:00 AM 2.52 36.536 0.156 7.14 3.88 13.9
4/3/2021 10:00:00 AM 2.68 36.824 0.155 7.17 3.86 13.9
4/3/2021 10:15:00 AM 2.87 37.166 0.155 7.2 3.79 13.89
4/3/2021 10:30:00 AM 3.08 37.544 0.155 7.22 3.8 13.88
4/3/2021 10:45:00 AM 3.34 38.012 0.155 7.24 3.79 13.85
4/3/2021 11:00:00 AM 3.6 38.48 0.155 7.27 3.8 13.81
4/3/2021 11:15:00 AM 3.89 39.002 0.155 7.29 3.72 13.76
4/3/2021 11:30:00 AM 4.17 39.506 0.155 7.31 3.77 13.7
4/3/2021 11:45:00 AM 4.45 40.01 0.155 7.32 3.65 13.65
4/3/2021 12:00:00 PM 4.74 40.532 0.155 7.34 3.69 13.58
4/3/2021 12:15:00 PM 5.03 41.054 0.155 7.35 3.7 13.52
4/3/2021 12:30:00 PM 5.3 41.54 0.155 7.36 3.63 13.45
4/3/2021 12:45:00 PM 5.56 42.008 0.155 7.37 3.7 13.38
4/3/2021 1:00:00 PM 5.79 42.422 0.155 7.38 3.54 13.31
4/3/2021 1:15:00 PM 6.02 42.836 0.155 7.38 3.64 13.24
4/3/2021 1:30:00 PM 6.24 43.232 0.155 7.39 3.46 13.18
4/3/2021 1:45:00 PM 6.44 43.592 0.155 7.42 3.61 13.11
4/3/2021 2:00:00 PM 6.61 43.898 0.155 7.41 3.62 13.04
4/3/2021 2:15:00 PM 6.7 44.06 0.155 7.42 3.7 13
4/3/2021 2:30:00 PM 6.77 44.186 0.155 7.41 3.82 12.95
4/3/2021 2:45:00 PM 6.78 44.204 0.155 7.41 3.64 12.91
4/3/2021 3:00:00 PM 6.85 44.33 0.155 7.41 3.56 12.88
4/3/2021 3:15:00 PM 6.86 44.348 0.155 7.42 3.7 12.86
4/3/2021 3:30:00 PM 6.9 44.42 0.155 7.42 3.77 12.82
4/3/2021 3:45:00 PM 6.96 44.528 0.155 7.43 3.61 12.8
4/3/2021 4:00:00 PM 6.97 44.546 0.155 7.42 3.81 12.76
4/3/2021 4:15:00 PM 6.96 44.528 0.155 7.42 3.67 12.72
4/3/2021 4:30:00 PM 6.98 44.564 0.155 7.42 3.72 12.69
4/3/2021 4:45:00 PM 7.05 44.69 0.155 7.42 3.78 12.67
4/3/2021 5:00:00 PM 7.09 44.762 0.155 7.43 3.76 12.65
4/3/2021 5:15:00 PM 7.13 44.834 0.155 7.42 3.7 12.62
4/3/2021 5:30:00 PM 7.08 44.744 0.155 7.43 3.88 12.59
4/3/2021 5:45:00 PM 7.03 44.654 0.155 7.41 3.6 12.53
4/3/2021 6:00:00 PM 7.01 44.618 0.155 7.39 3.62 12.49
4/3/2021 6:15:00 PM 6.97 44.546 0.155 7.36 3.78 12.44
4/3/2021 6:30:00 PM 6.88 44.384 0.155 7.33 3.73 12.37
4/3/2021 6:45:00 PM 6.8 44.24 0.155 7.29 4 12.3
4/3/2021 7:00:00 PM 6.76 44.168 0.155 7.25 3.82 12.23
4/3/2021 7:15:00 PM 6.71 44.078 0.155 7.22 3.8 12.15
4/3/2021 7:30:00 PM 6.65 43.97 0.155 7.18 3.66 12.06
4/3/2021 7:45:00 PM 6.6 43.88 0.155 7.14 3.72 11.98
4/3/2021 8:00:00 PM 6.56 43.808 0.155 7.11 3.79 11.91
4/3/2021 8:15:00 PM 6.51 43.718 0.155 7.08 3.73 11.86
4/3/2021 8:30:00 PM 6.47 43.646 0.155 7.06 3.73 11.82
4/3/2021 8:45:00 PM 6.44 43.592 0.155 7.04 3.59 11.8
4/3/2021 9:00:00 PM 6.4 43.52 0.155 7.04 3.81 11.78
4/3/2021 9:15:00 PM 6.37 43.466 0.155 7.03 3.77 11.77
4/3/2021 9:30:00 PM 6.35 43.43 0.155 7.02 3.68 11.76
4/3/2021 9:45:00 PM 6.33 43.394 0.155 7.01 3.78 11.75
4/3/2021 10:00:00 PM 6.31 43.358 0.155 7 3.69 11.74
4/3/2021 10:15:00 PM 6.29 43.322 0.155 7 3.83 11.73
4/3/2021 10:30:00 PM 6.27 43.286 0.155 7 3.91 11.73
4/3/2021 10:45:00 PM 6.24 43.232 0.155 6.99 3.8 11.72
4/3/2021 11:00:00 PM 6.23 43.214 0.155 6.99 3.85 11.72
4/3/2021 11:15:00 PM 6.22 43.196 0.155 6.98 3.83 11.71
4/3/2021 11:30:00 PM 6.21 43.178 0.155 6.98 3.8 11.7
4/3/2021 11:45:00 PM 6.2 43.16 0.155 6.98 3.74 11.69
4/4/2021 12:00:00 AM 6.19 43.142 0.155 6.98 3.78 11.69
4/4/2021 12:15:00 AM 6.18 43.124 0.155 6.97 3.87 11.68
4/4/2021 12:30:00 AM 6.17 43.106 0.155 6.97 3.86 11.68
4/4/2021 12:45:00 AM 6.16 43.088 0.155 6.97 3.92 11.68
4/4/2021 1:00:00 AM 6.15 43.07 0.155 6.97 3.9 11.68
4/4/2021 1:15:00 AM 6.14 43.052 0.155 6.97 3.93 11.68
4/4/2021 1:30:00 AM 6.12 43.016 0.155 6.97 4.06 11.68
4/4/2021 1:45:00 AM 6.11 42.998 0.155 6.97 4.13 11.67
4/4/2021 2:00:00 AM 6.1 42.98 0.155 6.96 4.17 11.68
4/4/2021 2:15:00 AM 6.09 42.962 0.155 6.97 4.25 11.67
4/4/2021 2:30:00 AM 6.07 42.926 0.154 6.97 4.01 11.68
4/4/2021 2:45:00 AM 6.05 42.89 0.155 6.97 4.28 11.68
4/4/2021 3:00:00 AM 6.03 42.854 0.154 6.96 4.18 11.69
4/4/2021 3:15:00 AM 6.02 42.836 0.154 6.96 4.3 11.69
4/4/2021 3:30:00 AM 6 42.8 0.154 6.96 4.29 11.69
4/4/2021 3:45:00 AM 5.97 42.746 0.154 6.96 4.28 11.69
4/4/2021 4:00:00 AM 5.95 42.71 0.154 6.95 4.27 11.7
4/4/2021 4:15:00 AM 5.93 42.674 0.154 6.95 4.16 11.71
4/4/2021 4:30:00 AM 5.9 42.62 0.154 6.95 4.29 11.71
4/4/2021 4:45:00 AM 5.86 42.548 0.154 6.94 4.04 11.73
4/4/2021 5:00:00 AM 5.83 42.494 0.154 6.94 4.22 11.73
4/4/2021 5:15:00 AM 5.79 42.422 0.154 6.95 4.15 11.74
4/4/2021 5:30:00 AM 5.74 42.332 0.154 6.94 4.12 11.75
4/4/2021 5:45:00 AM 5.7 42.26 0.154 6.93 4.15 11.77
4/4/2021 6:00:00 AM 5.67 42.206 0.154 6.93 3.93 11.78
4/4/2021 6:15:00 AM 5.62 42.116 0.154 6.93 3.95 11.79
4/4/2021 6:30:00 AM 5.58 42.044 0.154 6.93 4.2 11.81
4/4/2021 6:45:00 AM 5.53 41.954 0.154 6.92 4.14 11.83
4/4/2021 7:00:00 AM 5.48 41.864 0.154 6.93 4.07 11.86
4/4/2021 7:15:00 AM 5.43 41.774 0.154 6.93 4.05 11.92
4/4/2021 7:30:00 AM 5.37 41.666 0.154 6.95 3.93 12.01
4/4/2021 7:45:00 AM 5.32 41.576 0.154 6.97 3.87 12.13
4/4/2021 8:00:00 AM 5.29 41.522 0.154 6.99 4.14 12.26
4/4/2021 8:15:00 AM 5.28 41.504 0.154 7.02 4.09 12.39
4/4/2021 8:30:00 AM 5.29 41.522 0.154 7.05 4.02 12.49
4/4/2021 8:45:00 AM 5.33 41.594 0.154 7.08 3.84 12.59
4/4/2021 9:00:00 AM 5.39 41.702 0.154 7.12 4.1 12.68
4/4/2021 9:15:00 AM 5.48 41.864 0.153 7.16 3.84 12.74
4/4/2021 9:30:00 AM 5.6 42.08 0.153 7.19 4.17 12.78
4/4/2021 9:45:00 AM 5.74 42.332 0.153 7.22 3.97 12.81
4/4/2021 10:00:00 AM 5.91 42.638 0.153 7.27 4.23 12.83
4/4/2021 10:15:00 AM 6.09 42.962 0.153 7.3 3.88 12.83
4/4/2021 10:30:00 AM 6.31 43.358 0.153 7.33 3.81 12.82
4/4/2021 10:45:00 AM 6.54 43.772 0.153 7.37 3.87 12.81
4/4/2021 11:00:00 AM 6.8 44.24 0.153 7.41 3.89 12.79
4/4/2021 11:15:00 AM 7.08 44.744 0.153 7.46 3.82 12.75
4/4/2021 11:30:00 AM 7.37 45.266 0.153 7.48 3.75 12.71
4/4/2021 11:45:00 AM 7.65 45.77 0.153 7.49 3.8 12.68
4/4/2021 12:00:00 PM 7.93 46.274 0.153 7.53 3.85 12.63
4/4/2021 12:15:00 PM 8.2 46.76 0.153 7.53 3.82 12.58
4/4/2021 12:30:00 PM 8.46 47.228 0.153 7.56 3.7 12.52
4/4/2021 12:45:00 PM 8.71 47.678 0.153 7.57 4.08 12.48
4/4/2021 1:00:00 PM 8.95 48.11 0.153 7.58 3.72 12.41
4/4/2021 1:15:00 PM 9.18 48.524 0.152 7.6 3.67 12.36
4/4/2021 1:30:00 PM 9.38 48.884 0.153 7.61 3.87 12.3
4/4/2021 1:45:00 PM 9.56 49.208 0.152 7.62 3.83 12.25
4/4/2021 2:00:00 PM 9.71 49.478 0.152 7.62 3.73 12.21
4/4/2021 2:15:00 PM 9.84 49.712 0.152 7.63 3.75 12.16
4/4/2021 2:30:00 PM 9.92 49.856 0.152 7.62 3.93 12.12
4/4/2021 2:45:00 PM 10.01 50.018 0.152 7.63 3.77 12.08
4/4/2021 3:00:00 PM 10.08 50.144 0.152 7.62 3.7 12.03
4/4/2021 3:15:00 PM 10.12 50.216 0.153 7.62 3.8 11.99
4/4/2021 3:30:00 PM 10.15 50.27 0.153 7.61 3.9 11.94
4/4/2021 3:45:00 PM 10.17 50.306 0.153 7.6 3.69 11.9
4/4/2021 4:00:00 PM 10.17 50.306 0.153 7.59 3.76 11.86
4/4/2021 4:15:00 PM 10.15 50.27 0.153 7.57 3.83 11.81
4/4/2021 4:30:00 PM 10.12 50.216 0.153 7.55 3.9 11.77
4/4/2021 4:45:00 PM 10.09 50.162 0.153 7.54 3.9 11.73
4/4/2021 5:00:00 PM 10.05 50.09 0.153 7.52 4.18 11.69
4/4/2021 5:15:00 PM 10.01 50.018 0.153 7.5 3.93 11.66
4/4/2021 5:30:00 PM 9.96 49.928 0.153 7.48 3.82 11.62
4/4/2021 5:45:00 PM 9.91 49.838 0.153 7.46 3.96 11.58
4/4/2021 6:00:00 PM 9.83 49.694 0.153 7.43 3.86 11.55
4/4/2021 6:15:00 PM 9.76 49.568 0.153 7.4 3.78 11.49
4/4/2021 6:30:00 PM 9.69 49.442 0.153 7.36 3.85 11.44
4/4/2021 6:45:00 PM 9.59 49.262 0.153 7.32 3.89 11.37
4/4/2021 7:00:00 PM 9.53 49.154 0.153 7.28 3.82 11.31
4/4/2021 7:15:00 PM 9.45 49.01 0.153 7.24 3.89 11.25
4/4/2021 7:30:00 PM 9.38 48.884 0.153 7.21 3.72 11.18
4/4/2021 7:45:00 PM 9.31 48.758 0.153 7.16 3.93 11.1
4/4/2021 8:00:00 PM 9.24 48.632 0.154 7.12 4.1 11.02
4/4/2021 8:15:00 PM 9.16 48.488 0.154 7.09 3.74 10.97
4/4/2021 8:30:00 PM 9.08 48.344 0.154 7.06 4.03 10.92
4/4/2021 8:45:00 PM 8.99 48.182 0.154 7.03 3.98 10.9
4/4/2021 9:00:00 PM 8.89 48.002 0.154 7.01 3.89 10.89
4/4/2021 9:15:00 PM 8.79 47.822 0.154 6.99 3.92 10.89
4/4/2021 9:30:00 PM 8.68 47.624 0.154 6.98 3.86 10.9
4/4/2021 9:45:00 PM 8.57 47.426 0.154 6.96 3.89 10.91
4/4/2021 10:00:00 PM 8.47 47.246 0.154 6.95 4.02 10.92
4/4/2021 10:15:00 PM 8.36 47.048 0.154 6.94 3.95 10.94
4/4/2021 10:30:00 PM 8.26 46.868 0.154 6.94 3.92 10.96
4/4/2021 10:45:00 PM 8.16 46.688 0.154 6.93 4.09 10.98
4/4/2021 11:00:00 PM 8.06 46.508 0.154 6.92 4.1 11
4/4/2021 11:15:00 PM 7.96 46.328 0.154 6.92 3.89 11.02
4/4/2021 11:30:00 PM 7.86 46.148 0.154 6.91 3.91 11.03
4/4/2021 11:45:00 PM 7.76 45.968 0.154 6.91 3.88 11.05
4/5/2021 12:00:00 AM 7.68 45.824 0.154 6.91 3.97 11.07
4/5/2021 12:15:00 AM 7.6 45.68 0.154 6.91 4.01 11.1
4/5/2021 12:30:00 AM 7.52 45.536 0.154 6.91 3.76 11.11
4/5/2021 12:45:00 AM 7.44 45.392 0.154 6.91 4.04 11.13
4/5/2021 1:00:00 AM 7.37 45.266 0.154 6.91 4.16 11.14
4/5/2021 1:15:00 AM 7.29 45.122 0.154 6.91 4.2 11.16
4/5/2021 1:30:00 AM 7.22 44.996 0.154 6.9 4.46 11.18
4/5/2021 1:45:00 AM 7.15 44.87 0.154 6.91 4.11 11.2
4/5/2021 2:00:00 AM 7.09 44.762 0.154 6.91 3.78 11.22
4/5/2021 2:15:00 AM 7.02 44.636 0.154 6.91 3.86 11.23
4/5/2021 2:30:00 AM 6.96 44.528 0.154 6.91 4.19 11.25
4/5/2021 2:45:00 AM 6.88 44.384 0.154 6.91 3.97 11.27
4/5/2021 3:00:00 AM 6.82 44.276 0.154 6.91 3.94 11.29
4/5/2021 3:15:00 AM 6.75 44.15 0.154 6.91 3.9 11.31
4/5/2021 3:30:00 AM 6.68 44.024 0.154 6.91 3.9 11.33
4/5/2021 3:45:00 AM 6.61 43.898 0.154 6.91 3.95 11.35
4/5/2021 4:00:00 AM 6.54 43.772 0.154 6.91 3.93 11.37
4/5/2021 4:15:00 AM 6.47 43.646 0.154 6.91 3.93 11.4
4/5/2021 4:30:00 AM 6.4 43.52 0.154 6.91 4.23 11.42
4/5/2021 4:45:00 AM 6.33 43.394 0.154 6.91 4.23 11.45
4/5/2021 5:00:00 AM 6.25 43.25 0.154 6.91 4.23 11.48
4/5/2021 5:15:00 AM 6.18 43.124 0.154 6.91 4.13 11.5
4/5/2021 5:30:00 AM 6.1 42.98 0.154 6.91 4.33 11.53
4/5/2021 5:45:00 AM 6.02 42.836 0.154 6.91 4.13 11.56
4/5/2021 6:00:00 AM 5.95 42.71 0.154 6.91 4.06 11.58
4/5/2021 6:15:00 AM 5.87 42.566 0.154 6.91 4.06 11.6
4/5/2021 6:30:00 AM 5.8 42.44 0.154 6.91 4.14 11.64
4/5/2021 6:45:00 AM 5.72 42.296 0.154 6.91 4.18 11.67
4/5/2021 7:00:00 AM 5.64 42.152 0.154 6.91 4.1 11.73
4/5/2021 7:15:00 AM 5.57 42.026 0.154 6.93 4.02 11.8
4/5/2021 7:30:00 AM 5.51 41.918 0.154 6.94 3.94 11.92
4/5/2021 7:45:00 AM 5.46 41.828 0.154 6.96 4.05 12.05
4/5/2021 8:00:00 AM 5.44 41.792 0.154 6.99 4.13 12.18
4/5/2021 8:15:00 AM 5.43 41.774 0.154 7.02 4.12 12.31
4/5/2021 8:30:00 AM 5.45 41.81 0.154 7.05 3.93 12.43
4/5/2021 8:45:00 AM 5.49 41.882 0.153 7.09 3.88 12.54
4/5/2021 9:00:00 AM 5.56 42.008 0.153 7.13 3.91 12.62
4/5/2021 9:15:00 AM 5.68 42.224 0.153 7.17 3.88 12.68
4/5/2021 9:30:00 AM 5.83 42.494 0.153 7.23 4.02 12.73
4/5/2021 9:45:00 AM 6.01 42.818 0.153 7.26 3.89 12.76
4/5/2021 10:00:00 AM 6.19 43.142 0.153 7.31 4.03 12.78
4/5/2021 10:15:00 AM 6.39 43.502 0.153 7.35 4.21 12.79
4/5/2021 10:30:00 AM 6.61 43.898 0.153 7.4 4 12.78
4/5/2021 10:45:00 AM 6.86 44.348 0.153 7.43 3.91 12.77
4/5/2021 11:00:00 AM 7.14 44.852 0.153 7.47 4.09 12.74
4/5/2021 11:15:00 AM 7.43 45.374 0.153 7.5 3.94 12.72
4/5/2021 11:30:00 AM 7.73 45.914 0.152 7.53 3.86 12.67
4/5/2021 11:45:00 AM 8.02 46.436 0.153 7.55 3.7 12.63
4/5/2021 12:00:00 PM 8.31 46.958 0.153 7.58 3.92 12.57
4/5/2021 12:15:00 PM 8.59 47.462 0.153 7.6 3.7 12.53
4/5/2021 12:30:00 PM 8.84 47.912 0.153 7.62 3.75 12.48
4/5/2021 12:45:00 PM 9.09 48.362 0.153 7.63 3.77 12.42
4/5/2021 1:00:00 PM 9.32 48.776 0.153 7.65 3.64 12.37
4/5/2021 1:15:00 PM 9.53 49.154 0.153 7.66 3.56 12.32
4/5/2021 1:30:00 PM 9.72 49.496 0.153 7.66 3.83 12.27
4/5/2021 1:45:00 PM 9.89 49.802 0.153 7.67 3.9 12.22
4/5/2021 2:00:00 PM 10.03 50.054 0.153 7.68 3.66 12.17
4/5/2021 2:15:00 PM 10.16 50.288 0.153 7.69 3.59 12.12
4/5/2021 2:30:00 PM 10.23 50.414 0.153 7.7 3.59 12.09
4/5/2021 2:45:00 PM 10.32 50.576 0.153 7.7 3.54 12.05
4/5/2021 3:00:00 PM 10.37 50.666 0.153 7.71 3.5 12.02
4/5/2021 3:15:00 PM 10.42 50.756 0.153 7.71 3.56 11.98
4/5/2021 3:30:00 PM 10.42 50.756 0.153 7.71 3.64 11.95
4/5/2021 3:45:00 PM 10.42 50.756 0.153 7.7 3.6 11.91
4/5/2021 4:00:00 PM 10.42 50.756 0.153 7.69 3.56 11.87
4/5/2021 4:15:00 PM 10.43 50.774 0.153 7.69 3.61 11.84
4/5/2021 4:30:00 PM 10.43 50.774 0.153 7.68 3.71 11.81
4/5/2021 4:45:00 PM 10.42 50.756 0.153 7.68 3.73 11.79
4/5/2021 5:00:00 PM 10.43 50.774 0.153 7.67 3.8 11.77
4/5/2021 5:15:00 PM 10.41 50.738 0.153 7.67 3.76 11.75
4/5/2021 5:30:00 PM 10.38 50.684 0.153 7.66 3.8 11.72
4/5/2021 5:45:00 PM 10.32 50.576 0.153 7.64 3.72 11.69
4/5/2021 6:00:00 PM 10.27 50.486 0.154 7.63 3.66 11.65
4/5/2021 6:15:00 PM 10.23 50.414 0.154 7.59 3.68 11.6
4/5/2021 6:30:00 PM 10.18 50.324 0.154 7.55 3.89 11.54
4/5/2021 6:45:00 PM 10.11 50.198 0.154 7.51 3.64 11.47
4/5/2021 7:00:00 PM 10.03 50.054 0.154 7.45 3.76 11.39
4/5/2021 7:15:00 PM 9.96 49.928 0.154 7.39 3.64 11.3
4/5/2021 7:30:00 PM 9.89 49.802 0.154 7.32 3.67 11.18
4/5/2021 7:45:00 PM 9.8 49.64 0.155 7.26 3.53 11.07
4/5/2021 8:00:00 PM 9.72 49.496 0.155 7.2 3.61 10.96
4/5/2021 8:15:00 PM 9.65 49.37 0.155 7.15 3.75 10.87
4/5/2021 8:30:00 PM 9.57 49.226 0.155 7.12 3.72 10.81
4/5/2021 8:45:00 PM 9.5 49.1 0.155 7.08 3.79 10.77
4/5/2021 9:00:00 PM 9.42 48.956 0.155 7.06 3.76 10.75
4/5/2021 9:15:00 PM 9.35 48.83 0.155 7.04 3.89 10.74
4/5/2021 9:30:00 PM 9.28 48.704 0.155 7.03 4.02 10.73
4/5/2021 9:45:00 PM 9.2 48.56 0.155 7.01 3.71 10.73
4/5/2021 10:00:00 PM 9.11 48.398 0.155 6.99 3.85 10.74
4/5/2021 10:15:00 PM 9.02 48.236 0.155 6.98 3.75 10.76
4/5/2021 10:30:00 PM 8.92 48.056 0.155 6.97 3.96 10.77
4/5/2021 10:45:00 PM 8.81 47.858 0.155 6.96 3.76 10.79
4/5/2021 11:00:00 PM 8.69 47.642 0.155 6.95 4.06 10.8
4/5/2021 11:15:00 PM 8.57 47.426 0.155 6.94 4 10.82
4/5/2021 11:30:00 PM 8.45 47.21 0.155 6.94 4.03 10.84
4/5/2021 11:45:00 PM 8.34 47.012 0.155 6.93 4.01 10.86
4/6/2021 12:00:00 AM 8.23 46.814 0.155 6.93 3.77 10.89
4/6/2021 12:15:00 AM 8.11 46.598 0.155 6.92 3.81 10.91
4/6/2021 12:30:00 AM 8.01 46.418 0.156 6.92 3.77 10.93
4/6/2021 12:45:00 AM 7.92 46.256 0.156 6.91 3.75 10.96
4/6/2021 1:00:00 AM 7.83 46.094 0.156 6.91 3.77 10.97
4/6/2021 1:15:00 AM 7.73 45.914 0.156 6.91 3.84 11
4/6/2021 1:30:00 AM 7.64 45.752 0.156 6.91 3.89 11.01
4/6/2021 1:45:00 AM 7.56 45.608 0.156 6.91 3.93 11.03
4/6/2021 2:00:00 AM 7.49 45.482 0.156 6.92 3.96 11.05
4/6/2021 2:15:00 AM 7.41 45.338 0.156 6.91 3.71 11.07
4/6/2021 2:30:00 AM 7.34 45.212 0.156 6.92 3.95 11.09
4/6/2021 2:45:00 AM 7.26 45.068 0.156 6.92 3.85 11.11
4/6/2021 3:00:00 AM 7.19 44.942 0.156 6.92 4.05 11.13
4/6/2021 3:15:00 AM 7.12 44.816 0.156 6.92 3.77 11.15
4/6/2021 3:30:00 AM 7.05 44.69 0.156 6.92 3.63 11.17
4/6/2021 3:45:00 AM 6.98 44.564 0.156 6.93 3.76 11.19
4/6/2021 4:00:00 AM 6.91 44.438 0.156 6.93 3.83 11.2
4/6/2021 4:15:00 AM 6.83 44.294 0.156 6.93 3.76 11.23
4/6/2021 4:30:00 AM 6.76 44.168 0.156 6.93 3.89 11.25
4/6/2021 4:45:00 AM 6.69 44.042 0.156 6.92 3.87 11.28
4/6/2021 5:00:00 AM 6.61 43.898 0.156 6.92 3.92 11.3
4/6/2021 5:15:00 AM 6.54 43.772 0.156 6.92 3.99 11.32
4/6/2021 5:30:00 AM 6.46 43.628 0.156 6.93 3.77 11.35
4/6/2021 5:45:00 AM 6.38 43.484 0.156 6.92 3.93 11.37
4/6/2021 6:00:00 AM 6.3 43.34 0.156 6.92 3.79 11.4
4/6/2021 6:15:00 AM 6.23 43.214 0.156 6.92 4.16 11.42
4/6/2021 6:30:00 AM 6.15 43.07 0.156 6.92 3.7 11.45
4/6/2021 6:45:00 AM 6.07 42.926 0.156 6.92 3.99 11.49
4/6/2021 7:00:00 AM 5.99 42.782 0.156 6.92 3.81 11.54
4/6/2021 7:15:00 AM 5.92 42.656 0.156 6.93 3.77 11.63
4/6/2021 7:30:00 AM 5.86 42.548 0.156 6.95 3.75 11.75
4/6/2021 7:45:00 AM 5.82 42.476 0.156 6.98 3.82 11.88
4/6/2021 8:00:00 AM 5.79 42.422 0.156 7.01 3.87 12.02
4/6/2021 8:15:00 AM 5.79 42.422 0.156 7.04 3.8 12.14
4/6/2021 8:30:00 AM 5.82 42.476 0.156 7.08 4.01 12.26
4/6/2021 8:45:00 AM 5.87 42.566 0.155 7.11 3.95 12.38
4/6/2021 9:00:00 AM 5.95 42.71 0.155 7.15 3.83 12.48
4/6/2021 9:15:00 AM 6.07 42.926 0.155 7.2 3.78 12.55
4/6/2021 9:30:00 AM 6.23 43.214 0.155 7.25 3.76 12.6
4/6/2021 9:45:00 AM 6.43 43.574 0.155 7.32 3.83 12.63
4/6/2021 10:00:00 AM 6.65 43.97 0.155 7.36 4 12.65
4/6/2021 10:15:00 AM 6.87 44.366 0.155 7.42 3.9 12.65
4/6/2021 10:30:00 AM 7.12 44.816 0.154 7.45 3.79 12.65
4/6/2021 10:45:00 AM 7.41 45.338 0.154 7.48 3.73 12.62
4/6/2021 11:00:00 AM 7.72 45.896 0.154 7.52 3.78 12.6
4/6/2021 11:15:00 AM 8.04 46.472 0.154 7.57 3.65 12.57
4/6/2021 11:30:00 AM 8.37 47.066 0.154 7.6 3.61 12.53
4/6/2021 11:45:00 AM 8.7 47.66 0.154 7.62 3.6 12.48
4/6/2021 12:00:00 PM 9.04 48.272 0.154 7.65 3.64 12.42
4/6/2021 12:15:00 PM 9.33 48.794 0.154 7.69 3.77 12.38
4/6/2021 12:30:00 PM 9.6 49.28 0.154 7.7 3.9 12.32
4/6/2021 12:45:00 PM 9.85 49.73 0.154 7.72 3.99 12.28
4/6/2021 1:00:00 PM 10.05 50.09 0.154 7.74 3.85 12.22
4/6/2021 1:15:00 PM 10.27 50.486 0.154 7.75 3.55 12.18
4/6/2021 1:30:00 PM 10.46 50.828 0.154 7.77 3.61 12.13
4/6/2021 1:45:00 PM 10.64 51.152 0.154 7.79 3.62 12.09
4/6/2021 2:00:00 PM 10.81 51.458 0.154 7.79 3.61 12.04
4/6/2021 2:15:00 PM 10.91 51.638 0.154 7.8 3.64 11.99
4/6/2021 2:30:00 PM 11.03 51.854 0.154 7.81 3.58 11.95
4/6/2021 2:45:00 PM 11.11 51.998 0.154 7.8 3.57 11.9
4/6/2021 3:00:00 PM 11.16 52.088 0.154 7.81 3.51 11.86
4/6/2021 3:15:00 PM 11.18 52.124 0.154 7.8 3.5 11.82
4/6/2021 3:30:00 PM 11.19 52.142 0.155 7.78 3.6 11.77
4/6/2021 3:45:00 PM 11.18 52.124 0.154 7.76 3.51 11.73
4/6/2021 4:00:00 PM 11.17 52.106 0.155 7.75 3.65 11.69
4/6/2021 4:15:00 PM 11.14 52.052 0.155 7.73 3.57 11.64
4/6/2021 4:30:00 PM 11.11 51.998 0.155 7.72 3.56 11.61
4/6/2021 4:45:00 PM 11.06 51.908 0.155 7.69 3.63 11.56
4/6/2021 5:00:00 PM 11.01 51.818 0.155 7.68 3.6 11.53
4/6/2021 5:15:00 PM 10.96 51.728 0.155 7.65 3.7 11.5
4/6/2021 5:30:00 PM 10.92 51.656 0.155 7.63 3.75 11.45
4/6/2021 5:45:00 PM 10.88 51.584 0.155 7.59 3.77 11.4
4/6/2021 6:00:00 PM 10.83 51.494 0.155 7.56 3.74 11.35
4/6/2021 6:15:00 PM 10.77 51.386 0.155 7.52 3.68 11.3
4/6/2021 6:30:00 PM 10.72 51.296 0.155 7.47 3.75 11.21
4/6/2021 6:45:00 PM 10.66 51.188 0.155 7.42 3.69 11.12
4/6/2021 7:00:00 PM 10.63 51.134 0.156 7.38 3.68 11.04
4/6/2021 7:15:00 PM 10.6 51.08 0.156 7.34 3.74 10.98
4/6/2021 7:30:00 PM 10.56 51.008 0.156 7.3 3.91 10.9
4/6/2021 7:45:00 PM 10.51 50.918 0.156 7.25 3.65 10.8
4/6/2021 8:00:00 PM 10.46 50.828 0.156 7.2 3.68 10.7
4/6/2021 8:15:00 PM 10.42 50.756 0.156 7.16 3.58 10.61
4/6/2021 8:30:00 PM 10.38 50.684 0.157 7.13 3.78 10.54
4/6/2021 8:45:00 PM 10.34 50.612 0.157 7.1 3.75 10.5
4/6/2021 9:00:00 PM 10.28 50.504 0.157 7.08 3.79 10.47
4/6/2021 9:15:00 PM 10.22 50.396 0.157 7.06 3.67 10.45
4/6/2021 9:30:00 PM 10.14 50.252 0.157 7.04 3.69 10.44
4/6/2021 9:45:00 PM 10.07 50.126 0.157 7.03 3.72 10.45
4/6/2021 10:00:00 PM 9.99 49.982 0.157 7.01 3.84 10.45
4/6/2021 10:15:00 PM 9.93 49.874 0.157 7 3.68 10.46
4/6/2021 10:30:00 PM 9.86 49.748 0.157 6.99 3.64 10.47
4/6/2021 10:45:00 PM 9.79 49.622 0.157 6.99 3.66 10.48
4/6/2021 11:00:00 PM 9.71 49.478 0.157 6.98 3.63 10.49
4/6/2021 11:15:00 PM 9.64 49.352 0.157 6.97 3.76 10.5
4/6/2021 11:30:00 PM 9.57 49.226 0.157 6.96 4.13 10.52
4/6/2021 11:45:00 PM 9.5 49.1 0.157 6.96 3.96 10.53
4/7/2021 12:00:00 AM 9.44 48.992 0.157 6.95 3.77 10.54
4/7/2021 12:15:00 AM 9.38 48.884 0.157 6.95 3.9 10.55
4/7/2021 12:30:00 AM 9.32 48.776 0.157 6.96 3.81 10.56
4/7/2021 12:45:00 AM 9.27 48.686 0.157 6.95 3.82 10.58
4/7/2021 1:00:00 AM 9.22 48.596 0.158 6.95 3.82 10.59
4/7/2021 1:15:00 AM 9.18 48.524 0.157 6.95 3.83 10.6
4/7/2021 1:30:00 AM 9.14 48.452 0.158 6.95 3.82 10.6
4/7/2021 1:45:00 AM 9.1 48.38 0.158 6.95 3.71 10.61
4/7/2021 2:00:00 AM 9.06 48.308 0.158 6.95 3.93 10.62
4/7/2021 2:15:00 AM 9.01 48.218 0.158 6.95 3.72 10.62
4/7/2021 2:30:00 AM 8.98 48.164 0.158 6.95 3.68 10.64
4/7/2021 2:45:00 AM 8.95 48.11 0.158 6.96 3.82 10.64
4/7/2021 3:00:00 AM 8.92 48.056 0.158 6.96 3.7 10.65
4/7/2021 3:15:00 AM 8.89 48.002 0.158 6.95 3.84 10.64
4/7/2021 3:30:00 AM 8.87 47.966 0.158 6.96 3.78 10.65
4/7/2021 3:45:00 AM 8.85 47.93 0.158 6.96 3.59 10.65
4/7/2021 4:00:00 AM 8.83 47.894 0.158 6.96 3.61 10.66
4/7/2021 4:15:00 AM 8.82 47.876 0.158 6.97 3.76 10.67
4/7/2021 4:30:00 AM 8.8 47.84 0.158 6.97 3.74 10.67
4/7/2021 4:45:00 AM 8.78 47.804 0.158 6.97 3.76 10.67
4/7/2021 5:00:00 AM 8.77 47.786 0.158 6.98 3.72 10.67
4/7/2021 5:15:00 AM 8.76 47.768 0.158 6.97 3.97 10.67
4/7/2021 5:30:00 AM 8.74 47.732 0.158 6.98 3.8 10.67
4/7/2021 5:45:00 AM 8.73 47.714 0.158 6.98 3.86 10.68
4/7/2021 6:00:00 AM 8.71 47.678 0.158 6.98 3.73 10.69
4/7/2021 6:15:00 AM 8.7 47.66 0.158 6.98 3.75 10.69
4/7/2021 6:30:00 AM 8.68 47.624 0.158 6.98 3.86 10.69
4/7/2021 6:45:00 AM 8.66 47.588 0.158 6.98 3.92 10.7
4/7/2021 7:00:00 AM 8.64 47.552 0.158 6.98 3.94 10.71
4/7/2021 7:15:00 AM 8.62 47.516 0.158 6.98 3.92 10.74
4/7/2021 7:30:00 AM 8.61 47.498 0.158 6.99 3.47 10.78
4/7/2021 7:45:00 AM 8.59 47.462 0.158 7.01 3.57 10.83
4/7/2021 8:00:00 AM 8.58 47.444 0.158 7.02 3.44 10.93
4/7/2021 8:15:00 AM 8.59 47.462 0.158 7.05 3.51 11.07
4/7/2021 8:30:00 AM 8.59 47.462 0.157 7.09 3.44 11.25
4/7/2021 8:45:00 AM 8.66 47.588 0.157 7.14 3.4 11.45
4/7/2021 9:00:00 AM 8.68 47.624 0.157 7.19 3.49 11.6
4/7/2021 9:15:00 AM 8.81 47.858 0.157 7.25 3.53 11.75
4/7/2021 9:30:00 AM 8.92 48.056 0.157 7.32 3.41 11.85
4/7/2021 9:45:00 AM 9.09 48.362 0.157 7.39 3.45 11.93
4/7/2021 10:00:00 AM 9.26 48.668 0.156 7.45 3.72 11.98
4/7/2021 10:15:00 AM 9.41 48.938 0.156 7.5 3.79 12
4/7/2021 10:30:00 AM 9.57 49.226 0.156 7.56 3.67 12.02
4/7/2021 10:45:00 AM 9.7 49.46 0.156 7.61 3.68 12.03
4/7/2021 11:00:00 AM 9.88 49.784 0.156 7.65 3.61 12.03
4/7/2021 11:15:00 AM 10.01 50.018 0.156 7.7 3.76 12.03
4/7/2021 11:30:00 AM 10.18 50.324 0.156 7.75 3.66 12.03
4/7/2021 11:45:00 AM 10.45 50.81 0.156 7.79 3.45 12.01
4/7/2021 12:00:00 PM 10.68 51.224 0.156 7.83 3.53 11.99
4/7/2021 12:15:00 PM 10.91 51.638 0.156 7.87 3.37 11.97
4/7/2021 12:30:00 PM 11.12 52.016 0.156 7.91 3.43 11.94
4/7/2021 12:45:00 PM 11.31 52.358 0.156 7.94 3.36 11.92
4/7/2021 1:00:00 PM 11.49 52.682 0.156 7.96 3.32 11.88
4/7/2021 1:15:00 PM 11.6 52.88 0.156 7.98 3.41 11.84
4/7/2021 1:30:00 PM 11.68 53.024 0.156 7.99 3.36 11.82
4/7/2021 1:45:00 PM 11.82 53.276 0.156 8.01 3.4 11.79
4/7/2021 2:00:00 PM 11.91 53.438 0.156 8.03 3.45 11.76
4/7/2021 2:15:00 PM 12.07 53.726 0.156 8.04 3.28 11.73
4/7/2021 2:30:00 PM 12.32 54.176 0.156 8.08 3.35 11.7
4/7/2021 2:45:00 PM 12.58 54.644 0.156 8.09 3.4 11.66
4/7/2021 3:00:00 PM 12.8 55.04 0.156 8.1 3.36 11.59
4/7/2021 3:15:00 PM 12.95 55.31 0.156 8.11 3.34 11.52
4/7/2021 3:30:00 PM 13.09 55.562 0.156 8.1 3.48 11.46
4/7/2021 3:45:00 PM 13.21 55.778 0.156 8.09 4.12 11.39
4/7/2021 4:00:00 PM 13.28 55.904 0.156 8.07 3.73 11.34
4/7/2021 4:15:00 PM 13.32 55.976 0.156 8.05 3.7 11.3
4/7/2021 4:30:00 PM 13.35 56.03 0.156 8.04 3.62 11.25
4/7/2021 4:45:00 PM 13.35 56.03 0.156 8.01 3.25 11.19
4/7/2021 5:00:00 PM 13.31 55.958 0.156 7.96 3.32 11.11
4/7/2021 5:15:00 PM 13.24 55.832 0.157 7.9 3.29 11.04
4/7/2021 5:30:00 PM 13.16 55.688 0.157 7.83 3.4 10.98
4/7/2021 5:45:00 PM 13.09 55.562 0.157 7.77 3.27 10.91
4/7/2021 6:00:00 PM 13.02 55.436 0.157 7.71 4.12 10.85
4/7/2021 6:15:00 PM 12.94 55.292 0.157 7.64 3.84 10.77
4/7/2021 6:30:00 PM 12.86 55.148 0.157 7.57 3.35 10.7
4/7/2021 6:45:00 PM 12.78 55.004 0.157 7.49 3.31 10.59
4/7/2021 7:00:00 PM 12.71 54.878 0.158 7.42 3.31 10.49
4/7/2021 7:15:00 PM 12.65 54.77 0.158 7.36 3.33 10.4
4/7/2021 7:30:00 PM 12.59 54.662 0.158 7.3 3.26 10.31
4/7/2021 7:45:00 PM 12.53 54.554 0.158 7.26 3.41 10.21
4/7/2021 8:00:00 PM 12.45 54.41 0.158 7.2 3.43 10.12
4/7/2021 8:15:00 PM 12.37 54.266 0.159 7.16 3.44 10.03
4/7/2021 8:30:00 PM 12.29 54.122 0.159 7.12 3.37 9.97
4/7/2021 8:45:00 PM 12.21 53.978 0.159 7.09 3.45 9.93
4/7/2021 9:00:00 PM 12.14 53.852 0.159 7.06 3.45 9.9
4/7/2021 9:15:00 PM 12.05 53.69 0.159 7.05 3.37 9.89
4/7/2021 9:30:00 PM 11.96 53.528 0.159 7.03 3.39 9.88
4/7/2021 9:45:00 PM 11.86 53.348 0.159 7.01 3.37 9.89
4/7/2021 10:00:00 PM 11.76 53.168 0.159 6.99 3.32 9.89
4/7/2021 10:15:00 PM 11.65 52.97 0.159 6.98 3.51 9.91
4/7/2021 10:30:00 PM 11.53 52.754 0.16 6.97 3.62 9.93
4/7/2021 10:45:00 PM 11.42 52.556 0.16 6.96 3.47 9.95
4/7/2021 11:00:00 PM 11.31 52.358 0.16 6.95 3.47 9.97
4/7/2021 11:15:00 PM 11.2 52.16 0.16 6.94 3.42 9.99
4/7/2021 11:30:00 PM 11.08 51.944 0.16 6.93 3.39 10.02
4/7/2021 11:45:00 PM 10.97 51.746 0.16 6.92 3.33 10.03
4/8/2021 12:00:00 AM 10.86 51.548 0.16 6.92 3.4 10.06
4/8/2021 12:15:00 AM 10.74 51.332 0.16 6.92 3.48 10.09
4/8/2021 12:30:00 AM 10.63 51.134 0.16 6.92 3.57 10.11
4/8/2021 12:45:00 AM 10.52 50.936 0.16 6.9 3.57 10.14
4/8/2021 1:00:00 AM 10.41 50.738 0.16 6.91 3.56 10.16
4/8/2021 1:15:00 AM 10.3 50.54 0.16 6.91 3.38 10.19
4/8/2021 1:30:00 AM 10.2 50.36 0.16 6.92 3.58 10.22
4/8/2021 1:45:00 AM 10.1 50.18 0.16 6.91 3.51 10.24
4/8/2021 2:00:00 AM 10 50 0.16 6.91 3.45 10.26
4/8/2021 2:15:00 AM 9.9 49.82 0.16 6.91 3.45 10.28
4/8/2021 2:30:00 AM 9.81 49.658 0.16 6.9 3.44 10.31
4/8/2021 2:45:00 AM 9.72 49.496 0.16 6.92 3.53 10.33
4/8/2021 3:00:00 AM 9.64 49.352 0.16 6.91 3.49 10.35
4/8/2021 3:15:00 AM 9.56 49.208 0.161 6.92 3.56 10.37
4/8/2021 3:30:00 AM 9.48 49.064 0.161 6.92 3.5 10.39
4/8/2021 3:45:00 AM 9.4 48.92 0.161 6.92 3.57 10.42
4/8/2021 4:00:00 AM 9.33 48.794 0.161 6.92 3.65 10.44
4/8/2021 4:15:00 AM 9.25 48.65 0.161 6.92 3.59 10.45
4/8/2021 4:30:00 AM 9.17 48.506 0.161 6.92 3.67 10.48
4/8/2021 4:45:00 AM 9.1 48.38 0.161 6.93 3.68 10.5
4/8/2021 5:00:00 AM 9.03 48.254 0.161 6.93 3.7 10.52
4/8/2021 5:15:00 AM 8.97 48.146 0.161 6.93 3.74 10.53
4/8/2021 5:30:00 AM 8.9 48.02 0.161 6.93 3.71 10.56
4/8/2021 5:45:00 AM 8.83 47.894 0.161 6.93 3.67 10.58
4/8/2021 6:00:00 AM 8.77 47.786 0.161 6.94 3.75 10.6
4/8/2021 6:15:00 AM 8.7 47.66 0.161 6.93 3.65 10.62
4/8/2021 6:30:00 AM 8.63 47.534 0.161 6.94 3.81 10.64
4/8/2021 6:45:00 AM 8.57 47.426 0.161 6.94 3.71 10.67
4/8/2021 7:00:00 AM 8.51 47.318 0.161 6.94 3.75 10.73
4/8/2021 7:15:00 AM 8.46 47.228 0.161 6.96 3.72 10.82
4/8/2021 7:30:00 AM 8.42 47.156 0.161 6.98 3.72 10.95
4/8/2021 7:45:00 AM 8.39 47.102 0.161 7.02 3.86 11.09
4/8/2021 8:00:00 AM 8.38 47.084 0.16 7.05 3.82 11.24
4/8/2021 8:15:00 AM 8.4 47.12 0.16 7.09 3.9 11.39
4/8/2021 8:30:00 AM 8.45 47.21 0.16 7.14 4.04 11.53
4/8/2021 8:45:00 AM 8.53 47.354 0.16 7.19 3.94 11.65
4/8/2021 9:00:00 AM 8.64 47.552 0.16 7.24 3.98 11.77
4/8/2021 9:15:00 AM 8.78 47.804 0.159 7.3 4 11.86
4/8/2021 9:30:00 AM 8.96 48.128 0.159 7.37 3.79 11.93
4/8/2021 9:45:00 AM 9.12 48.416 0.159 7.43 3.85 11.98
4/8/2021 10:00:00 AM 9.32 48.776 0.159 7.5 3.64 12.01
4/8/2021 10:15:00 AM 9.53 49.154 0.159 7.55 3.75 12.04
4/8/2021 10:30:00 AM 9.77 49.586 0.159 7.61 3.71 12.04
4/8/2021 10:45:00 AM 10.06 50.108 0.159 7.66 3.84 12.05
4/8/2021 11:00:00 AM 10.32 50.576 0.159 7.72 3.74 12.04
4/8/2021 11:15:00 AM 10.61 51.098 0.159 7.76 3.71 12.02
4/8/2021 11:30:00 AM 10.94 51.692 0.159 7.81 3.83 11.99
4/8/2021 11:45:00 AM 11.3 52.34 0.159 7.86 3.7 11.95
4/8/2021 12:00:00 PM 11.67 53.006 0.159 7.91 3.67 11.9
4/8/2021 12:15:00 PM 12.03 53.654 0.159 7.95 3.66 11.85
4/8/2021 12:30:00 PM 12.37 54.266 0.159 8 3.49 11.79
4/8/2021 12:45:00 PM 12.69 54.842 0.159 8.03 3.4 11.73
4/8/2021 1:00:00 PM 12.98 55.364 0.159 8.06 3.48 11.67
4/8/2021 1:15:00 PM 13.24 55.832 0.159 8.08 3.39 11.62
4/8/2021 1:30:00 PM 13.49 56.282 0.159 8.11 3.46 11.57
4/8/2021 1:45:00 PM 13.7 56.66 0.159 8.11 3.32 11.5
4/8/2021 2:00:00 PM 13.88 56.984 0.159 8.13 3.39 11.47
4/8/2021 2:15:00 PM 14.05 57.29 0.159 8.15 3.3 11.42
4/8/2021 2:30:00 PM 14.17 57.506 0.159 8.16 3.24 11.37
4/8/2021 2:45:00 PM 14.27 57.686 0.159 8.15 3.37 11.32
4/8/2021 3:00:00 PM 14.34 57.812 0.159 8.16 3.41 11.27
4/8/2021 3:15:00 PM 14.39 57.902 0.159 8.15 3.41 11.23
4/8/2021 3:30:00 PM 14.41 57.938 0.159 8.13 3.33 11.2
4/8/2021 3:45:00 PM 14.4 57.92 0.159 8.11 3.4 11.15
4/8/2021 4:00:00 PM 14.37 57.866 0.159 8.08 3.38 11.09
4/8/2021 4:15:00 PM 14.32 57.776 0.159 8.05 3.47 11.05
4/8/2021 4:30:00 PM 14.28 57.704 0.159 8.02 3.48 11
4/8/2021 4:45:00 PM 14.21 57.578 0.159 7.98 3.45 10.96
4/8/2021 5:00:00 PM 14.14 57.452 0.159 7.94 3.36 10.92
4/8/2021 5:15:00 PM 14.06 57.308 0.159 7.9 3.37 10.87
4/8/2021 5:30:00 PM 13.98 57.164 0.159 7.85 3.46 10.82
4/8/2021 5:45:00 PM 13.91 57.038 0.159 7.8 3.37 10.77
4/8/2021 6:00:00 PM 13.83 56.894 0.16 7.75 3.37 10.72
4/8/2021 6:15:00 PM 13.76 56.768 0.16 7.7 3.33 10.65
4/8/2021 6:30:00 PM 13.68 56.624 0.16 7.62 3.38 10.56
4/8/2021 6:45:00 PM 13.59 56.462 0.16 7.55 3.21 10.46
4/8/2021 7:00:00 PM 13.51 56.318 0.16 7.48 4.17 10.36
4/8/2021 7:15:00 PM 13.46 56.228 0.16 7.43 3.24 10.28
4/8/2021 7:30:00 PM 13.4 56.12 0.161 7.37 3.33 10.18
4/8/2021 7:45:00 PM 13.34 56.012 0.161 7.32 3.22 10.06
4/8/2021 8:00:00 PM 13.27 55.886 0.161 7.26 3.32 9.95
4/8/2021 8:15:00 PM 13.21 55.778 0.161 7.21 3.35 9.84
4/8/2021 8:30:00 PM 13.14 55.652 0.161 7.17 3.36 9.77
4/8/2021 8:45:00 PM 13.08 55.544 0.161 7.14 3.44 9.7
4/8/2021 9:00:00 PM 13.01 55.418 0.162 7.12 3.34 9.67
4/8/2021 9:15:00 PM 12.95 55.31 0.162 7.09 3.33 9.65
4/8/2021 9:30:00 PM 12.87 55.166 0.162 7.08 3.31 9.64
4/8/2021 9:45:00 PM 12.8 55.04 0.162 7.07 3.35 9.63
4/8/2021 10:00:00 PM 12.72 54.896 0.162 7.06 3.22 9.63
4/8/2021 10:15:00 PM 12.64 54.752 0.162 7.05 3.43 9.64
4/8/2021 10:30:00 PM 12.56 54.608 0.162 7.04 3.31 9.65
4/8/2021 10:45:00 PM 12.48 54.464 0.162 7.03 3.36 9.66
4/8/2021 11:00:00 PM 12.4 54.32 0.162 7.02 3.33 9.67
4/8/2021 11:15:00 PM 12.32 54.176 0.162 7.02 3.25 9.68
4/8/2021 11:30:00 PM 12.23 54.014 0.162 7.01 3.43 9.7
4/8/2021 11:45:00 PM 12.15 53.87 0.162 7.01 3.39 9.72
4/9/2021 12:00:00 AM 12.07 53.726 0.162 7.01 3.42 9.73
4/9/2021 12:15:00 AM 11.98 53.564 0.162 7.01 3.33 9.75
4/9/2021 12:30:00 AM 11.89 53.402 0.162 7.01 3.51 9.77
4/9/2021 12:45:00 AM 11.81 53.258 0.162 7.01 3.39 9.79
4/9/2021 1:00:00 AM 11.73 53.114 0.163 7.01 3.38 9.8
4/9/2021 1:15:00 AM 11.65 52.97 0.162 7 3.37 9.83
4/9/2021 1:30:00 AM 11.57 52.826 0.163 7 3.53 9.85
4/9/2021 1:45:00 AM 11.49 52.682 0.163 7 3.33 9.86
4/9/2021 2:00:00 AM 11.42 52.556 0.163 7 3.4 9.88
4/9/2021 2:15:00 AM 11.35 52.43 0.163 7 3.54 9.9
4/9/2021 2:30:00 AM 11.28 52.304 0.163 7 3.41 9.92
4/9/2021 2:45:00 AM 11.22 52.196 0.163 6.99 3.41 9.93
4/9/2021 3:00:00 AM 11.16 52.088 0.163 7 3.49 9.95
4/9/2021 3:15:00 AM 11.1 51.98 0.163 7 3.39 9.97
4/9/2021 3:30:00 AM 11.04 51.872 0.163 7 3.32 9.97
4/9/2021 3:45:00 AM 10.99 51.782 0.163 7 3.55 9.99
4/9/2021 4:00:00 AM 10.94 51.692 0.163 7 3.44 10.01
4/9/2021 4:15:00 AM 10.9 51.62 0.163 7.01 3.32 10.02
4/9/2021 4:30:00 AM 10.85 51.53 0.163 7.01 3.28 10.02
4/9/2021 4:45:00 AM 10.83 51.494 0.163 7.02 3.35 10.03
4/9/2021 5:00:00 AM 10.81 51.458 0.163 7.02 3.35 10.04
4/9/2021 5:15:00 AM 10.8 51.44 0.163 7.02 3.41 10.05
4/9/2021 5:30:00 AM 10.79 51.422 0.163 7.04 3.44 10.05
4/9/2021 5:45:00 AM 10.76 51.368 0.164 7.04 3.45 10.06
4/9/2021 6:00:00 AM 10.73 51.314 0.164 7.04 3.55 10.06
4/9/2021 6:15:00 AM 10.7 51.26 0.164 7.05 3.41 10.07
4/9/2021 6:30:00 AM 10.65 51.17 0.164 7.05 3.35 10.08
4/9/2021 6:45:00 AM 10.61 51.098 0.164 7.05 3.33 10.1
4/9/2021 7:00:00 AM 10.58 51.044 0.164 7.07 3.36 10.15
4/9/2021 7:15:00 AM 10.55 50.99 0.164 7.08 3.36 10.25
4/9/2021 7:30:00 AM 10.54 50.972 0.164 7.12 3.34 10.38
4/9/2021 7:45:00 AM 10.55 50.99 0.163 7.15 3.32 10.58
4/9/2021 8:00:00 AM 10.57 51.026 0.163 7.2 3.33 10.76
4/9/2021 8:15:00 AM 10.61 51.098 0.163 7.26 3.42 10.93
4/9/2021 8:30:00 AM 10.68 51.224 0.163 7.32 3.36 11.08
4/9/2021 8:45:00 AM 10.7 51.26 0.163 7.36 3.37 11.17
4/9/2021 9:00:00 AM 10.76 51.368 0.163 7.42 3.34 11.28
4/9/2021 9:15:00 AM 10.83 51.494 0.163 7.47 3.29 11.32
4/9/2021 9:30:00 AM 10.88 51.584 0.162 7.51 3.28 11.37
4/9/2021 9:45:00 AM 10.94 51.692 0.162 7.57 3.38 11.41
4/9/2021 10:00:00 AM 10.95 51.71 0.163 7.59 3.36 11.37
4/9/2021 10:15:00 AM 10.95 51.71 0.163 7.59 3.31 11.34
4/9/2021 10:30:00 AM 10.94 51.692 0.163 7.58 3.32 11.3
4/9/2021 10:45:00 AM 10.92 51.656 0.163 7.57 3.28 11.25
4/9/2021 11:00:00 AM 10.92 51.656 0.163 7.57 3.49 11.24
4/9/2021 11:15:00 AM 10.92 51.656 0.163 7.58 3.43 11.27
4/9/2021 11:30:00 AM 10.93 51.674 0.163 7.59 3.44 11.31
4/9/2021 11:45:00 AM 10.97 51.746 0.163 7.63 3.32 11.38
4/9/2021 12:00:00 PM 10.99 51.782 0.162 7.67 3.41 11.43
4/9/2021 12:15:00 PM 11.04 51.872 0.162 7.71 3.45 11.49
4/9/2021 12:30:00 PM 11.09 51.962 0.162 7.76 3.36 11.54
4/9/2021 12:45:00 PM 11.22 52.196 0.162 7.82 3.29 11.58
4/9/2021 1:00:00 PM 11.47 52.646 0.162 7.91 3.35 11.63
4/9/2021 1:15:00 PM 11.72 53.096 0.162 7.99 3.25 11.66
4/9/2021 1:30:00 PM 11.96 53.528 0.162 8.07 3.43 11.68
4/9/2021 1:45:00 PM 12.17 53.906 0.162 8.14 3.32 11.67
4/9/2021 2:00:00 PM 12.29 54.122 0.162 8.19 3.22 11.65
4/9/2021 2:15:00 PM 12.28 54.104 0.162 8.19 3.29 11.6
4/9/2021 2:30:00 PM 12.29 54.122 0.162 8.19 3.34 11.57
4/9/2021 2:45:00 PM 12.28 54.104 0.162 8.18 3.21 11.55
4/9/2021 3:00:00 PM 12.29 54.122 0.162 8.17 3.25 11.55
4/9/2021 3:15:00 PM 12.32 54.176 0.162 8.17 3.31 11.55
4/9/2021 3:30:00 PM 12.36 54.248 0.162 8.19 3.27 11.56
4/9/2021 3:45:00 PM 12.44 54.392 0.162 8.21 3.24 11.58
4/9/2021 4:00:00 PM 12.45 54.41 0.162 8.22 3.23 11.57
4/9/2021 4:15:00 PM 12.42 54.356 0.162 8.21 3.22 11.55
4/9/2021 4:30:00 PM 12.39 54.302 0.162 8.21 3.34 11.53
4/9/2021 4:45:00 PM 12.36 54.248 0.162 8.19 3.14 11.5
4/9/2021 5:00:00 PM 12.3 54.14 0.162 8.16 3.28 11.45
4/9/2021 5:15:00 PM 12.24 54.032 0.162 8.1 3.43 11.38
4/9/2021 5:30:00 PM 12.2 53.96 0.162 8.05 3.32 11.33
4/9/2021 5:45:00 PM 12.22 53.996 0.162 8.01 3.38 11.3
4/9/2021 6:00:00 PM 12.24 54.032 0.162 7.98 3.23 11.27
4/9/2021 6:15:00 PM 12.24 54.032 0.162 7.96 3.25 11.25
4/9/2021 6:30:00 PM 12.19 53.942 0.162 7.93 3.35 11.23
4/9/2021 6:45:00 PM 12.11 53.798 0.162 7.88 3.75 11.17
4/9/2021 7:00:00 PM 12.06 53.708 0.162 7.8 3.4 11.06
4/9/2021 7:15:00 PM 12.02 53.636 0.162 7.7 3.22 10.9
4/9/2021 7:30:00 PM 12 53.6 0.163 7.59 3.2 10.69
4/9/2021 7:45:00 PM 11.96 53.528 0.163 7.49 3.29 10.5
4/9/2021 8:00:00 PM 11.9 53.42 0.163 7.42 3.24 10.35
4/9/2021 8:15:00 PM 11.84 53.312 0.164 7.36 3.39 10.23
4/9/2021 8:30:00 PM 11.8 53.24 0.164 7.32 3.21 10.15
4/9/2021 8:45:00 PM 11.76 53.168 0.164 7.28 3.45 10.09
4/9/2021 9:00:00 PM 11.73 53.114 0.164 7.25 3.38 10.05
4/9/2021 9:15:00 PM 11.7 53.06 0.164 7.24 3.31 10.02
4/9/2021 9:30:00 PM 11.67 53.006 0.164 7.22 3.39 10
4/9/2021 9:45:00 PM 11.64 52.952 0.164 7.21 3.4 9.99
4/9/2021 10:00:00 PM 11.62 52.916 0.164 7.2 3.41 9.98
4/9/2021 10:15:00 PM 11.59 52.862 0.164 7.19 3.54 9.97
4/9/2021 10:30:00 PM 11.56 52.808 0.164 7.19 3.34 9.97
4/9/2021 10:45:00 PM 11.54 52.772 0.164 7.18 3.44 9.97
4/9/2021 11:00:00 PM 11.51 52.718 0.164 7.18 3.34 9.96
4/9/2021 11:15:00 PM 11.49 52.682 0.165 7.18 3.4 9.96
4/9/2021 11:30:00 PM 11.47 52.646 0.165 7.17 3.44 9.96
4/9/2021 11:45:00 PM 11.44 52.592 0.165 7.16 3.28 9.96
4/10/2021 12:00:00 AM 11.42 52.556 0.165 7.16 3.36 9.96
4/10/2021 12:15:00 AM 11.4 52.52 0.165 7.16 3.19 9.96
4/10/2021 12:30:00 AM 11.37 52.466 0.165 7.16 3.34 9.96
4/10/2021 12:45:00 AM 11.35 52.43 0.165 7.16 3.26 9.96
4/10/2021 1:00:00 AM 11.32 52.376 0.165 7.16 3.27 9.97
4/10/2021 1:15:00 AM 11.29 52.322 0.165 7.16 3.36 9.97
4/10/2021 1:30:00 AM 11.27 52.286 0.165 7.15 3.44 9.98
4/10/2021 1:45:00 AM 11.24 52.232 0.165 7.15 3.3 9.98
4/10/2021 2:00:00 AM 11.21 52.178 0.165 7.15 3.43 9.99
4/10/2021 2:15:00 AM 11.19 52.142 0.165 7.15 3.3 9.99
4/10/2021 2:30:00 AM 11.16 52.088 0.165 7.15 3.25 10
4/10/2021 2:45:00 AM 11.14 52.052 0.165 7.15 3.28 10
4/10/2021 3:00:00 AM 11.11 51.998 0.165 7.14 3.25 10
4/10/2021 3:15:00 AM 11.09 51.962 0.166 7.14 3.31 10.01
4/10/2021 3:30:00 AM 11.06 51.908 0.166 7.13 3.28 10.01
4/10/2021 3:45:00 AM 11.04 51.872 0.166 7.13 3.39 10.01
4/10/2021 4:00:00 AM 11.02 51.836 0.166 7.13 3.3 10.02
4/10/2021 4:15:00 AM 11 51.8 0.166 7.13 3.32 10.02
4/10/2021 4:30:00 AM 10.98 51.764 0.166 7.13 3.3 10.02
4/10/2021 4:45:00 AM 10.96 51.728 0.166 7.13 3.37 10.02
4/10/2021 5:00:00 AM 10.95 51.71 0.166 7.13 3.21 10.02
4/10/2021 5:15:00 AM 10.93 51.674 0.166 7.12 3.2 10.02
4/10/2021 5:30:00 AM 10.92 51.656 0.166 7.14 3.44 10.03
4/10/2021 5:45:00 AM 10.9 51.62 0.166 7.14 3.31 10.03
4/10/2021 6:00:00 AM 10.89 51.602 0.166 7.14 3.22 10.03
4/10/2021 6:15:00 AM 10.88 51.584 0.166 7.14 3.38 10.04
4/10/2021 6:30:00 AM 10.87 51.566 0.166 7.13 3.23 10.04
4/10/2021 6:45:00 AM 10.86 51.548 0.166 7.13 3.33 10.05
4/10/2021 7:00:00 AM 10.85 51.53 0.166 7.14 3.25 10.07
4/10/2021 7:15:00 AM 10.85 51.53 0.166 7.15 3.29 10.12
4/10/2021 7:30:00 AM 10.85 51.53 0.166 7.17 3.34 10.2
4/10/2021 7:45:00 AM 10.87 51.566 0.166 7.2 3.25 10.32
4/10/2021 8:00:00 AM 10.88 51.584 0.166 7.23 3.28 10.44
4/10/2021 8:15:00 AM 10.91 51.638 0.166 7.26 3.23 10.58
4/10/2021 8:30:00 AM 10.94 51.692 0.166 7.3 3.24 10.72
4/10/2021 8:45:00 AM 10.98 51.764 0.166 7.35 3.16 10.84
4/10/2021 9:00:00 AM 11.01 51.818 0.166 7.39 3.32 10.94
4/10/2021 9:15:00 AM 11.06 51.908 0.166 7.43 3.28 11.04
4/10/2021 9:30:00 AM 11.12 52.016 0.165 7.48 3.2 11.14
4/10/2021 9:45:00 AM 11.21 52.178 0.165 7.54 3.12 11.24
4/10/2021 10:00:00 AM 11.31 52.358 0.165 7.61 3.23 11.34
4/10/2021 10:15:00 AM 11.46 52.628 0.165 7.7 3.17 11.44
4/10/2021 10:30:00 AM 11.63 52.934 0.165 7.78 3.25 11.51
4/10/2021 10:45:00 AM 11.86 53.348 0.165 7.87 3.19 11.57
4/10/2021 11:00:00 AM 12.14 53.852 0.165 7.97 3.23 11.6
4/10/2021 11:15:00 AM 12.44 54.392 0.165 8.07 3.26 11.61
4/10/2021 11:30:00 AM 12.8 55.04 0.165 8.15 3.32 11.6
4/10/2021 11:45:00 AM 13.15 55.67 0.165 8.22 3.22 11.58
4/10/2021 12:00:00 PM 13.53 56.354 0.165 8.28 3.27 11.54
4/10/2021 12:15:00 PM 13.9 57.02 0.165 8.33 3.26 11.49
4/10/2021 12:30:00 PM 14.25 57.65 0.165 8.38 3.24 11.43
4/10/2021 12:45:00 PM 14.54 58.172 0.165 8.42 3.22 11.39
4/10/2021 1:00:00 PM 14.76 58.568 0.165 8.45 3.18 11.35
4/10/2021 1:15:00 PM 14.96 58.928 0.165 8.49 3.11 11.32
4/10/2021 1:30:00 PM 15.1 59.18 0.165 8.52 3.17 11.3
4/10/2021 1:45:00 PM 15.21 59.378 0.165 8.54 3.03 11.27
4/10/2021 2:00:00 PM 15.31 59.558 0.165 8.56 3.08 11.25
4/10/2021 2:15:00 PM 15.42 59.756 0.165 8.58 3.03 11.22
4/10/2021 2:30:00 PM 15.52 59.936 0.165 8.59 3.01 11.2
4/10/2021 2:45:00 PM 15.57 60.026 0.165 8.61 3.02 11.19
4/10/2021 3:00:00 PM 15.61 60.098 0.165 8.61 2.99 11.16
4/10/2021 3:15:00 PM 15.62 60.116 0.165 8.61 3.03 11.11
4/10/2021 3:30:00 PM 15.63 60.134 0.165 8.61 3.01 11.08
4/10/2021 3:45:00 PM 15.64 60.152 0.165 8.61 2.94 11.05
4/10/2021 4:00:00 PM 15.67 60.206 0.165 8.61 3.03 11.05
4/10/2021 4:15:00 PM 15.66 60.188 0.165 8.6 3.03 11.01
4/10/2021 4:30:00 PM 15.63 60.134 0.165 8.59 2.95 10.97
4/10/2021 4:45:00 PM 15.6 60.08 0.165 8.58 2.96 10.97
4/10/2021 5:00:00 PM 15.54 59.972 0.165 8.55 2.99 10.92
4/10/2021 5:15:00 PM 15.49 59.882 0.165 8.52 2.95 10.87
4/10/2021 5:30:00 PM 15.44 59.792 0.165 8.5 3 10.84
4/10/2021 5:45:00 PM 15.36 59.648 0.165 8.46 2.94 10.78
4/10/2021 6:00:00 PM 15.27 59.486 0.165 8.41 3.03 10.73
4/10/2021 6:15:00 PM 15.17 59.306 0.165 8.34 3 10.66
4/10/2021 6:30:00 PM 15.08 59.144 0.165 8.26 3.01 10.58
4/10/2021 6:45:00 PM 14.99 58.982 0.165 8.16 2.96 10.47
4/10/2021 7:00:00 PM 14.9 58.82 0.165 8.04 3.03 10.36
4/10/2021 7:15:00 PM 14.81 58.658 0.165 7.91 2.97 10.22
4/10/2021 7:30:00 PM 14.71 58.478 0.166 7.78 2.96 10.05
4/10/2021 7:45:00 PM 14.61 58.298 0.166 7.66 3.07 9.88
4/10/2021 8:00:00 PM 14.51 58.118 0.166 7.55 2.97 9.71
4/10/2021 8:15:00 PM 14.42 57.956 0.166 7.46 3.06 9.56
4/10/2021 8:30:00 PM 14.32 57.776 0.167 7.4 3.01 9.44
4/10/2021 8:45:00 PM 14.23 57.614 0.167 7.34 3.11 9.36
4/10/2021 9:00:00 PM 14.15 57.47 0.167 7.31 3.03 9.31
4/10/2021 9:15:00 PM 14.07 57.326 0.167 7.28 3.08 9.27
4/10/2021 9:30:00 PM 13.99 57.182 0.167 7.26 3.24 9.25
4/10/2021 9:45:00 PM 13.92 57.056 0.167 7.25 3.17 9.23
4/10/2021 10:00:00 PM 13.86 56.948 0.167 7.24 3.12 9.22
4/10/2021 10:15:00 PM 13.8 56.84 0.167 7.23 3.07 9.22
4/10/2021 10:30:00 PM 13.74 56.732 0.167 7.22 3.04 9.22
4/10/2021 10:45:00 PM 13.69 56.642 0.168 7.22 3.15 9.22
4/10/2021 11:00:00 PM 13.63 56.534 0.168 7.21 3.18 9.22
4/10/2021 11:15:00 PM 13.57 56.426 0.168 7.2 3.15 9.23
4/10/2021 11:30:00 PM 13.5 56.3 0.168 7.2 3.02 9.23
4/10/2021 11:45:00 PM 13.45 56.21 0.168 7.18 3.12 9.24
4/11/2021 12:00:00 AM 13.39 56.102 0.168 7.19 3.3 9.24
4/11/2021 12:15:00 AM 13.33 55.994 0.168 7.19 3.07 9.26
4/11/2021 12:30:00 AM 13.27 55.886 0.168 7.18 3.03 9.27
4/11/2021 12:45:00 AM 13.21 55.778 0.168 7.18 3 9.29
4/11/2021 1:00:00 AM 13.16 55.688 0.168 7.18 3.09 9.3
4/11/2021 1:15:00 AM 13.1 55.58 0.168 7.18 3.01 9.3
4/11/2021 1:30:00 AM 13.04 55.472 0.168 7.17 3.11 9.31
4/11/2021 1:45:00 AM 12.99 55.382 0.168 7.17 3.03 9.32
4/11/2021 2:00:00 AM 12.93 55.274 0.168 7.16 3.15 9.34
4/11/2021 2:15:00 AM 12.87 55.166 0.168 7.16 3.07 9.35
4/11/2021 2:30:00 AM 12.82 55.076 0.168 7.17 3.05 9.37
4/11/2021 2:45:00 AM 12.77 54.986 0.168 7.17 3.05 9.37
4/11/2021 3:00:00 AM 12.72 54.896 0.168 7.16 3.15 9.38
4/11/2021 3:15:00 AM 12.68 54.824 0.169 7.17 3.07 9.39
4/11/2021 3:30:00 AM 12.63 54.734 0.169 7.17 3 9.41
4/11/2021 3:45:00 AM 12.57 54.626 0.169 7.16 3.18 9.42
4/11/2021 4:00:00 AM 12.53 54.554 0.169 7.16 3.05 9.42
4/11/2021 4:15:00 AM 12.48 54.464 0.169 7.16 3.2 9.43
4/11/2021 4:30:00 AM 12.45 54.41 0.169 7.17 3.14 9.44
4/11/2021 4:45:00 AM 12.41 54.338 0.169 7.17 3.05 9.45
4/11/2021 5:00:00 AM 12.38 54.284 0.169 7.17 3.15 9.46
4/11/2021 5:15:00 AM 12.35 54.23 0.169 7.17 3.14 9.46
4/11/2021 5:30:00 AM 12.32 54.176 0.169 7.16 3.08 9.47
4/11/2021 5:45:00 AM 12.29 54.122 0.169 7.17 3.1 9.48
4/11/2021 6:00:00 AM 12.27 54.086 0.169 7.18 3.08 9.49
4/11/2021 6:15:00 AM 12.24 54.032 0.169 7.18 3.21 9.49
4/11/2021 6:30:00 AM 12.22 53.996 0.169 7.18 3.21 9.5
4/11/2021 6:45:00 AM 12.2 53.96 0.169 7.18 3.18 9.5
4/11/2021 7:00:00 AM 12.19 53.942 0.169 7.19 3.13 9.52
4/11/2021 7:15:00 AM 12.18 53.924 0.169 7.19 3.11 9.55
4/11/2021 7:30:00 AM 12.17 53.906 0.169 7.21 3.03 9.59
4/11/2021 7:45:00 AM 12.17 53.906 0.169 7.23 2.97 9.7
4/11/2021 8:00:00 AM 12.18 53.924 0.168 7.27 3.13 9.83
4/11/2021 8:15:00 AM 12.18 53.924 0.168 7.29 2.99 9.93
4/11/2021 8:30:00 AM 12.19 53.942 0.167 7.32 2.87 10.05
4/11/2021 8:45:00 AM 12.2 53.96 0.167 7.34 3.07 10.12
4/11/2021 9:00:00 AM 12.2 53.96 0.166 7.36 2.85 10.18
4/11/2021 9:15:00 AM 12.21 53.978 0.166 7.39 2.93 10.25
4/11/2021 9:30:00 AM 12.23 54.014 0.166 7.41 3.5 10.33
4/11/2021 9:45:00 AM 12.25 54.05 0.166 7.45 3.02 10.42
4/11/2021 10:00:00 AM 12.27 54.086 0.166 7.48 3.09 10.5
4/11/2021 10:15:00 AM 12.3 54.14 0.165 7.51 4.1 10.57
4/11/2021 10:30:00 AM 12.33 54.194 0.165 7.55 4.18 10.65
4/11/2021 10:45:00 AM 12.37 54.266 0.165 7.59 4.09 10.71
4/11/2021 11:00:00 AM 12.41 54.338 0.165 7.64 4.15 10.79
4/11/2021 11:15:00 AM 12.45 54.41 0.165 7.69 4 10.86
4/11/2021 11:30:00 AM 12.5 54.5 0.165 7.74 3.93 10.92
4/11/2021 11:45:00 AM 12.57 54.626 0.165 7.8 4.06 10.99
4/11/2021 12:00:00 PM 12.66 54.788 0.165 7.87 4.05 11.05
4/11/2021 12:15:00 PM 12.77 54.986 0.164 7.94 4.42 11.11
4/11/2021 12:30:00 PM 12.98 55.364 0.164 8.05 4.12 11.18
4/11/2021 12:45:00 PM 13.11 55.598 0.164 8.11 4.38 11.19
4/11/2021 1:00:00 PM 13.2 55.76 0.164 8.16 4.39 11.21
4/11/2021 1:15:00 PM 13.23 55.814 0.165 8.17 4.43 11.16
4/11/2021 1:30:00 PM 13.24 55.832 0.165 8.17 4.31 11.12
4/11/2021 1:45:00 PM 13.3 55.94 0.166 8.17 4.49 11.09
4/11/2021 2:00:00 PM 13.32 55.976 0.167 8.15 4.08 11.02
4/11/2021 2:15:00 PM 13.34 56.012 0.167 8.14 4.37 10.98
4/11/2021 2:30:00 PM 13.32 55.976 0.167 8.11 5.02 10.94
4/11/2021 2:45:00 PM 13.29 55.922 0.167 8.05 4.75 10.87
4/11/2021 3:00:00 PM 13.27 55.886 0.166 8.01 5.13 10.8
4/11/2021 3:15:00 PM 13.25 55.85 0.166 7.93 4.83 10.72
4/11/2021 3:30:00 PM 13.24 55.832 0.166 7.88 5.79 10.67
4/11/2021 3:45:00 PM 13.23 55.814 0.167 7.83 7.22 10.65
4/11/2021 4:00:00 PM 13.22 55.796 0.169 7.82 7.85 10.65
4/11/2021 4:15:00 PM 13.24 55.832 0.173 7.82 7.03 10.66
4/11/2021 4:30:00 PM 13.26 55.868 0.176 7.82 7 10.68
4/11/2021 4:45:00 PM 13.28 55.904 0.175 7.84 5.96 10.69
4/11/2021 5:00:00 PM 13.28 55.904 0.173 7.82 6.3 10.66
4/11/2021 5:15:00 PM 13.27 55.886 0.17 7.77 6.34 10.56
4/11/2021 5:30:00 PM 13.26 55.868 0.169 7.72 7.22 10.45
4/11/2021 5:45:00 PM 13.24 55.832 0.168 7.64 4.99 10.34
4/11/2021 6:00:00 PM 13.22 55.796 0.167 7.6 6.48 10.25
4/11/2021 6:15:00 PM 13.2 55.76 0.166 7.56 5.81 10.17
4/11/2021 6:30:00 PM 13.16 55.688 0.165 7.5 7.17 10.08
4/11/2021 6:45:00 PM 13.12 55.616 0.165 7.45 8.25 10
4/11/2021 7:00:00 PM 13.06 55.508 0.165 7.4 9.48 9.95
4/11/2021 7:15:00 PM 13 55.4 0.164 7.36 17.36 9.9
4/11/2021 7:30:00 PM 12.92 55.256 0.164 7.31 34.8 9.86
4/11/2021 7:45:00 PM 12.86 55.148 0.162 7.24 29.64 9.79
4/11/2021 8:00:00 PM 12.83 55.094 0.157 7.2 29.54 9.76
4/11/2021 8:15:00 PM 12.76 54.968 0.155 7.17 31.15 9.76
4/11/2021 8:30:00 PM 12.67 54.806 0.155 7.15 39.1 9.77
4/11/2021 8:45:00 PM 12.57 54.626 0.155 7.11 58.19 9.79
4/11/2021 9:00:00 PM 12.39 54.302 0.156 7.08 66.04 9.82
4/11/2021 9:15:00 PM 12.18 53.924 0.154 7.04 75.56 9.87
4/11/2021 9:30:00 PM 11.98 53.564 0.149 6.96 89.88 9.92
4/11/2021 9:45:00 PM 11.81 53.258 0.146 6.91 120.51 9.96
4/11/2021 10:00:00 PM 11.7 53.06 0.148 6.9 124.37 9.99
4/11/2021 10:15:00 PM 11.59 52.862 0.151 6.88 277.86 10.01
4/11/2021 10:30:00 PM 11.52 52.736 0.152 6.88 194.03 10.02
4/11/2021 10:45:00 PM 11.47 52.646 0.152 6.88 197.55 10.04
4/11/2021 11:00:00 PM 11.44 52.592 0.15 6.88 311.69 10.05
4/11/2021 11:15:00 PM 11.41 52.538 0.147 6.89 226.12 10.06
4/11/2021 11:30:00 PM 11.39 52.502 0.143 6.89 239.23 10.07
4/11/2021 11:45:00 PM 11.35 52.43 0.14 6.89 264.12 10.09
4/12/2021 12:00:00 AM 11.3 52.34 0.137 6.89 227.72 10.11
4/12/2021 12:15:00 AM 11.24 52.232 0.134 6.88 221.24 10.13
4/12/2021 12:30:00 AM 11.17 52.106 0.13 6.88 275.29 10.16
4/12/2021 12:45:00 AM 11.11 51.998 0.127 6.88 188.29 10.17
4/12/2021 1:00:00 AM 11.05 51.89 0.124 6.88 213.21 10.19
4/12/2021 1:15:00 AM 10.98 51.764 0.121 6.87 180.31 10.21
4/12/2021 1:30:00 AM 10.92 51.656 0.119 6.86 187.37 10.23
4/12/2021 1:45:00 AM 10.86 51.548 0.117 6.85 185.93 10.25
4/12/2021 2:00:00 AM 10.81 51.458 0.115 6.84 154.41 10.27
4/12/2021 2:15:00 AM 10.77 51.386 0.114 6.85 157.62 10.28
4/12/2021 2:30:00 AM 10.74 51.332 0.113 6.84 163.67 10.29
4/12/2021 2:45:00 AM 10.7 51.26 0.112 6.84 145.57 10.29
4/12/2021 3:00:00 AM 10.67 51.206 0.111 6.84 124.4 10.3
4/12/2021 3:15:00 AM 10.64 51.152 0.11 6.84 102.46 10.31
4/12/2021 3:30:00 AM 10.6 51.08 0.11 6.84 89.09 10.31
4/12/2021 3:45:00 AM 10.57 51.026 0.11 6.84 101.73 10.32
4/12/2021 4:00:00 AM 10.54 50.972 0.109 6.84 79.24 10.33
4/12/2021 4:15:00 AM 10.51 50.918 0.11 6.85 94.72 10.34
4/12/2021 4:30:00 AM 10.47 50.846 0.11 6.84 71.29 10.35
4/12/2021 4:45:00 AM 10.44 50.792 0.11 6.86 82.42 10.35
4/12/2021 5:00:00 AM 10.4 50.72 0.11 6.85 69.82 10.36
4/12/2021 5:15:00 AM 10.36 50.648 0.111 6.86 74.31 10.38
4/12/2021 5:30:00 AM 10.33 50.594 0.111 6.85 69.49 10.38
4/12/2021 5:45:00 AM 10.29 50.522 0.111 6.86 53.05 10.39
4/12/2021 6:00:00 AM 10.26 50.468 0.112 6.86 44.5 10.39
4/12/2021 6:15:00 AM 10.22 50.396 0.112 6.87 57.29 10.4
4/12/2021 6:30:00 AM 10.19 50.342 0.112 6.87 53.81 10.41
4/12/2021 6:45:00 AM 10.16 50.288 0.113 6.87 56.16 10.42
4/12/2021 7:00:00 AM 10.13 50.234 0.113 6.87 54.58 10.42
4/12/2021 7:15:00 AM 10.1 50.18 0.113 6.87 45.78 10.43
4/12/2021 7:30:00 AM 10.08 50.144 0.113 6.88 49.43 10.44
4/12/2021 7:45:00 AM 10.06 50.108 0.114 6.88 44.96 10.45
4/12/2021 8:00:00 AM 10.03 50.054 0.114 6.88 79.33 10.47
4/12/2021 8:15:00 AM 10.01 50.018 0.114 6.88 59.47 10.47
4/12/2021 8:30:00 AM 9.98 49.964 0.114 6.89 35.06 10.48
4/12/2021 8:45:00 AM 9.96 49.928 0.114 6.88 32.28 10.49
4/12/2021 9:00:00 AM 9.93 49.874 0.115 6.89 43.96 10.5
4/12/2021 9:15:00 AM 9.91 49.838 0.115 6.89 37.34 10.52
4/12/2021 9:30:00 AM 9.88 49.784 0.115 6.89 50.04 10.53
4/12/2021 9:45:00 AM 9.87 49.766 0.115 6.91 38.67 10.54
4/12/2021 10:00:00 AM 9.85 49.73 0.116 6.91 32.05 10.55
4/12/2021 10:15:00 AM 9.83 49.694 0.116 6.91 26.38 10.57
4/12/2021 10:30:00 AM 9.83 49.694 0.116 6.91 24.81 10.58
4/12/2021 10:45:00 AM 9.82 49.676 0.117 6.92 30.43 10.6
4/12/2021 11:00:00 AM 9.82 49.676 0.117 6.92 21.2 10.62
4/12/2021 11:15:00 AM 9.82 49.676 0.117 6.94 20.21 10.64
4/12/2021 11:30:00 AM 9.82 49.676 0.118 6.95 26.37 10.65
4/12/2021 11:45:00 AM 9.83 49.694 0.118 6.95 19.7 10.67
4/12/2021 12:00:00 PM 9.84 49.712 0.118 6.96 23.14 10.69
4/12/2021 12:15:00 PM 9.87 49.766 0.119 6.98 23.99 10.71
4/12/2021 12:30:00 PM 9.89 49.802 0.119 6.98 24.9 10.72
4/12/2021 12:45:00 PM 9.93 49.874 0.119 7 22.15 10.74
4/12/2021 1:00:00 PM 9.97 49.946 0.12 7 21.89 10.75
4/12/2021 1:15:00 PM 9.99 49.982 0.12 7.01 28.78 10.75
4/12/2021 1:30:00 PM 9.98 49.964 0.12 7.01 21.38 10.75
4/12/2021 1:45:00 PM 9.98 49.964 0.121 7.01 20.31 10.75
4/12/2021 2:00:00 PM 9.97 49.946 0.121 7.02 19.17 10.75
4/12/2021 2:15:00 PM 9.97 49.946 0.121 7.01 19.3 10.76
4/12/2021 2:30:00 PM 9.98 49.964 0.122 7.02 18.61 10.76
4/12/2021 2:45:00 PM 9.99 49.982 0.122 7.02 18.28 10.77
4/12/2021 3:00:00 PM 10.01 50.018 0.122 7.02 17.75 10.77
4/12/2021 3:15:00 PM 10.06 50.108 0.122 7.04 17.93 10.78
4/12/2021 3:30:00 PM 10.11 50.198 0.123 7.04 17.68 10.78
4/12/2021 3:45:00 PM 10.14 50.252 0.123 7.06 16.71 10.78
4/12/2021 4:00:00 PM 10.16 50.288 0.123 7.06 17.78 10.78
4/12/2021 4:15:00 PM 10.18 50.324 0.123 7.06 16.95 10.78
4/12/2021 4:30:00 PM 10.19 50.342 0.124 7.07 16.31 10.77
4/12/2021 4:45:00 PM 10.17 50.306 0.124 7.05 16.23 10.76
4/12/2021 5:00:00 PM 10.16 50.288 0.124 7.05 15.81 10.74
4/12/2021 5:15:00 PM 10.13 50.234 0.124 7.05 15.86 10.73
4/12/2021 5:30:00 PM 10.09 50.162 0.125 7.04 15.55 10.71
4/12/2021 5:45:00 PM 10.06 50.108 0.125 7.03 15.54 10.68
4/12/2021 6:00:00 PM 10.02 50.036 0.125 7.02 15.34 10.69
4/12/2021 6:15:00 PM 9.99 49.982 0.125 7.02 14.27 10.68
4/12/2021 6:30:00 PM 9.95 49.91 0.126 7.01 14.68 10.67
4/12/2021 6:45:00 PM 9.91 49.838 0.126 7.01 14.69 10.66
4/12/2021 7:00:00 PM 9.87 49.766 0.126 7 14.45 10.65
4/12/2021 7:15:00 PM 9.83 49.694 0.127 6.99 14.35 10.64
4/12/2021 7:30:00 PM 9.79 49.622 0.127 6.98 13.92 10.64
4/12/2021 7:45:00 PM 9.75 49.55 0.127 6.97 13.46 10.64
4/12/2021 8:00:00 PM 9.72 49.496 0.127 6.97 13.46 10.63
4/12/2021 8:15:00 PM 9.68 49.424 0.127 6.97 13.83 10.63
4/12/2021 8:30:00 PM 9.64 49.352 0.128 6.97 13.27 10.63
4/12/2021 8:45:00 PM 9.6 49.28 0.128 6.96 13.58 10.64
4/12/2021 9:00:00 PM 9.56 49.208 0.128 6.95 13.18 10.65
4/12/2021 9:15:00 PM 9.52 49.136 0.128 6.95 13.03 10.66
4/12/2021 9:30:00 PM 9.49 49.082 0.128 6.95 12.83 10.66
4/12/2021 9:45:00 PM 9.46 49.028 0.128 6.95 13.05 10.67
4/12/2021 10:00:00 PM 9.42 48.956 0.128 6.96 12.88 10.68
4/12/2021 10:15:00 PM 9.39 48.902 0.128 6.95 12.64 10.69
4/12/2021 10:30:00 PM 9.36 48.848 0.129 6.95 12.51 10.69
4/12/2021 10:45:00 PM 9.33 48.794 0.129 6.95 12.42 10.7
4/12/2021 11:00:00 PM 9.3 48.74 0.129 6.94 12.35 10.71
4/12/2021 11:15:00 PM 9.27 48.686 0.129 6.95 12.33 10.72
4/12/2021 11:30:00 PM 9.24 48.632 0.129 6.95 12.35 10.73
4/12/2021 11:45:00 PM 9.2 48.56 0.129 6.96 12.14 10.74
4/13/2021 12:00:00 AM 9.17 48.506 0.129 6.95 12.72 10.75
4/13/2021 12:15:00 AM 9.14 48.452 0.13 6.93 12.73 10.76
4/13/2021 12:30:00 AM 9.11 48.398 0.13 6.95 11.62 10.77
4/13/2021 12:45:00 AM 9.09 48.362 0.13 6.95 12.64 10.78
4/13/2021 1:00:00 AM 9.07 48.326 0.131 6.95 11.59 10.78
4/13/2021 1:15:00 AM 9.04 48.272 0.131 6.95 11.55 10.79
4/13/2021 1:30:00 AM 9.02 48.236 0.131 6.96 11.54 10.8
4/13/2021 1:45:00 AM 9 48.2 0.131 6.94 10.93 10.8
4/13/2021 2:00:00 AM 8.97 48.146 0.131 6.96 10.62 10.81
4/13/2021 2:15:00 AM 8.95 48.11 0.131 6.96 10.75 10.82
4/13/2021 2:30:00 AM 8.92 48.056 0.131 6.95 10.39 10.83
4/13/2021 2:45:00 AM 8.9 48.02 0.131 6.94 10.97 10.83
4/13/2021 3:00:00 AM 8.87 47.966 0.131 6.96 10.92 10.83
4/13/2021 3:15:00 AM 8.85 47.93 0.131 6.95 10.46 10.84
4/13/2021 3:30:00 AM 8.83 47.894 0.131 6.95 10.54 10.85
4/13/2021 3:45:00 AM 8.81 47.858 0.131 6.96 10.59 10.86
4/13/2021 4:00:00 AM 8.78 47.804 0.131 6.95 10.53 10.86
4/13/2021 4:15:00 AM 8.76 47.768 0.131 6.95 10.76 10.87
4/13/2021 4:30:00 AM 8.74 47.732 0.131 6.95 10.23 10.88
4/13/2021 4:45:00 AM 8.72 47.696 0.131 6.96 10.56 10.89
4/13/2021 5:00:00 AM 8.71 47.678 0.131 6.95 10.34 10.89
4/13/2021 5:15:00 AM 8.69 47.642 0.131 6.95 10.5 10.9
4/13/2021 5:30:00 AM 8.67 47.606 0.131 6.95 10.13 10.91
4/13/2021 5:45:00 AM 8.65 47.57 0.131 6.96 10.36 10.91
4/13/2021 6:00:00 AM 8.63 47.534 0.131 6.96 10.07 10.92
4/13/2021 6:15:00 AM 8.61 47.498 0.131 6.96 9.69 10.92
4/13/2021 6:30:00 AM 8.59 47.462 0.131 6.96 10.12 10.93
4/13/2021 6:45:00 AM 8.57 47.426 0.131 6.96 10.19 10.95
4/13/2021 7:00:00 AM 8.56 47.408 0.131 6.96 10.19 10.98
4/13/2021 7:15:00 AM 8.54 47.372 0.131 6.97 10.95 11
4/13/2021 7:30:00 AM 8.53 47.354 0.131 6.98 9.92 11.04
4/13/2021 7:45:00 AM 8.54 47.372 0.131 6.99 9.84 11.09
4/13/2021 8:00:00 AM 8.57 47.426 0.131 7.01 9.77 11.13
4/13/2021 8:15:00 AM 8.6 47.48 0.131 7.01 9.38 11.17
4/13/2021 8:30:00 AM 8.64 47.552 0.131 7.03 9.19 11.19
4/13/2021 8:45:00 AM 8.67 47.606 0.131 7.05 9.23 11.21
4/13/2021 9:00:00 AM 8.7 47.66 0.131 7.06 9.1 11.23
4/13/2021 9:15:00 AM 8.74 47.732 0.131 7.07 9.19 11.25
4/13/2021 9:30:00 AM 8.77 47.786 0.131 7.08 9.06 11.26
4/13/2021 9:45:00 AM 8.82 47.876 0.131 7.08 8.4 11.27
4/13/2021 10:00:00 AM 8.88 47.984 0.131 7.1 8.68 11.29
4/13/2021 10:15:00 AM 8.96 48.128 0.13 7.12 8.74 11.3
4/13/2021 10:30:00 AM 9.02 48.236 0.131 7.15 8.3 11.3
4/13/2021 10:45:00 AM 9.12 48.416 0.131 7.15 8.03 11.3
4/13/2021 11:00:00 AM 9.26 48.668 0.131 7.15 8.26 11.31
4/13/2021 11:15:00 AM 9.49 49.082 0.131 7.18 8.44 11.3
4/13/2021 11:30:00 AM 9.59 49.262 0.131 7.19 7.97 11.28
4/13/2021 11:45:00 AM 9.68 49.424 0.13 7.21 8.06 11.27
4/13/2021 12:00:00 PM 9.77 49.586 0.13 7.2 7.86 11.26
4/13/2021 12:15:00 PM 9.9 49.82 0.13 7.22 7.87 11.24
4/13/2021 12:30:00 PM 10.06 50.108 0.13 7.25 7.73 11.24
4/13/2021 12:45:00 PM 10.22 50.396 0.13 7.25 7.56 11.21
4/13/2021 1:00:00 PM 10.34 50.612 0.13 7.25 7.62 11.18
4/13/2021 1:15:00 PM 10.51 50.918 0.13 7.26 7.88 11.15
4/13/2021 1:30:00 PM 10.68 51.224 0.13 7.27 8.06 11.13
4/13/2021 1:45:00 PM 10.69 51.242 0.131 7.27 8.05 11.09
4/13/2021 2:00:00 PM 10.94 51.692 0.13 7.28 7.83 11.06
4/13/2021 2:15:00 PM 11.1 51.98 0.13 7.29 7.67 11
4/13/2021 2:30:00 PM 11.33 52.394 0.131 7.3 7.61 10.95
4/13/2021 2:45:00 PM 11.58 52.844 0.131 7.33 7.37 10.9
4/13/2021 3:00:00 PM 11.82 53.276 0.131 7.34 7.51 10.85
4/13/2021 3:15:00 PM 12.02 53.636 0.13 7.34 7.74 10.83
4/13/2021 3:30:00 PM 12.19 53.942 0.131 7.35 7.67 10.78
4/13/2021 3:45:00 PM 12.31 54.158 0.131 7.35 7.31 10.73
4/13/2021 4:00:00 PM 12.45 54.41 0.131 7.33 7.51 10.66
4/13/2021 4:15:00 PM 12.4 54.32 0.131 7.32 7.89 10.61
4/13/2021 4:30:00 PM 12.38 54.284 0.131 7.3 7.48 10.61
4/13/2021 4:45:00 PM 12.35 54.23 0.131 7.3 7.49 10.62
4/13/2021 5:00:00 PM 12.38 54.284 0.131 7.28 7.53 10.6
4/13/2021 5:15:00 PM 12.46 54.428 0.131 7.27 7.45 10.55
4/13/2021 5:30:00 PM 12.57 54.626 0.131 7.28 7.15 10.51
4/13/2021 5:45:00 PM 12.65 54.77 0.131 7.28 7.12 10.47
4/13/2021 6:00:00 PM 12.71 54.878 0.131 7.28 7.31 10.42
4/13/2021 6:15:00 PM 12.74 54.932 0.131 7.27 7.17 10.39
4/13/2021 6:30:00 PM 12.74 54.932 0.131 7.26 7.8 10.35
4/13/2021 6:45:00 PM 12.68 54.824 0.131 7.24 7.64 10.3
4/13/2021 7:00:00 PM 12.62 54.716 0.131 7.21 7.48 10.25
4/13/2021 7:15:00 PM 12.55 54.59 0.131 7.18 7.31 10.21
4/13/2021 7:30:00 PM 12.5 54.5 0.131 7.16 7.44 10.19
4/13/2021 7:45:00 PM 12.43 54.374 0.131 7.14 7.34 10.16
4/13/2021 8:00:00 PM 12.36 54.248 0.131 7.12 7.66 10.12
4/13/2021 8:15:00 PM 12.28 54.104 0.131 7.1 7.63 10.1
4/13/2021 8:30:00 PM 12.2 53.96 0.131 7.07 7.52 10.08
4/13/2021 8:45:00 PM 12.12 53.816 0.131 7.06 7.81 10.07
4/13/2021 9:00:00 PM 12.03 53.654 0.131 7.04 8.15 10.07
4/13/2021 9:15:00 PM 11.94 53.492 0.131 7.04 7.75 10.08
4/13/2021 9:30:00 PM 11.85 53.33 0.131 7.02 7.89 10.09
4/13/2021 9:45:00 PM 11.75 53.15 0.132 7.01 7.68 10.09
4/13/2021 10:00:00 PM 11.64 52.952 0.131 6.99 7.65 10.11
4/13/2021 10:15:00 PM 11.52 52.736 0.131 6.97 7.38 10.13
4/13/2021 10:30:00 PM 11.4 52.52 0.132 6.96 7.49 10.15
4/13/2021 10:45:00 PM 11.28 52.304 0.131 6.94 7.47 10.18
4/13/2021 11:00:00 PM 11.15 52.07 0.132 6.93 7.94 10.21
4/13/2021 11:15:00 PM 11.02 51.836 0.131 6.93 7.54 10.24
4/13/2021 11:30:00 PM 10.89 51.602 0.132 6.91 7.81 10.27
4/13/2021 11:45:00 PM 10.77 51.386 0.132 6.92 7.9 10.3
4/14/2021 12:00:00 AM 10.65 51.17 0.131 6.92 7.84 10.33
4/14/2021 12:15:00 AM 10.53 50.954 0.131 6.9 7.94 10.36
4/14/2021 12:30:00 AM 10.41 50.738 0.131 6.92 7.63 10.38
4/14/2021 12:45:00 AM 10.3 50.54 0.132 6.92 7.91 10.42
4/14/2021 1:00:00 AM 10.18 50.324 0.132 6.91 7.41 10.44
4/14/2021 1:15:00 AM 10.08 50.144 0.132 6.92 7.81 10.47
4/14/2021 1:30:00 AM 9.97 49.946 0.132 6.91 7.65 10.49
4/14/2021 1:45:00 AM 9.87 49.766 0.132 6.91 7.56 10.52
4/14/2021 2:00:00 AM 9.77 49.586 0.132 6.91 7.11 10.55
4/14/2021 2:15:00 AM 9.68 49.424 0.132 6.91 7.43 10.57
4/14/2021 2:30:00 AM 9.59 49.262 0.132 6.92 7.16 10.6
4/14/2021 2:45:00 AM 9.51 49.118 0.132 6.9 7.02 10.62
4/14/2021 3:00:00 AM 9.43 48.974 0.132 6.92 7.2 10.65
4/14/2021 3:15:00 AM 9.37 48.866 0.132 6.92 7.14 10.66
4/14/2021 3:30:00 AM 9.32 48.776 0.132 6.93 7.09 10.68
4/14/2021 3:45:00 AM 9.28 48.704 0.132 6.94 6.82 10.7
4/14/2021 4:00:00 AM 9.23 48.614 0.132 6.93 7.21 10.72
4/14/2021 4:15:00 AM 9.16 48.488 0.132 6.95 6.97 10.73
4/14/2021 4:30:00 AM 9.09 48.362 0.132 6.94 7.13 10.75
4/14/2021 4:45:00 AM 9.03 48.254 0.132 6.92 7.12 10.77
4/14/2021 5:00:00 AM 8.97 48.146 0.132 6.95 7.04 10.79
4/14/2021 5:15:00 AM 8.93 48.074 0.132 6.94 6.82 10.8
4/14/2021 5:30:00 AM 8.9 48.02 0.132 6.95 6.8 10.81
4/14/2021 5:45:00 AM 8.87 47.966 0.132 6.95 6.88 10.82
4/14/2021 6:00:00 AM 8.84 47.912 0.132 6.96 6.85 10.83
4/14/2021 6:15:00 AM 8.81 47.858 0.132 6.96 6.83 10.84
4/14/2021 6:30:00 AM 8.77 47.786 0.132 6.96 7.13 10.86
4/14/2021 6:45:00 AM 8.74 47.732 0.132 6.97 7.17 10.87
4/14/2021 7:00:00 AM 8.72 47.696 0.132 6.97 7.15 10.9
4/14/2021 7:15:00 AM 8.7 47.66 0.132 6.98 6.82 10.94
4/14/2021 7:30:00 AM 8.69 47.642 0.132 6.99 6.75 11.01
4/14/2021 7:45:00 AM 8.67 47.606 0.132 7 6.68 11.07
4/14/2021 8:00:00 AM 8.66 47.588 0.132 7.03 6.43 11.12
4/14/2021 8:15:00 AM 8.68 47.624 0.132 7.05 6.1 11.18
4/14/2021 8:30:00 AM 8.72 47.696 0.132 7.06 6.46 11.24
4/14/2021 8:45:00 AM 8.8 47.84 0.132 7.1 6.18 11.29
4/14/2021 9:00:00 AM 8.86 47.948 0.132 7.12 6.48 11.32
4/14/2021 9:15:00 AM 8.94 48.092 0.132 7.14 6.29 11.34
4/14/2021 9:30:00 AM 9.05 48.29 0.132 7.15 6.41 11.36
4/14/2021 9:45:00 AM 9.18 48.524 0.132 7.18 6.15 11.37
4/14/2021 10:00:00 AM 9.3 48.74 0.132 7.22 6.24 11.39
4/14/2021 10:15:00 AM 9.47 49.046 0.132 7.25 6.17 11.39
4/14/2021 10:30:00 AM 9.59 49.262 0.132 7.26 6.16 11.39
4/14/2021 10:45:00 AM 9.85 49.73 0.132 7.29 6.11 11.38
4/14/2021 11:00:00 AM 10.04 50.072 0.132 7.32 5.81 11.36
4/14/2021 11:15:00 AM 10.2 50.36 0.132 7.34 5.98 11.35
4/14/2021 11:30:00 AM 10.41 50.738 0.132 7.36 5.86 11.32
4/14/2021 11:45:00 AM 10.7 51.26 0.132 7.37 5.77 11.29
4/14/2021 12:00:00 PM 10.74 51.332 0.132 7.36 5.74 11.23
4/14/2021 12:15:00 PM 10.81 51.458 0.132 7.36 5.59 11.18
4/14/2021 12:30:00 PM 10.79 51.422 0.132 7.34 5.6 11.14
4/14/2021 12:45:00 PM 10.73 51.314 0.132 7.32 5.6 11.09
4/14/2021 1:00:00 PM 10.85 51.53 0.132 7.31 5.65 11.07
4/14/2021 1:15:00 PM 10.89 51.602 0.132 7.32 5.84 11.06
4/14/2021 1:30:00 PM 10.9 51.62 0.132 7.32 5.65 11.06
4/14/2021 1:45:00 PM 11.02 51.836 0.132 7.34 5.63 11.06
4/14/2021 2:00:00 PM 11.14 52.052 0.132 7.36 5.67 11.04
4/14/2021 2:15:00 PM 11.3 52.34 0.132 7.37 5.5 11.03
4/14/2021 2:30:00 PM 11.41 52.538 0.132 7.39 5.51 11
4/14/2021 2:45:00 PM 11.62 52.916 0.132 7.41 5.61 10.98
4/14/2021 3:00:00 PM 11.97 53.546 0.132 7.48 5.52 10.95
4/14/2021 3:15:00 PM 12.01 53.618 0.132 7.47 5.7 10.89
4/14/2021 3:30:00 PM 12.12 53.816 0.132 7.46 5.54 10.83
4/14/2021 3:45:00 PM 12.15 53.87 0.132 7.45 5.44 10.8
4/14/2021 4:00:00 PM 12.22 53.996 0.132 7.43 5.28 10.76
4/14/2021 4:15:00 PM 12.25 54.05 0.132 7.43 5.32 10.74
4/14/2021 4:30:00 PM 12.3 54.14 0.132 7.42 5.29 10.71
4/14/2021 4:45:00 PM 12.36 54.248 0.132 7.42 5.46 10.69
4/14/2021 5:00:00 PM 12.41 54.338 0.132 7.41 5.38 10.66
4/14/2021 5:15:00 PM 12.44 54.392 0.132 7.4 5.39 10.62
4/14/2021 5:30:00 PM 12.41 54.338 0.132 7.39 5.5 10.57
4/14/2021 5:45:00 PM 12.38 54.284 0.132 7.35 5.49 10.5
4/14/2021 6:00:00 PM 12.41 54.338 0.133 7.32 5.57 10.46
4/14/2021 6:15:00 PM 12.43 54.374 0.132 7.33 5.41 10.43
4/14/2021 6:30:00 PM 12.45 54.41 0.133 7.31 5.49 10.38
4/14/2021 6:45:00 PM 12.47 54.446 0.133 7.3 5.58 10.32
4/14/2021 7:00:00 PM 12.47 54.446 0.133 7.28 5.56 10.27
4/14/2021 7:15:00 PM 12.44 54.392 0.133 7.25 5.33 10.19
4/14/2021 7:30:00 PM 12.4 54.32 0.133 7.23 5.5 10.12
4/14/2021 7:45:00 PM 12.36 54.248 0.133 7.2 5.38 10.06
4/14/2021 8:00:00 PM 12.32 54.176 0.133 7.19 5.5 10.02
4/14/2021 8:15:00 PM 12.29 54.122 0.133 7.17 5.61 9.99
4/14/2021 8:30:00 PM 12.24 54.032 0.133 7.16 5.64 9.97
4/14/2021 8:45:00 PM 12.2 53.96 0.133 7.14 5.79 9.95
4/14/2021 9:00:00 PM 12.16 53.888 0.133 7.13 5.76 9.94
4/14/2021 9:15:00 PM 12.13 53.834 0.133 7.13 5.55 9.94
4/14/2021 9:30:00 PM 12.1 53.78 0.133 7.12 5.68 9.93
4/14/2021 9:45:00 PM 12.06 53.708 0.133 7.11 5.64 9.93
4/14/2021 10:00:00 PM 12.01 53.618 0.133 7.1 5.56 9.93
4/14/2021 10:15:00 PM 11.95 53.51 0.134 7.1 5.76 9.94
4/14/2021 10:30:00 PM 11.88 53.384 0.134 7.09 5.7 9.95
4/14/2021 10:45:00 PM 11.79 53.222 0.134 7.07 5.58 9.97
4/14/2021 11:00:00 PM 11.69 53.042 0.134 7.07 5.82 9.97
4/14/2021 11:15:00 PM 11.6 52.88 0.134 7.05 5.9 9.99
4/14/2021 11:30:00 PM 11.49 52.682 0.134 7.04 5.76 10.02
4/14/2021 11:45:00 PM 11.4 52.52 0.134 7.03 6.22 10.03
4/15/2021 12:00:00 AM 11.32 52.376 0.134 7.02 5.7 10.06
4/15/2021 12:15:00 AM 11.24 52.232 0.134 7.02 5.68 10.08
4/15/2021 12:30:00 AM 11.17 52.106 0.134 7.02 5.82 10.09
4/15/2021 12:45:00 AM 11.1 51.98 0.134 7.02 5.84 10.12
4/15/2021 1:00:00 AM 11.02 51.836 0.134 7.01 5.64 10.13
4/15/2021 1:15:00 AM 10.95 51.71 0.134 7 5.66 10.15
4/15/2021 1:30:00 AM 10.87 51.566 0.134 7.01 5.52 10.17
4/15/2021 1:45:00 AM 10.8 51.44 0.134 7.01 5.88 10.19
4/15/2021 2:00:00 AM 10.74 51.332 0.134 7.01 5.83 10.2
4/15/2021 2:15:00 AM 10.67 51.206 0.134 7.01 5.67 10.22
4/15/2021 2:30:00 AM 10.6 51.08 0.134 7.01 5.72 10.23
4/15/2021 2:45:00 AM 10.54 50.972 0.134 7.01 5.72 10.25
4/15/2021 3:00:00 AM 10.47 50.846 0.134 7.01 5.82 10.26
4/15/2021 3:15:00 AM 10.41 50.738 0.134 7.01 5.62 10.28
4/15/2021 3:30:00 AM 10.34 50.612 0.134 7.01 5.85 10.29
4/15/2021 3:45:00 AM 10.27 50.486 0.134 7.01 5.48 10.3
4/15/2021 4:00:00 AM 10.21 50.378 0.134 7 5.53 10.32
4/15/2021 4:15:00 AM 10.15 50.27 0.134 7.01 5.56 10.34
4/15/2021 4:30:00 AM 10.09 50.162 0.134 7.01 5.56 10.35
4/15/2021 4:45:00 AM 10.03 50.054 0.134 7 5.79 10.37
4/15/2021 5:00:00 AM 9.97 49.946 0.134 7.01 5.48 10.38
4/15/2021 5:15:00 AM 9.92 49.856 0.134 7.01 5.81 10.4
4/15/2021 5:30:00 AM 9.86 49.748 0.134 7.01 5.56 10.41
4/15/2021 5:45:00 AM 9.8 49.64 0.134 7 5.8 10.43
4/15/2021 6:00:00 AM 9.74 49.532 0.134 7.01 5.4 10.44
4/15/2021 6:15:00 AM 9.68 49.424 0.134 7.01 5.64 10.46
4/15/2021 6:30:00 AM 9.63 49.334 0.134 7 5.58 10.47
4/15/2021 6:45:00 AM 9.59 49.262 0.134 7.03 5.5 10.49
4/15/2021 7:00:00 AM 9.55 49.19 0.134 7.01 5.54 10.53
4/15/2021 7:15:00 AM 9.52 49.136 0.134 7.04 5.36 10.58
4/15/2021 7:30:00 AM 9.49 49.082 0.134 7.05 5.33 10.63
4/15/2021 7:45:00 AM 9.47 49.046 0.134 7.07 5.35 10.67
4/15/2021 8:00:00 AM 9.44 48.992 0.134 7.05 5.45 10.71
4/15/2021 8:15:00 AM 9.42 48.956 0.134 7.09 5.4 10.77
4/15/2021 8:30:00 AM 9.43 48.974 0.134 7.12 5.44 10.87
4/15/2021 8:45:00 AM 9.44 48.992 0.134 7.14 5.5 10.96
4/15/2021 9:00:00 AM 9.45 49.01 0.134 7.16 5.34 11.02
4/15/2021 9:15:00 AM 9.46 49.028 0.135 7.18 5.11 11.06
4/15/2021 9:30:00 AM 9.49 49.082 0.134 7.21 5.08 11.11
4/15/2021 9:45:00 AM 9.48 49.064 0.135 7.22 5.13 11.13
4/15/2021 10:00:00 AM 9.45 49.01 0.135 7.22 5.1 11.12
4/15/2021 10:15:00 AM 9.41 48.938 0.135 7.22 5.04 11.09
4/15/2021 10:30:00 AM 9.38 48.884 0.135 7.21 4.93 11.07
4/15/2021 10:45:00 AM 9.35 48.83 0.135 7.21 4.9 11.1
4/15/2021 11:00:00 AM 9.33 48.794 0.135 7.22 5.02 11.11
4/15/2021 11:15:00 AM 9.33 48.794 0.134 7.22 4.91 11.16
4/15/2021 11:30:00 AM 9.33 48.794 0.134 7.24 5.02 11.2
4/15/2021 11:45:00 AM 9.32 48.776 0.134 7.25 4.76 11.23
4/15/2021 12:00:00 PM 9.31 48.758 0.134 7.25 4.98 11.21
4/15/2021 12:15:00 PM 9.3 48.74 0.134 7.26 5.08 11.22
4/15/2021 12:30:00 PM 9.32 48.776 0.134 7.28 4.95 11.29
4/15/2021 12:45:00 PM 9.32 48.776 0.134 7.31 4.98 11.34
4/15/2021 1:00:00 PM 9.34 48.812 0.134 7.32 5.08 11.38
4/15/2021 1:15:00 PM 9.43 48.974 0.133 7.35 4.91 11.42
4/15/2021 1:30:00 PM 9.58 49.244 0.133 7.39 5.1 11.44
4/15/2021 1:45:00 PM 9.6 49.28 0.133 7.4 4.89 11.43
4/15/2021 2:00:00 PM 9.65 49.37 0.133 7.41 4.96 11.43
4/15/2021 2:15:00 PM 9.65 49.37 0.133 7.41 4.72 11.42
4/15/2021 2:30:00 PM 9.59 49.262 0.133 7.38 4.86 11.36
4/15/2021 2:45:00 PM 9.52 49.136 0.133 7.35 4.87 11.26
4/15/2021 3:00:00 PM 9.46 49.028 0.133 7.3 4.81 11.2
4/15/2021 3:15:00 PM 9.42 48.956 0.133 7.3 4.82 11.22
4/15/2021 3:30:00 PM 9.4 48.92 0.133 7.31 4.72 11.27
4/15/2021 3:45:00 PM 9.4 48.92 0.133 7.32 4.78 11.31
4/15/2021 4:00:00 PM 9.4 48.92 0.133 7.33 4.78 11.32
4/15/2021 4:15:00 PM 9.38 48.884 0.134 7.32 4.86 11.28
4/15/2021 4:30:00 PM 9.37 48.866 0.134 7.31 4.87 11.25
4/15/2021 4:45:00 PM 9.35 48.83 0.134 7.31 4.66 11.25
4/15/2021 5:00:00 PM 9.32 48.776 0.134 7.29 4.83 11.25
4/15/2021 5:15:00 PM 9.27 48.686 0.134 7.29 4.69 11.22
4/15/2021 5:30:00 PM 9.23 48.614 0.134 7.27 4.89 11.17
4/15/2021 5:45:00 PM 9.19 48.542 0.134 7.26 4.96 11.16
4/15/2021 6:00:00 PM 9.14 48.452 0.134 7.25 4.89 11.12
4/15/2021 6:15:00 PM 9.09 48.362 0.134 7.22 4.75 11.09
4/15/2021 6:30:00 PM 9.05 48.29 0.134 7.2 4.82 11.05
4/15/2021 6:45:00 PM 9.02 48.236 0.134 7.19 4.86 11.03
4/15/2021 7:00:00 PM 8.99 48.182 0.134 7.18 4.88 11
4/15/2021 7:15:00 PM 8.97 48.146 0.134 7.18 4.98 11.01
4/15/2021 7:30:00 PM 8.92 48.056 0.135 7.17 4.89 10.99
4/15/2021 7:45:00 PM 8.87 47.966 0.135 7.15 4.91 10.97
4/15/2021 8:00:00 PM 8.81 47.858 0.135 7.13 5.05 10.93
4/15/2021 8:15:00 PM 8.75 47.75 0.135 7.11 4.98 10.9
4/15/2021 8:30:00 PM 8.7 47.66 0.135 7.11 4.93 10.88
4/15/2021 8:45:00 PM 8.64 47.552 0.135 7.09 4.91 10.87
4/15/2021 9:00:00 PM 8.59 47.462 0.135 7.08 5.06 10.86
4/15/2021 9:15:00 PM 8.54 47.372 0.135 7.07 5.27 10.86
4/15/2021 9:30:00 PM 8.49 47.282 0.135 7.07 5.12 10.87
4/15/2021 9:45:00 PM 8.43 47.174 0.135 7.06 5.38 10.87
4/15/2021 10:00:00 PM 8.37 47.066 0.135 7.05 5.43 10.88
4/15/2021 10:15:00 PM 8.31 46.958 0.135 7.05 5.22 10.89
4/15/2021 10:30:00 PM 8.26 46.868 0.135 7.04 5.13 10.9
4/15/2021 10:45:00 PM 8.22 46.796 0.135 7.04 5.23 10.9
4/15/2021 11:00:00 PM 8.17 46.706 0.135 7.04 5.18 10.91
4/15/2021 11:15:00 PM 8.12 46.616 0.135 7.04 5.3 10.92
4/15/2021 11:30:00 PM 8.05 46.49 0.135 7.03 5.2 10.93
4/15/2021 11:45:00 PM 7.99 46.382 0.135 7.02 5.19 10.95
4/16/2021 12:00:00 AM 7.92 46.256 0.135 7.02 5.48 10.96
4/16/2021 12:15:00 AM 7.85 46.13 0.135 7.02 5.31 10.97
4/16/2021 12:30:00 AM 7.78 46.004 0.135 7.01 5.03 10.99
4/16/2021 12:45:00 AM 7.74 45.932 0.135 7.01 5.25 11
4/16/2021 1:00:00 AM 7.7 45.86 0.135 7.01 5.2 11.01
4/16/2021 1:15:00 AM 7.66 45.788 0.135 7.01 5.24 11.03
4/16/2021 1:30:00 AM 7.63 45.734 0.135 7.01 5.24 11.04
4/16/2021 1:45:00 AM 7.59 45.662 0.135 7.02 5.36 11.05
4/16/2021 2:00:00 AM 7.56 45.608 0.135 7.02 5.31 11.06
4/16/2021 2:15:00 AM 7.53 45.554 0.134 7.02 5.2 11.08
4/16/2021 2:30:00 AM 7.5 45.5 0.135 7.03 5.04 11.08
4/16/2021 2:45:00 AM 7.47 45.446 0.135 7.02 4.9 11.09
4/16/2021 3:00:00 AM 7.44 45.392 0.135 7.03 5.04 11.1
4/16/2021 3:15:00 AM 7.41 45.338 0.135 7.03 5.22 11.11
4/16/2021 3:30:00 AM 7.39 45.302 0.135 7.03 5.1 11.12
4/16/2021 3:45:00 AM 7.36 45.248 0.135 7.02 4.98 11.13
4/16/2021 4:00:00 AM 7.34 45.212 0.135 7.03 5.02 11.13
4/16/2021 4:15:00 AM 7.31 45.158 0.135 7.02 5 11.14
4/16/2021 4:30:00 AM 7.28 45.104 0.135 7.03 5.05 11.15
4/16/2021 4:45:00 AM 7.25 45.05 0.134 7.04 5.06 11.16
4/16/2021 5:00:00 AM 7.22 44.996 0.135 7.04 4.84 11.17
4/16/2021 5:15:00 AM 7.19 44.942 0.135 7.03 4.96 11.17
4/16/2021 5:30:00 AM 7.17 44.906 0.135 7.04 4.84 11.19
4/16/2021 5:45:00 AM 7.14 44.852 0.135 7.04 4.97 11.19
4/16/2021 6:00:00 AM 7.12 44.816 0.135 7.03 4.92 11.2
4/16/2021 6:15:00 AM 7.09 44.762 0.135 7.03 5.03 11.21
4/16/2021 6:30:00 AM 7.06 44.708 0.134 7.03 4.96 11.22
4/16/2021 6:45:00 AM 7.02 44.636 0.134 7.04 4.78 11.23
4/16/2021 7:00:00 AM 6.99 44.582 0.134 7.03 4.97 11.25
4/16/2021 7:15:00 AM 6.93 44.474 0.134 7.04 5.07 11.28
4/16/2021 7:30:00 AM 6.86 44.348 0.134 7.02 5.22 11.33
4/16/2021 7:45:00 AM 6.83 44.294 0.134 7.05 5.02 11.41
4/16/2021 8:00:00 AM 6.81 44.258 0.134 7.05 5.14 11.47
4/16/2021 8:15:00 AM 6.79 44.222 0.134 7.06 5.18 11.5
4/16/2021 8:30:00 AM 6.79 44.222 0.134 7.07 5.16 11.54
4/16/2021 8:45:00 AM 6.79 44.222 0.134 7.09 4.97 11.59
4/16/2021 9:00:00 AM 6.79 44.222 0.134 7.11 5.15 11.63
4/16/2021 9:15:00 AM 6.8 44.24 0.134 7.13 5 11.68
4/16/2021 9:30:00 AM 6.81 44.258 0.134 7.14 5.14 11.74
4/16/2021 9:45:00 AM 6.83 44.294 0.134 7.16 5.03 11.79
4/16/2021 10:00:00 AM 6.87 44.366 0.134 7.18 5.04 11.85
4/16/2021 10:15:00 AM 6.91 44.438 0.134 7.21 5.15